Darstellungsparameter: Aktuell verwendete Einstellungen:
Skalierung der Graphiken ... ?
xyx+y,   Skalierungsfaktor:      Skalierung: Modus: x, Faktor: 1
Darstellungszeitraum ... ?
Vom - - bis: - -   Zeitraum: 16.08.2003 - 15.02.2004
Min/Max/Avg-Anzeige ... ?
Zeige MMA aktuell
Zeige MMA Monat
Zeige MMA alles
Zeige --A aktuell
Zeige --A Monat
Zeige --A alles
Keine MMA-Anzeige
MMA:
Minimum Maximum Average (ber die Originaldaten)
MMA-Basis: 16.08.2003 - 15.02.2004
Quicknavigation für Darstellung... ?
Tage:      1T, 2T, 3T, 5T -1T -2T -3T -5T +1T +2T +3T +5T
Wochen: 1W, 2W, 3W -1W -2W -3W +1W +2W +3W
Monate: 1M, 3M, 6M -1M -3M -6M +1M +3M +6M
Jahre:    1J, 3J, 5J, 10J -1J -3J -5J -10J +1J +3J +5J +10J
Nutze für die Darstellung ... ?
Originaldaten oder Mittelwerte auf ...
Stundenbasis Tagesbasis Wochenbasis
Monatsbasis Jahresbasis      Datenbasis: Original-Daten
Darstellen als:
Statistik (Auto) Statistik J:M      Darstellung:
Zur Graphik,    zurück zur Übersicht aller Sensoren.
 
Tabellarische Datenbersicht: ?
 
Sensor: Nr:Datum:Temp:Feuchte:Taupunkt:
Aussen-T/F 1 16-08-2003 00:01:03 18.2 C 48 % 7.02 C
2 16-08-2003 00:11:03 18 C 47 % 6.53 C
3 16-08-2003 00:21:03 17.8 C 48 % 6.65 C
4 16-08-2003 00:31:03 17.4 C 50 % 6.88 C
5 16-08-2003 00:41:03 17.4 C 49 % 6.59 C
6 16-08-2003 00:51:03 16.9 C 52 % 6.99 C
7 16-08-2003 01:01:03 16.9 C 53 % 7.27 C
8 16-08-2003 01:11:03 16.7 C 53 % 7.08 C
9 16-08-2003 01:21:03 16.7 C 54 % 7.36 C
10 16-08-2003 01:31:03 16.3 C 53 % 6.71 C
11 16-08-2003 01:41:03 16.3 C 55 % 7.25 C
12 16-08-2003 01:51:03 16 C 56 % 7.24 C
13 16-08-2003 02:01:03 15.8 C 58 % 7.56 C
14 16-08-2003 02:11:03 15.7 C 58 % 7.47 C
15 16-08-2003 02:21:03 15.5 C 58 % 7.28 C
16 16-08-2003 02:31:03 15.3 C 58 % 7.09 C
17 16-08-2003 02:41:03 15.2 C 59 % 7.25 C
18 16-08-2003 02:51:03 15 C 59 % 7.06 C
19 16-08-2003 03:01:03 15 C 60 % 7.31 C
20 16-08-2003 03:11:03 14.7 C 63 % 7.74 C
21 16-08-2003 03:21:03 14.7 C 63 % 7.74 C
22 16-08-2003 03:31:03 14.4 C 63 % 7.45 C
23 16-08-2003 03:41:03 14.4 C 63 % 7.45 C
24 16-08-2003 03:51:03 14.3 C 63 % 7.36 C
25 16-08-2003 04:01:03 14.2 C 63 % 7.27 C
Sensor: Nr:Datum:Temp:Feuchte:Taupunkt:
Aussen-T/F 26 16-08-2003 04:11:03 14.1 C 63 % 7.17 C
27 16-08-2003 04:21:03 13.9 C 65 % 7.44 C
28 16-08-2003 04:31:03 13.7 C 66 % 7.47 C
29 16-08-2003 04:41:03 13.5 C 67 % 7.5 C
30 16-08-2003 04:51:03 13.4 C 67 % 7.4 C
31 16-08-2003 05:01:03 13.4 C 67 % 7.4 C
32 16-08-2003 05:11:03 13.3 C 67 % 7.31 C
33 16-08-2003 05:21:03 13.2 C 68 % 7.43 C
34 16-08-2003 05:31:03 13.1 C 69 % 7.55 C
35 16-08-2003 05:41:03 12.9 C 71 % 7.78 C
36 16-08-2003 05:51:03 12.8 C 71 % 7.68 C
37 16-08-2003 06:01:03 12.7 C 72 % 7.79 C
38 16-08-2003 06:11:03 12.6 C 73 % 7.89 C
39 16-08-2003 06:21:03 12.5 C 73 % 7.8 C
40 16-08-2003 06:31:03 12.3 C 74 % 7.8 C
41 16-08-2003 06:41:03 12.2 C 74 % 7.71 C
42 16-08-2003 06:51:03 12.1 C 75 % 7.81 C
43 16-08-2003 07:01:03 12.2 C 74 % 7.71 C
44 16-08-2003 07:11:03 12.4 C 74 % 7.9 C
45 16-08-2003 07:21:03 12.5 C 74 % 8 C
46 16-08-2003 07:31:03 12.6 C 74 % 8.09 C
47 16-08-2003 07:41:03 12.7 C 73 % 7.99 C
48 16-08-2003 07:51:03 13 C 73 % 8.28 C
49 16-08-2003 08:01:03 13.1 C 73 % 8.38 C
50 16-08-2003 08:11:03 13.2 C 73 % 8.47 C
Sensor: Nr:Datum:Temp:Feuchte:Taupunkt:
Aussen-T/F 51 16-08-2003 08:21:03 13.5 C 72 % 8.56 C
52 16-08-2003 08:31:03 13.8 C 71 % 8.64 C
53 16-08-2003 08:41:03 14.5 C 68 % 8.67 C
54 16-08-2003 08:51:03 14.7 C 66 % 8.42 C
55 16-08-2003 09:01:03 15.2 C 65 % 8.67 C
56 16-08-2003 09:11:03 15.5 C 63 % 8.49 C
57 16-08-2003 09:21:03 15.9 C 61 % 8.4 C
58 16-08-2003 09:31:03 16.4 C 58 % 8.12 C
59 16-08-2003 09:41:03 16.8 C 58 % 8.5 C
60 16-08-2003 09:51:03 17.5 C 56 % 8.63 C
61 16-08-2003 10:01:03 18 C 54 % 8.56 C
62 16-08-2003 10:11:03 18.2 C 52 % 8.19 C
63 16-08-2003 10:21:03 18.8 C 52 % 8.75 C
64 16-08-2003 10:31:03 19.7 C 50 % 8.99 C
65 16-08-2003 10:41:02 20.4 C 47 % 8.72 C
66 16-08-2003 10:51:02 20.8 C 46 % 8.77 C
67 16-08-2003 11:01:02 21.2 C 45 % 8.8 C
68 16-08-2003 11:11:01 21.5 C 43 % 8.4 C
69 16-08-2003 11:21:01 21.8 C 44 % 9.01 C
70 16-08-2003 11:31:01 22.4 C 41 % 8.51 C
71 16-08-2003 11:41:01 22.9 C 39 % 8.22 C
72 16-08-2003 11:51:01 23.4 C 37 % 7.89 C
73 16-08-2003 12:01:01 23.8 C 35 % 7.43 C
74 16-08-2003 12:11:01 24.1 C 35 % 7.69 C
75 16-08-2003 12:21:01 24.2 C 34 % 7.36 C
Sensor: Nr:Datum:Temp:Feuchte:Taupunkt:
Aussen-T/F 76 16-08-2003 12:31:01 24.4 C 33 % 7.1 C
77 16-08-2003 12:41:01 24.5 C 32 % 6.74 C
78 16-08-2003 12:51:01 24.9 C 32 % 7.08 C
79 16-08-2003 13:01:01 25.6 C 31 % 7.23 C
80 16-08-2003 13:11:00 25.4 C 31 % 7.05 C
81 16-08-2003 13:21:00 25.8 C 31 % 7.4 C
82 16-08-2003 13:31:00 25.7 C 30 % 6.84 C
83 16-08-2003 13:41:02 26.6 C 28 % 6.61 C
84 16-08-2003 13:51:02 27 C 27 % 6.42 C
85 16-08-2003 14:01:02 27.6 C 26 % 6.38 C
86 16-08-2003 14:11:01 27.8 C 26 % 6.55 C
87 16-08-2003 14:21:01 27.7 C 25 % 5.9 C
88 16-08-2003 14:31:01 28.3 C 23 % 5.2 C
89 16-08-2003 14:41:02 29.1 C 22 % 5.23 C
90 16-08-2003 14:51:02 29.6 C 22 % 5.64 C
91 16-08-2003 15:01:02 28.9 C 21 % 4.4 C
92 16-08-2003 15:11:02 29.1 C 21 % 4.56 C
93 16-08-2003 15:21:02 29.2 C 20 % 3.95 C
94 16-08-2003 15:31:02 30.1 C 20 % 4.69 C
95 16-08-2003 15:41:02 29.8 C 20 % 4.44 C
96 16-08-2003 15:51:02 29.1 C 20 % 3.87 C
97 16-08-2003 16:01:02 29.3 C 20 % 4.03 C
98 16-08-2003 16:11:01 29.9 C 20 % 4.52 C
99 16-08-2003 16:21:01 30.7 C 20 % 5.18 C
100 16-08-2003 16:31:01 31 C 20 % 5.42 C
Sensor: Nr:Datum:Temp:Feuchte:Taupunkt:
Aussen-T/F 101 16-08-2003 16:41:02 30.2 C 20 % 4.77 C
102 16-08-2003 16:51:02 30.2 C 20 % 4.77 C
103 16-08-2003 17:01:02 30.2 C 20 % 4.77 C
104 16-08-2003 17:11:02 30.3 C 20 % 4.85 C
105 16-08-2003 17:21:02 30 C 20 % 4.61 C
106 16-08-2003 17:31:02 29.5 C 20 % 4.2 C
107 16-08-2003 17:41:01 29.5 C 20 % 4.2 C
108 16-08-2003 17:51:01 30.4 C 20 % 4.93 C
109 16-08-2003 18:01:01 30.1 C 20 % 4.69 C
110 16-08-2003 18:11:02 29.5 C 20 % 4.2 C
111 16-08-2003 18:21:02 29.2 C 20 % 3.95 C
112 16-08-2003 18:31:02 29.2 C 21 % 4.64 C
113 16-08-2003 18:41:01 29.1 C 20 % 3.87 C
114 16-08-2003 18:51:01 28.7 C 21 % 4.23 C
115 16-08-2003 19:01:01 28.7 C 21 % 4.23 C
116 16-08-2003 19:11:02 28.6 C 20 % 3.46 C
117 16-08-2003 19:21:02 27.9 C 21 % 3.57 C
118 16-08-2003 19:31:02 27.7 C 21 % 3.41 C
119 16-08-2003 19:41:01 27 C 21 % 2.83 C
120 16-08-2003 19:51:01 27.3 C 21 % 3.08 C
121 16-08-2003 20:01:01 26.9 C 22 % 3.4 C
122 16-08-2003 20:11:02 26.2 C 25 % 4.63 C
123 16-08-2003 20:21:02 25.7 C 28 % 5.84 C
124 16-08-2003 20:31:02 25 C 29 % 5.74 C
125 16-08-2003 20:41:01 24.3 C 30 % 5.63 C
Sensor: Nr:Datum:Temp:Feuchte:Taupunkt:
Aussen-T/F 126 16-08-2003 20:51:01 23.7 C 31 % 5.58 C
127 16-08-2003 21:01:01 23.1 C 32 % 5.52 C
128 16-08-2003 21:11:01 22.8 C 34 % 6.13 C
129 16-08-2003 21:21:01 22.7 C 34 % 6.04 C
130 16-08-2003 21:31:01 22.3 C 35 % 6.11 C
131 16-08-2003 21:41:57 22.1 C 35 % 5.94 C
132 16-08-2003 21:51:57 22.1 C 35 % 5.94 C
133 16-08-2003 22:01:57 21.9 C 36 % 6.17 C
134 16-08-2003 22:11:57 21.8 C 37 % 6.48 C
135 16-08-2003 22:21:02 21.8 C 37 % 6.48 C
136 16-08-2003 22:31:02 21.4 C 37 % 6.12 C
137 16-08-2003 22:42:01 21.1 C 38 % 6.24 C
138 16-08-2003 22:52:01 20.9 C 40 % 6.81 C
139 16-08-2003 23:02:01 20.7 C 40 % 6.63 C
140 16-08-2003 23:12:01 20.5 C 40 % 6.45 C
141 16-08-2003 23:22:01 20.3 C 41 % 6.63 C
142 16-08-2003 23:32:01 20.1 C 41 % 6.45 C
143 16-08-2003 23:42:01 20.1 C 40 % 6.09 C
144 16-08-2003 23:52:01 20 C 41 % 6.36 C
145 17-08-2003 00:02:01 19.7 C 42 % 6.44 C
146 17-08-2003 00:12:01 19.5 C 42 % 6.26 C
147 17-08-2003 00:22:01 19.3 C 43 % 6.42 C
148 17-08-2003 00:32:01 19.2 C 43 % 6.33 C
149 17-08-2003 00:42:01 19.1 C 43 % 6.24 C
150 17-08-2003 00:52:01 18.8 C 45 % 6.63 C
Sensor: Nr:Datum:Temp:Feuchte:Taupunkt:
Aussen-T/F 151 17-08-2003 01:02:01 18.7 C 45 % 6.54 C
152 17-08-2003 01:12:01 18.6 C 46 % 6.77 C
153 17-08-2003 01:22:01 18.5 C 46 % 6.67 C
154 17-08-2003 01:32:01 18.5 C 47 % 6.99 C
155 17-08-2003 01:42:01 18.3 C 48 % 7.11 C
156 17-08-2003 01:52:01 18.1 C 48 % 6.93 C
157 17-08-2003 02:02:01 18.1 C 47 % 6.62 C
158 17-08-2003 02:12:01 17.9 C 51 % 7.63 C
159 17-08-2003 02:22:01 17.6 C 49 % 6.77 C
160 17-08-2003 02:32:01 17.5 C 50 % 6.97 C
161 17-08-2003 02:42:01 17.4 C 49 % 6.59 C
162 17-08-2003 02:52:01 17.2 C 49 % 6.4 C
163 17-08-2003 03:02:01 17 C 50 % 6.51 C
164 17-08-2003 03:12:01 16.8 C 50 % 6.33 C
165 17-08-2003 03:22:01 16.6 C 50 % 6.15 C
166 17-08-2003 03:32:01 16.6 C 52 % 6.71 C
167 17-08-2003 03:42:01 16.4 C 52 % 6.53 C
168 17-08-2003 03:52:01 16.3 C 52 % 6.44 C
169 17-08-2003 04:02:01 16.2 C 53 % 6.62 C
170 17-08-2003 04:12:01 16.2 C 54 % 6.89 C
171 17-08-2003 04:22:01 16.1 C 54 % 6.8 C
172 17-08-2003 04:32:01 15.8 C 54 % 6.52 C
173 17-08-2003 04:42:01 15.7 C 55 % 6.69 C
174 17-08-2003 04:52:01 15.6 C 55 % 6.6 C
175 17-08-2003 05:02:01 15.5 C 55 % 6.51 C
Sensor: Nr:Datum:Temp:Feuchte:Taupunkt:
Aussen-T/F 176 17-08-2003 05:12:01 15.4 C 56 % 6.68 C
177 17-08-2003 05:22:01 15.3 C 56 % 6.58 C
178 17-08-2003 05:32:01 15 C 58 % 6.81 C
179 17-08-2003 05:42:01 15 C 57 % 6.56 C
180 17-08-2003 05:52:01 14.8 C 57 % 6.37 C
181 17-08-2003 06:02:01 14.8 C 60 % 7.12 C
182 17-08-2003 06:12:01 14.7 C 61 % 7.27 C
183 17-08-2003 06:22:01 14.7 C 61 % 7.27 C
184 17-08-2003 06:32:01 14.6 C 62 % 7.41 C
185 17-08-2003 06:42:01 14.7 C 63 % 7.74 C
186 17-08-2003 06:52:01 14.8 C 64 % 8.06 C
187 17-08-2003 07:02:01 14.8 C 64 % 8.06 C
188 17-08-2003 07:12:01 14.9 C 64 % 8.16 C
189 17-08-2003 07:22:01 15 C 63 % 8.02 C
190 17-08-2003 07:32:01 15.2 C 64 % 8.44 C
191 17-08-2003 07:42:01 15.3 C 62 % 8.07 C
192 17-08-2003 07:52:01 15.5 C 64 % 8.73 C
193 17-08-2003 08:02:01 15.7 C 63 % 8.68 C
194 17-08-2003 08:12:01 15.8 C 62 % 8.54 C
195 17-08-2003 08:22:01 16.2 C 61 % 8.68 C
196 17-08-2003 08:32:01 16.7 C 61 % 9.15 C
197 17-08-2003 08:42:01 17.2 C 59 % 9.13 C
198 17-08-2003 08:52:01 18.2 C 55 % 9.02 C
199 17-08-2003 09:02:01 18.6 C 55 % 9.39 C
200 17-08-2003 09:12:01 18.7 C 54 % 9.21 C
Sensor: Nr:Datum:Temp:Feuchte:Taupunkt:
Aussen-T/F 201 17-08-2003 09:22:01 19 C 51 % 8.64 C
202 17-08-2003 09:32:01 19.3 C 50 % 8.63 C
203 17-08-2003 09:42:01 19.7 C 49 % 8.7 C
204 17-08-2003 09:52:01 20.4 C 46 % 8.4 C
205 17-08-2003 10:02:01 21 C 43 % 7.95 C
206 17-08-2003 10:12:01 21.7 C 38 % 6.77 C
207 17-08-2003 10:22:01 22.2 C 37 % 6.83 C
208 17-08-2003 10:32:02 22.4 C 37 % 7.01 C
209 17-08-2003 10:42:02 22.5 C 37 % 7.1 C
210 17-08-2003 10:52:02 23 C 36 % 7.14 C
211 17-08-2003 11:02:02 23.4 C 34 % 6.66 C
212 17-08-2003 11:12:02 23.4 C 34 % 6.66 C
213 17-08-2003 11:22:02 24.2 C 33 % 6.92 C
214 17-08-2003 11:32:01 25.2 C 30 % 6.41 C
215 17-08-2003 11:42:01 25.7 C 31 % 7.31 C
216 17-08-2003 11:52:01 26.6 C 29 % 7.12 C
217 17-08-2003 12:02:03 26.4 C 28 % 6.43 C
218 17-08-2003 12:12:03 25.9 C 29 % 6.52 C
219 17-08-2003 12:22:03 25.8 C 30 % 6.92 C
220 17-08-2003 12:32:06 25.8 C 29 % 6.43 C
221 17-08-2003 12:42:06 25.6 C 32 % 7.69 C
222 17-08-2003 12:52:06 25.2 C 35 % 8.66 C
223 17-08-2003 13:02:02 25.3 C 34 % 8.32 C
224 17-08-2003 13:12:02 25.9 C 30 % 7.01 C
225 17-08-2003 13:22:02 27.2 C 28 % 7.12 C
Sensor: Nr:Datum:Temp:Feuchte:Taupunkt:
Aussen-T/F 226 17-08-2003 13:32:02 27.9 C 27 % 7.18 C
227 17-08-2003 13:42:02 28 C 26 % 6.72 C
228 17-08-2003 13:52:02 28.3 C 25 % 6.4 C
229 17-08-2003 14:02:03 28.6 C 25 % 6.66 C
230 17-08-2003 14:12:03 28.9 C 25 % 6.91 C
231 17-08-2003 14:22:03 29 C 25 % 6.99 C
232 17-08-2003 14:32:01 29.2 C 25 % 7.16 C
233 17-08-2003 14:42:01 29.3 C 25 % 7.25 C
234 17-08-2003 14:52:01 30.3 C 24 % 7.49 C
235 17-08-2003 15:02:00 30.3 C 24 % 7.49 C
236 17-08-2003 15:12:00 30.5 C 23 % 7.03 C
237 17-08-2003 15:22:00 30.7 C 22 % 6.55 C
238 17-08-2003 15:32:01 30.6 C 23 % 7.12 C
239 17-08-2003 15:42:01 30.3 C 24 % 7.49 C
240 17-08-2003 15:52:01 30 C 24 % 7.24 C
241 17-08-2003 16:02:00 29.4 C 28 % 9 C
242 17-08-2003 16:12:00 28 C 32 % 9.77 C
243 17-08-2003 16:22:00 27 C 35 % 10.24 C
244 17-08-2003 16:32:01 27.8 C 32 % 9.6 C
245 17-08-2003 16:42:01 28.6 C 30 % 9.33 C
246 17-08-2003 16:52:01 29.2 C 27 % 8.29 C
247 17-08-2003 17:02:07 29.6 C 28 % 9.17 C
248 17-08-2003 17:12:07 30 C 25 % 7.83 C
249 17-08-2003 17:22:07 30.1 C 24 % 7.32 C
250 17-08-2003 17:32:01 30.1 C 24 % 7.32 C
Sensor: Nr:Datum:Temp:Feuchte:Taupunkt:
Aussen-T/F 251 17-08-2003 17:42:01 30.1 C 24 % 7.32 C
252 17-08-2003 17:52:01 30.1 C 25 % 7.92 C
253 17-08-2003 18:02:00 30.3 C 25 % 8.09 C
254 17-08-2003 18:12:00 30.3 C 24 % 7.49 C
255 17-08-2003 18:22:00 30.4 C 24 % 7.57 C
256 17-08-2003 18:32:01 30.4 C 24 % 7.57 C
257 17-08-2003 18:42:01 30.5 C 24 % 7.66 C
258 17-08-2003 18:52:01 30.3 C 23 % 6.87 C
259 17-08-2003 19:02:00 30 C 24 % 7.24 C
260 17-08-2003 19:12:00 29.5 C 28 % 9.08 C
261 17-08-2003 19:22:00 28.8 C 30 % 9.51 C
262 17-08-2003 19:32:02 28.2 C 30 % 8.99 C
263 17-08-2003 19:42:02 28 C 30 % 8.82 C
264 17-08-2003 19:52:02 27.8 C 31 % 9.13 C
265 17-08-2003 20:02:26 27.5 C 32 % 9.34 C
266 17-08-2003 20:12:26 27.2 C 32 % 9.08 C
267 17-08-2003 20:22:26 21.6 C 32 % 4.21 C
268 17-08-2003 20:32:57 20.4 C 32 % 3.17 C
269 17-08-2003 20:42:57 20.1 C 34 % 3.77 C
270 17-08-2003 20:52:57 20.1 C 36 % 4.58 C
271 17-08-2003 21:02:02 19.9 C 38 % 5.18 C
272 17-08-2003 21:12:02 19.8 C 43 % 6.87 C
273 17-08-2003 21:22:02 19.5 C 48 % 8.21 C
274 17-08-2003 21:32:33 19.5 C 53 % 9.67 C
275 17-08-2003 21:42:15 19.8 C 58 % 11.3 C
Sensor: Nr:Datum:Temp:Feuchte:Taupunkt:
Aussen-T/F 276 17-08-2003 21:52:10 20 C 85 % 17.4 C
277 17-08-2003 22:03:01 19.9 C 85 % 17.3 C
278 17-08-2003 22:13:01 19.6 C 84 % 16.82 C
279 17-08-2003 22:23:01 19.4 C 85 % 16.81 C
280 17-08-2003 22:33:01 19.2 C 85 % 16.62 C
281 17-08-2003 22:43:01 19.1 C 85 % 16.52 C
282 17-08-2003 22:53:01 18.9 C 87 % 16.69 C
283 17-08-2003 23:03:01 19 C 87 % 16.79 C
284 17-08-2003 23:13:01 19.5 C 87 % 17.28 C
285 17-08-2003 23:23:01 19.5 C 86 % 17.1 C
286 17-08-2003 23:33:01 19.6 C 85 % 17.01 C
287 17-08-2003 23:43:01 19.4 C 85 % 16.81 C
288 17-08-2003 23:53:01 19.3 C 85 % 16.72 C
289 18-08-2003 00:03:01 18.9 C 86 % 16.51 C
290 18-08-2003 00:13:01 18.7 C 87 % 16.49 C
291 18-08-2003 00:23:01 18.6 C 86 % 16.21 C
292 18-08-2003 00:33:01 18.5 C 86 % 16.11 C
293 18-08-2003 00:43:01 18.4 C 86 % 16.02 C
294 18-08-2003 00:53:01 18.6 C 87 % 16.39 C
295 18-08-2003 01:03:01 18.6 C 86 % 16.21 C
296 18-08-2003 01:13:01 18.4 C 87 % 16.2 C
297 18-08-2003 01:23:01 18.3 C 87 % 16.1 C
298 18-08-2003 01:33:01 18.2 C 87 % 16 C
299 18-08-2003 01:43:01 18.1 C 87 % 15.9 C
300 18-08-2003 01:53:01 18.1 C 87 % 15.9 C
Sensor: Nr:Datum:Temp:Feuchte:Taupunkt:
Aussen-T/F 301 18-08-2003 02:03:01 18.1 C 87 % 15.9 C
302 18-08-2003 02:13:01 18 C 87 % 15.8 C
303 18-08-2003 02:23:01 18.1 C 87 % 15.9 C
304 18-08-2003 02:33:01 18.1 C 88 % 16.08 C
305 18-08-2003 02:43:01 18.1 C 88 % 16.08 C
306 18-08-2003 02:53:01 18.1 C 87 % 15.9 C
307 18-08-2003 03:03:01 18.1 C 88 % 16.08 C
308 18-08-2003 03:13:01 18.1 C 88 % 16.08 C
309 18-08-2003 03:23:01 18.1 C 88 % 16.08 C
310 18-08-2003 03:33:01 18.4 C 90 % 16.73 C
311 18-08-2003 03:43:01 18.5 C 89 % 16.65 C
312 18-08-2003 03:53:01 18.4 C 89 % 16.55 C
313 18-08-2003 04:03:01 18.4 C 89 % 16.55 C
314 18-08-2003 04:13:01 18.5 C 89 % 16.65 C
315 18-08-2003 04:23:01 18.5 C 89 % 16.65 C
316 18-08-2003 04:33:01 18.5 C 88 % 16.48 C
317 18-08-2003 04:43:01 18.5 C 88 % 16.48 C
318 18-08-2003 04:53:01 18.6 C 88 % 16.57 C
319 18-08-2003 05:03:01 18.6 C 90 % 16.93 C
320 18-08-2003 05:13:01 18.6 C 91 % 17.1 C
321 18-08-2003 05:23:01 18.5 C 91 % 17 C
322 18-08-2003 05:33:01 18.5 C 91 % 17 C
323 18-08-2003 05:43:01 18.6 C 92 % 17.27 C
324 18-08-2003 05:53:01 18.5 C 92 % 17.18 C
325 18-08-2003 06:03:01 18.5 C 93 % 17.35 C
Sensor: Nr:Datum:Temp:Feuchte:Taupunkt:
Aussen-T/F 326 18-08-2003 06:13:01 18.6 C 93 % 17.45 C
327 18-08-2003 06:23:01 18.7 C 93 % 17.54 C
328 18-08-2003 06:33:01 18.7 C 93 % 17.54 C
329 18-08-2003 06:43:01 18.6 C 94 % 17.62 C
330 18-08-2003 06:53:01 18.6 C 94 % 17.62 C
331 18-08-2003 07:03:25 18.7 C 94 % 17.71 C
332 18-08-2003 07:13:01 18.7 C 94 % 17.71 C
333 18-08-2003 07:23:01 18.7 C 94 % 17.71 C
334 18-08-2003 07:33:02 18.8 C 94 % 17.81 C
335 18-08-2003 07:43:02 19 C 94 % 18.01 C
336 18-08-2003 07:53:02 19.1 C 94 % 18.11 C
337 18-08-2003 08:03:02 19.4 C 94 % 18.41 C
338 18-08-2003 08:13:02 19.6 C 94 % 18.61 C
339 18-08-2003 08:23:02 19.8 C 93 % 18.63 C
340 18-08-2003 08:33:01 19.9 C 93 % 18.73 C
341 18-08-2003 08:43:01 20.5 C 91 % 18.98 C
342 18-08-2003 08:53:01 21 C 89 % 19.12 C
343 18-08-2003 09:03:01 21.3 C 86 % 18.86 C
344 18-08-2003 09:13:01 21.4 C 84 % 18.58 C
345 18-08-2003 09:23:01 21.5 C 84 % 18.68 C
346 18-08-2003 09:33:01 21.8 C 85 % 19.16 C
347 18-08-2003 09:43:01 21.9 C 84 % 19.07 C
348 18-08-2003 09:53:01 22.2 C 84 % 19.37 C
349 18-08-2003 10:03:01 22.3 C 83 % 19.27 C
350 18-08-2003 10:13:01 22.4 C 80 % 18.78 C
Sensor: Nr:Datum:Temp:Feuchte:Taupunkt:
Aussen-T/F 351 18-08-2003 10:23:01 22.7 C 79 % 18.87 C
352 18-08-2003 10:33:01 22.6 C 78 % 18.57 C
353 18-08-2003 10:43:01 22.6 C 76 % 18.15 C
354 18-08-2003 10:53:01 22.6 C 72 % 17.3 C
355 18-08-2003 11:03:00 22.4 C 73 % 17.32 C
356 18-08-2003 11:13:00 22.5 C 74 % 17.63 C
357 18-08-2003 11:23:00 22.3 C 75 % 17.65 C
358 18-08-2003 11:33:01 22 C 72 % 16.72 C
359 18-08-2003 11:43:01 22.1 C 73 % 17.03 C
360 18-08-2003 11:53:01 22.1 C 72 % 16.82 C
361 18-08-2003 12:03:02 20.2 C 83 % 17.22 C
362 18-08-2003 12:13:02 19.6 C 86 % 17.19 C
363 18-08-2003 12:23:02 19.6 C 87 % 17.38 C
364 18-08-2003 12:33:01 20.1 C 85 % 17.5 C
365 18-08-2003 12:43:01 20.7 C 84 % 17.9 C
366 18-08-2003 12:53:01 21 C 79 % 17.22 C
367 18-08-2003 13:03:01 20.6 C 78 % 16.63 C
368 18-08-2003 13:13:01 20.2 C 77 % 16.04 C
369 18-08-2003 13:23:01 20.4 C 75 % 15.82 C
370 18-08-2003 13:33:01 21.3 C 73 % 16.26 C
371 18-08-2003 13:43:01 21.8 C 70 % 16.09 C
372 18-08-2003 13:53:01 22.6 C 64 % 15.45 C
373 18-08-2003 14:03:02 23.2 C 59 % 14.75 C
374 18-08-2003 14:13:02 24.1 C 55 % 14.5 C
375 18-08-2003 14:23:02 24.1 C 53 % 13.93 C
Sensor: Nr:Datum:Temp:Feuchte:Taupunkt:
Aussen-T/F 376 18-08-2003 14:33:01 24.4 C 52 % 13.91 C
377 18-08-2003 14:43:01 24.5 C 53 % 14.3 C
378 18-08-2003 14:53:01 24.3 C 52 % 13.82 C
379 18-08-2003 15:03:02 24.6 C 49 % 13.18 C
380 18-08-2003 15:13:02 24.9 C 46 % 12.49 C
381 18-08-2003 15:23:02 24 C 47 % 12 C
382 18-08-2003 15:33:01 23.6 C 49 % 12.27 C
383 18-08-2003 15:43:01 24.3 C 48 % 12.59 C
384 18-08-2003 15:53:01 23.5 C 52 % 13.08 C
385 18-08-2003 16:03:01 22.7 C 54 % 12.92 C
386 18-08-2003 16:13:01 21.9 C 57 % 13 C
387 18-08-2003 16:23:01 21.3 C 59 % 12.97 C
388 18-08-2003 16:33:00 20.8 C 62 % 13.26 C
389 18-08-2003 16:43:00 20.8 C 63 % 13.5 C
390 18-08-2003 16:53:00 20.6 C 63 % 13.31 C
391 18-08-2003 17:03:01 19.9 C 70 % 14.27 C
392 18-08-2003 17:13:01 18.7 C 79 % 14.99 C
393 18-08-2003 17:23:01 18.4 C 81 % 15.08 C
394 18-08-2003 17:33:02 18 C 83 % 15.07 C
395 18-08-2003 17:43:02 17.9 C 86 % 15.53 C
396 18-08-2003 17:53:02 17.6 C 88 % 15.59 C
397 18-08-2003 18:03:01 17.5 C 88 % 15.49 C
398 18-08-2003 18:13:01 17.5 C 89 % 15.67 C
399 18-08-2003 18:23:01 17.6 C 89 % 15.77 C
400 18-08-2003 18:33:00 17.7 C 89 % 15.86 C
Sensor: Nr:Datum:Temp:Feuchte:Taupunkt:
Aussen-T/F 401 18-08-2003 18:43:00 17.7 C 90 % 16.04 C
402 18-08-2003 18:53:00 17.4 C 89 % 15.57 C
403 18-08-2003 19:03:01 17.6 C 90 % 15.94 C
404 18-08-2003 19:13:01 17.9 C 90 % 16.24 C
405 18-08-2003 19:23:01 17.9 C 90 % 16.24 C
406 18-08-2003 19:33:02 18 C 89 % 16.16 C
407 18-08-2003 19:43:02 17.9 C 90 % 16.24 C
408 18-08-2003 19:53:02 17.9 C 90 % 16.24 C
409 18-08-2003 20:03:01 17.9 C 90 % 16.24 C
410 18-08-2003 20:13:01 17.8 C 91 % 16.31 C
411 18-08-2003 20:23:01 17.6 C 91 % 16.11 C
412 18-08-2003 20:33:02 17.5 C 91 % 16.01 C
413 18-08-2003 20:43:02 17.6 C 91 % 16.11 C
414 18-08-2003 20:53:02 17.6 C 92 % 16.28 C
415 18-08-2003 21:03:01 17.6 C 92 % 16.28 C
416 18-08-2003 21:13:01 17.6 C 92 % 16.28 C
417 18-08-2003 21:23:01 17.6 C 93 % 16.45 C
418 18-08-2003 21:34:03 17.6 C 93 % 16.45 C
419 18-08-2003 21:44:03 17.7 C 93 % 16.55 C
420 18-08-2003 21:54:03 17.6 C 93 % 16.45 C
421 18-08-2003 22:04:03 17.6 C 93 % 16.45 C
422 18-08-2003 22:14:03 17.7 C 93 % 16.55 C
423 18-08-2003 22:24:03 17.6 C 93 % 16.45 C
424 18-08-2003 22:34:03 17.6 C 93 % 16.45 C
425 18-08-2003 22:44:03 17.7 C 93 % 16.55 C
Sensor: Nr:Datum:Temp:Feuchte:Taupunkt:
Aussen-T/F 426 18-08-2003 22:54:03 17.8 C 93 % 16.65 C
427 18-08-2003 23:04:03 17.9 C 92 % 16.58 C
428 18-08-2003 23:14:03 17.9 C 91 % 16.41 C
429 18-08-2003 23:24:03 18 C 89 % 16.16 C
430 18-08-2003 23:34:03 18 C 89 % 16.16 C
431 18-08-2003 23:44:03 18 C 89 % 16.16 C
432 18-08-2003 23:54:03 18.1 C 89 % 16.26 C
433 19-08-2003 00:04:03 18.2 C 89 % 16.36 C
434 19-08-2003 00:14:03 18.1 C 89 % 16.26 C
435 19-08-2003 00:24:03 18.1 C 89 % 16.26 C
436 19-08-2003 00:34:03 18.1 C 89 % 16.26 C
437 19-08-2003 00:44:03 18.1 C 89 % 16.26 C
438 19-08-2003 00:54:03 18.1 C 89 % 16.26 C
439 19-08-2003 01:04:03 18 C 89 % 16.16 C
440 19-08-2003 01:14:03 18 C 89 % 16.16 C
441 19-08-2003 01:24:03 17.9 C 91 % 16.41 C
442 19-08-2003 01:34:03 17.7 C 91 % 16.21 C
443 19-08-2003 01:44:03 17.6 C 91 % 16.11 C
444 19-08-2003 01:54:03 17.4 C 91 % 15.92 C
445 19-08-2003 02:04:03 17.3 C 92 % 15.99 C
446 19-08-2003 02:14:03 17.3 C 92 % 15.99 C
447 19-08-2003 02:24:03 17.3 C 92 % 15.99 C
448 19-08-2003 02:34:03 17.2 C 92 % 15.89 C
449 19-08-2003 02:44:03 17.2 C 92 % 15.89 C
450 19-08-2003 02:54:03 17.1 C 92 % 15.79 C
Sensor: Nr:Datum:Temp:Feuchte:Taupunkt:
Aussen-T/F 451 19-08-2003 03:04:03 17.2 C 92 % 15.89 C
452 19-08-2003 03:14:03 17.1 C 92 % 15.79 C
453 19-08-2003 03:24:03 17.1 C 92 % 15.79 C
454 19-08-2003 03:34:03 17.1 C 91 % 15.62 C
455 19-08-2003 03:44:03 17.1 C 92 % 15.79 C
456 19-08-2003 03:54:03 17.2 C 92 % 15.89 C
457 19-08-2003 04:04:03 17.4 C 91 % 15.92 C
458 19-08-2003 04:14:03 17.5 C 91 % 16.01 C
459 19-08-2003 04:24:03 17.6 C 91 % 16.11 C
460 19-08-2003 04:34:03 17.7 C 90 % 16.04 C
461 19-08-2003 04:44:03 17.7 C 89 % 15.86 C
462 19-08-2003 04:54:03 17.8 C 88 % 15.79 C
463 19-08-2003 05:04:03 17.8 C 85 % 15.25 C
464 19-08-2003 05:14:03 17.8 C 85 % 15.25 C
465 19-08-2003 05:24:03 17.9 C 85 % 15.34 C
466 19-08-2003 05:34:01 17.9 C 85 % 15.34 C
467 19-08-2003 05:44:01 17.8 C 85 % 15.25 C
468 19-08-2003 05:54:01 17.7 C 86 % 15.33 C
469 19-08-2003 06:04:02 17.7 C 87 % 15.51 C
470 19-08-2003 06:14:02 17.6 C 88 % 15.59 C
471 19-08-2003 06:24:02 17.9 C 87 % 15.71 C
472 19-08-2003 06:34:00 17.9 C 86 % 15.53 C
473 19-08-2003 06:44:00 18.2 C 84 % 15.45 C
474 19-08-2003 06:54:00 18.5 C 83 % 15.56 C
475 19-08-2003 07:04:01 18.5 C 82 % 15.37 C
Sensor: Nr:Datum:Temp:Feuchte:Taupunkt:
Aussen-T/F 476 19-08-2003 07:14:01 18.6 C 82 % 15.47 C
477 19-08-2003 07:24:01 18.7 C 82 % 15.57 C
478 19-08-2003 07:34:01 18.7 C 82 % 15.57 C
479 19-08-2003 07:44:01 18.9 C 82 % 15.76 C
480 19-08-2003 07:54:01 18.9 C 81 % 15.57 C
481 19-08-2003 08:04:01 19.3 C 80 % 15.76 C
482 19-08-2003 08:14:01 19.2 C 79 % 15.47 C
483 19-08-2003 08:24:01 19.3 C 79 % 15.57 C
484 19-08-2003 08:34:02 19.5 C 78 % 15.56 C
485 19-08-2003 08:44:02 19.7 C 78 % 15.76 C
486 19-08-2003 08:54:02 19.7 C 78 % 15.76 C
487 19-08-2003 09:04:01 19.8 C 79 % 16.05 C
488 19-08-2003 09:14:01 19.7 C 78 % 15.76 C
489 19-08-2003 09:24:01 20.3 C 76 % 15.93 C
490 19-08-2003 09:34:01 20.4 C 74 % 15.61 C
491 19-08-2003 09:44:01 20.6 C 74 % 15.8 C
492 19-08-2003 09:54:01 20.6 C 72 % 15.38 C
493 19-08-2003 10:04:02 20.7 C 73 % 15.69 C
494 19-08-2003 10:14:02 20.8 C 72 % 15.57 C
495 19-08-2003 10:24:02 21 C 71 % 15.54 C
496 19-08-2003 10:34:01 21.3 C 69 % 15.38 C
497 19-08-2003 10:44:01 21.9 C 68 % 15.73 C
498 19-08-2003 10:54:01 21.7 C 66 % 15.07 C
499 19-08-2003 11:04:01 22.1 C 65 % 15.21 C
500 19-08-2003 11:14:01 22.3 C 65 % 15.4 C
Sensor: Nr:Datum:Temp:Feuchte:Taupunkt:
Aussen-T/F 501 19-08-2003 11:24:01 22.2 C 64 % 15.07 C
502 19-08-2003 11:34:02 22.5 C 64 % 15.35 C
503 19-08-2003 11:44:02 22.5 C 63 % 15.11 C
504 19-08-2003 11:54:02 23.1 C 61 % 15.17 C
505 19-08-2003 12:04:01 23.6 C 60 % 15.38 C
506 19-08-2003 12:14:01 23.8 C 58 % 15.04 C
507 19-08-2003 12:24:01 23.9 C 57 % 14.87 C
508 19-08-2003 12:34:01 24.3 C 55 % 14.68 C
509 19-08-2003 12:44:01 23.9 C 56 % 14.59 C
510 19-08-2003 12:54:01 24.4 C 55 % 14.78 C
511 19-08-2003 13:04:01 24.8 C 52 % 14.28 C
512 19-08-2003 13:14:01 25.7 C 49 % 14.19 C
513 19-08-2003 13:24:01 25.7 C 49 % 14.19 C
514 19-08-2003 13:34:00 25.2 C 49 % 13.73 C
515 19-08-2003 13:44:00 24.7 C 52 % 14.19 C
516 19-08-2003 13:54:00 24.4 C 52 % 13.91 C
517 19-08-2003 14:04:01 24.8 C 52 % 14.28 C
518 19-08-2003 14:14:01 24.7 C 51 % 13.89 C
519 19-08-2003 14:24:01 24.1 C 52 % 13.63 C
520 19-08-2003 14:34:02 23.8 C 56 % 14.5 C
521 19-08-2003 14:44:02 23.9 C 56 % 14.59 C
522 19-08-2003 14:54:02 23.6 C 58 % 14.86 C
523 19-08-2003 15:04:01 23.7 C 56 % 14.4 C
524 19-08-2003 15:14:01 22 C 72 % 16.72 C
525 19-08-2003 15:24:01 21.6 C 74 % 16.77 C
Sensor: Nr:Datum:Temp:Feuchte:Taupunkt:
Aussen-T/F 526 19-08-2003 15:34:01 22 C 71 % 16.5 C
527 19-08-2003 15:44:01 22.6 C 67 % 16.16 C
528 19-08-2003 15:54:01 22.6 C 65 % 15.69 C
529 19-08-2003 16:04:01 23.1 C 62 % 15.42 C
530 19-08-2003 16:14:01 23.4 C 61 % 15.45 C
531 19-08-2003 16:24:01 24.1 C 58 % 15.32 C
532 19-08-2003 16:34:52 25.1 C 54 % 15.14 C
533 19-08-2003 16:44:52 25.3 C 51 % 14.44 C
534 19-08-2003 16:54:00 25.6 C 50 % 14.41 C
535 19-08-2003 17:04:01 24.5 C 53 % 14.3 C
536 19-08-2003 17:14:01 24.8 C 53 % 14.57 C
537 19-08-2003 17:24:01 24.7 C 54 % 14.77 C
538 19-08-2003 17:34:01 24.9 C 52 % 14.37 C
539 19-08-2003 17:44:01 24.6 C 51 % 13.79 C
540 19-08-2003 17:54:01 24.4 C 52 % 13.91 C
541 19-08-2003 18:04:02 24.5 C 51 % 13.7 C
542 19-08-2003 18:14:02 24.6 C 50 % 13.49 C
543 19-08-2003 18:24:02 24.6 C 46 % 12.22 C
544 19-08-2003 18:34:01 24.5 C 46 % 12.13 C
545 19-08-2003 18:44:01 24.3 C 50 % 13.22 C
546 19-08-2003 18:54:01 23.9 C 56 % 14.59 C
547 19-08-2003 19:04:01 23.6 C 56 % 14.31 C
548 19-08-2003 19:14:01 23.3 C 55 % 13.76 C
549 19-08-2003 19:24:01 23.3 C 51 % 12.6 C
550 19-08-2003 19:34:01 23.3 C 53 % 13.19 C
Sensor: Nr:Datum:Temp:Feuchte:Taupunkt:
Aussen-T/F 551 19-08-2003 19:44:01 23.2 C 54 % 13.38 C
552 19-08-2003 19:54:01 23.1 C 50 % 12.11 C
553 19-08-2003 20:04:01 23 C 50 % 12.02 C
554 19-08-2003 20:14:01 22.9 C 51 % 12.23 C
555 19-08-2003 20:24:01 22.8 C 54 % 13.01 C
556 19-08-2003 20:34:01 22.4 C 56 % 13.2 C
557 19-08-2003 20:44:01 22.3 C 57 % 13.37 C
558 19-08-2003 20:54:01 22.1 C 56 % 12.92 C
559 19-08-2003 21:05:03 22 C 58 % 13.36 C
560 19-08-2003 21:15:03 22 C 59 % 13.62 C
561 19-08-2003 21:25:03 21.9 C 53 % 11.89 C
562 19-08-2003 21:35:03 21.9 C 53 % 11.89 C
563 19-08-2003 21:45:03 21.9 C 53 % 11.89 C
564 19-08-2003 21:55:03 21.9 C 52 % 11.61 C
565 19-08-2003 22:05:03 21.9 C 55 % 12.46 C
566 19-08-2003 22:15:03 21.8 C 55 % 12.36 C
567 19-08-2003 22:25:03 21.6 C 54 % 11.9 C
568 19-08-2003 22:35:03 21.5 C 56 % 12.36 C
569 19-08-2003 22:45:03 21.2 C 57 % 12.35 C
570 19-08-2003 22:55:03 21.1 C 57 % 12.25 C
571 19-08-2003 23:05:03 20.9 C 58 % 12.33 C
572 19-08-2003 23:15:03 20.5 C 59 % 12.22 C
573 19-08-2003 23:25:03 20.3 C 58 % 11.77 C
574 19-08-2003 23:35:03 19.9 C 60 % 11.91 C
575 19-08-2003 23:45:03 19.9 C 59 % 11.66 C
Sensor: Nr:Datum:Temp:Feuchte:Taupunkt:
Aussen-T/F 576 19-08-2003 23:55:03 19.6 C 60 % 11.63 C
577 20-08-2003 00:05:03 19.4 C 61 % 11.69 C
578 20-08-2003 00:15:03 19.1 C 60 % 11.16 C
579 20-08-2003 00:25:03 19.1 C 60 % 11.16 C
580 20-08-2003 00:35:03 18.8 C 62 % 11.37 C
581 20-08-2003 00:45:03 18.7 C 63 % 11.52 C
582 20-08-2003 00:55:03 18.8 C 63 % 11.61 C
583 20-08-2003 01:05:03 18.9 C 65 % 12.18 C
584 20-08-2003 01:15:03 18.7 C 65 % 11.99 C
585 20-08-2003 01:25:03 18.4 C 64 % 11.47 C
586 20-08-2003 01:35:03 18.3 C 63 % 11.14 C
587 20-08-2003 01:45:03 18.1 C 64 % 11.19 C
588 20-08-2003 01:55:03 17.8 C 66 % 11.37 C
589 20-08-2003 02:05:03 17.4 C 67 % 11.21 C
590 20-08-2003 02:15:03 17.2 C 68 % 11.25 C
591 20-08-2003 02:25:03 17.1 C 69 % 11.37 C
592 20-08-2003 02:35:03 16.9 C 71 % 11.61 C
593 20-08-2003 02:45:03 16.6 C 71 % 11.32 C
594 20-08-2003 02:55:03 16.6 C 71 % 11.32 C
595 20-08-2003 03:05:03 16.6 C 71 % 11.32 C
596 20-08-2003 03:15:03 16.2 C 71 % 10.94 C
597 20-08-2003 03:25:03 16 C 72 % 10.96 C
598 20-08-2003 03:35:03 15.8 C 74 % 11.18 C
599 20-08-2003 03:45:03 15.6 C 75 % 11.19 C
600 20-08-2003 03:55:03 15.4 C 75 % 11 C
Sensor: Nr:Datum:Temp:Feuchte:Taupunkt:
Aussen-T/F 601 20-08-2003 04:05:03 15.2 C 77 % 11.2 C
602 20-08-2003 04:15:03 15 C 77 % 11 C
603 20-08-2003 04:25:03 14.9 C 80 % 11.48 C
604 20-08-2003 04:35:03 14.8 C 80 % 11.39 C
605 20-08-2003 04:45:03 14.8 C 80 % 11.39 C
606 20-08-2003 04:55:03 14.8 C 80 % 11.39 C
607 20-08-2003 05:05:03 14.8 C 81 % 11.57 C
608 20-08-2003 05:15:03 14.7 C 80 % 11.29 C
609 20-08-2003 05:25:03 15 C 80 % 11.58 C
610 20-08-2003 05:35:03 14.9 C 80 % 11.48 C
611 20-08-2003 05:45:03 14.6 C 81 % 11.38 C
612 20-08-2003 05:55:03 14.4 C 80 % 11 C
613 20-08-2003 06:05:03 14.2 C 81 % 10.99 C
614 20-08-2003 06:15:03 14.1 C 83 % 11.26 C
615 20-08-2003 06:25:03 14.1 C 83 % 11.26 C
616 20-08-2003 06:35:01 13.7 C 84 % 11.05 C
617 20-08-2003 06:45:01 13.7 C 84 % 11.05 C
618 20-08-2003 06:55:01 13.8 C 85 % 11.32 C
619 20-08-2003 07:05:00 13.8 C 85 % 11.32 C
620 20-08-2003 07:15:00 13.8 C 85 % 11.32 C
621 20-08-2003 07:25:00 14 C 85 % 11.52 C
622 20-08-2003 07:35:01 14 C 85 % 11.52 C
623 20-08-2003 07:45:01 14.3 C 85 % 11.81 C
624 20-08-2003 07:55:01 14.2 C 85 % 11.72 C
625 20-08-2003 08:05:41 14.3 C 85 % 11.81 C
Sensor: Nr:Datum:Temp:Feuchte:Taupunkt:
Aussen-T/F 626 20-08-2003 08:15:29 14.5 C 84 % 11.83 C
627 20-08-2003 08:25:40 14.6 C 84 % 11.93 C
628 20-08-2003 08:35:01 14.8 C 83 % 11.94 C
629 20-08-2003 08:45:01 15 C 82 % 11.95 C
630 20-08-2003 08:55:01 15.3 C 80 % 11.87 C
631 20-08-2003 09:05:02 15.6 C 79 % 11.97 C
632 20-08-2003 09:15:02 15.8 C 77 % 11.78 C
633 20-08-2003 09:25:02 16.1 C 75 % 11.67 C
634 20-08-2003 09:35:01 16.5 C 75 % 12.06 C
635 20-08-2003 09:45:01 17 C 73 % 12.13 C
636 20-08-2003 09:55:01 17.5 C 71 % 12.19 C
637 20-08-2003 10:05:01 18 C 69 % 12.23 C
638 20-08-2003 10:15:01 18.4 C 68 % 12.39 C
639 20-08-2003 10:25:01 18.9 C 67 % 12.64 C
640 20-08-2003 10:35:01 19.3 C 64 % 12.32 C
641 20-08-2003 10:45:01 19.7 C 63 % 12.46 C
642 20-08-2003 10:55:01 20.1 C 59 % 11.84 C
643 20-08-2003 11:05:02 20.5 C 58 % 11.96 C
644 20-08-2003 11:15:02 21.2 C 55 % 11.81 C
645 20-08-2003 11:25:02 21.5 C 54 % 11.81 C
646 20-08-2003 11:35:01 21.8 C 49 % 10.62 C
647 20-08-2003 11:45:01 22.3 C 49 % 11.08 C
648 20-08-2003 11:55:01 22.6 C 47 % 10.72 C
649 20-08-2003 12:05:01 22.8 C 46 % 10.58 C
650 20-08-2003 12:15:01 23 C 44 % 10.1 C
Sensor: Nr:Datum:Temp:Feuchte:Taupunkt:
Aussen-T/F 651 20-08-2003 12:25:01 23.3 C 42 % 9.68 C
652 20-08-2003 12:35:01 23.7 C 41 % 9.68 C
653 20-08-2003 12:45:01 23.9 C 39 % 9.11 C
654 20-08-2003 12:55:01 23.7 C 39 % 8.93 C
655 20-08-2003 13:05:02 24.8 C 37 % 9.13 C
656 20-08-2003 13:15:02 25.3 C 35 % 8.75 C
657 20-08-2003 13:25:02 25.5 C 32 % 7.6 C
658 20-08-2003 13:35:01 25.7 C 31 % 7.31 C
659 20-08-2003 13:45:01 26.4 C 32 % 8.39 C
660 20-08-2003 13:55:01 27.5 C 30 % 8.39 C
661 20-08-2003 14:04:01 27.2 C 29 % 7.63 C
662 20-08-2003 14:16:01 25.9 C 31 % 7.49 C
663 20-08-2003 14:28:01 26.7 C 30 % 7.7 C
664 20-08-2003 14:40:01 26.1 C 30 % 7.18 C
665 20-08-2003 14:52:01 28.2 C 28 % 7.97 C
666 20-08-2003 15:04:01 28.7 C 26 % 7.31 C
667 20-08-2003 15:16:01 28.8 C 27 % 7.95 C
668 20-08-2003 15:28:01 29 C 25 % 6.99 C
669 20-08-2003 15:40:00 29.1 C 24 % 6.48 C
670 20-08-2003 15:52:00 29.4 C 25 % 7.33 C
671 20-08-2003 16:04:01 28.4 C 24 % 5.9 C
672 20-08-2003 16:16:01 28.8 C 25 % 6.82 C
673 20-08-2003 16:28:01 29.1 C 22 % 5.23 C
674 20-08-2003 16:40:01 29.6 C 25 % 7.5 C
675 20-08-2003 16:52:01 28.9 C 23 % 5.7 C
Sensor: Nr:Datum:Temp:Feuchte:Taupunkt:
Aussen-T/F 676 20-08-2003 17:04:01 29.7 C 23 % 6.37 C
677 20-08-2003 17:16:01 29.3 C 22 % 5.39 C
678 20-08-2003 17:28:01 28.8 C 24 % 6.23 C
679 20-08-2003 17:40:00 29.6 C 22 % 5.64 C
680 20-08-2003 17:52:00 28.9 C 23 % 5.7 C
681 20-08-2003 18:04:02 28.9 C 25 % 6.91 C
682 20-08-2003 18:16:02 29.1 C 24 % 6.48 C
683 20-08-2003 18:28:02 28.4 C 25 % 6.49 C
684 20-08-2003 18:40:02 28.5 C 25 % 6.57 C
685 20-08-2003 18:52:02 27.6 C 26 % 6.38 C
686 20-08-2003 19:04:01 27.9 C 27 % 7.18 C
687 20-08-2003 19:16:01 27.6 C 27 % 6.93 C
688 20-08-2003 19:28:01 26.9 C 29 % 7.37 C
689 20-08-2003 19:40:02 26.9 C 30 % 7.87 C
690 20-08-2003 19:52:02 26.1 C 30 % 7.18 C
691 20-08-2003 20:04:01 25.6 C 31 % 7.23 C
692 20-08-2003 20:16:01 24.9 C 35 % 8.4 C
693 20-08-2003 20:28:01 24 C 38 % 8.82 C
694 20-08-2003 20:40:01 22.7 C 42 % 9.14 C
695 20-08-2003 20:52:01 21.6 C 44 % 8.83 C
696 20-08-2003 21:04:02 21.3 C 45 % 8.89 C
697 20-08-2003 21:16:02 21 C 46 % 8.95 C
698 20-08-2003 21:28:02 20.6 C 47 % 8.9 C
699 20-08-2003 21:40:01 20.3 C 48 % 8.94 C
700 20-08-2003 21:52:01 19.8 C 50 % 9.09 C
Sensor: Nr:Datum:Temp:Feuchte:Taupunkt:
Aussen-T/F 701 20-08-2003 22:04:01 19.4 C 50 % 8.72 C
702 20-08-2003 22:16:01 19.4 C 52 % 9.3 C
703 20-08-2003 22:28:01 19.3 C 50 % 8.63 C
704 20-08-2003 22:41:01 18.9 C 53 % 9.12 C
705 20-08-2003 22:53:01 18.7 C 54 % 9.21 C
706 20-08-2003 23:05:01 18.6 C 54 % 9.12 C
707 20-08-2003 23:17:01 18.4 C 55 % 9.2 C
708 20-08-2003 23:29:01 18.1 C 55 % 8.93 C
709 20-08-2003 23:41:01 17.9 C 59 % 9.78 C
710 20-08-2003 23:53:01 17.3 C 61 % 9.71 C
711 21-08-2003 00:05:01 17.2 C 60 % 9.37 C
712 21-08-2003 00:17:01 17.1 C 60 % 9.28 C
713 21-08-2003 00:29:01 16.8 C 63 % 9.72 C
714 21-08-2003 00:41:01 16.8 C 63 % 9.72 C
715 21-08-2003 00:53:01 16.6 C 63 % 9.53 C
716 21-08-2003 01:05:01 16.3 C 65 % 9.71 C
717 21-08-2003 01:17:01 16.2 C 65 % 9.62 C
718 21-08-2003 01:29:01 16.2 C 66 % 9.85 C
719 21-08-2003 01:41:01 16.3 C 66 % 9.94 C
720 21-08-2003 01:53:01 16.1 C 67 % 9.98 C
721 21-08-2003 02:05:01 15.8 C 69 % 10.13 C
722 21-08-2003 02:17:01 15.6 C 69 % 9.94 C
723 21-08-2003 02:29:01 15.4 C 69 % 9.75 C
724 21-08-2003 02:41:01 15.2 C 72 % 10.19 C
725 21-08-2003 02:53:01 15.1 C 72 % 10.09 C
Sensor: Nr:Datum:Temp:Feuchte:Taupunkt:
Aussen-T/F 726 21-08-2003 03:05:01 14.8 C 72 % 9.81 C
727 21-08-2003 03:17:01 14.7 C 73 % 9.92 C
728 21-08-2003 03:29:01 14.5 C 74 % 9.93 C
729 21-08-2003 03:41:01 14.4 C 74 % 9.83 C
730 21-08-2003 03:53:01 14.2 C 74 % 9.64 C
731 21-08-2003 04:05:01 14.2 C 76 % 10.03 C
732 21-08-2003 04:17:01 13.9 C 77 % 9.94 C
733 21-08-2003 04:29:01 13.8 C 77 % 9.84 C
734 21-08-2003 04:41:01 13.7 C 79 % 10.13 C
735 21-08-2003 04:53:01 13.5 C 80 % 10.12 C
736 21-08-2003 05:05:01 13.4 C 79 % 9.84 C
737 21-08-2003 05:17:01 13.3 C 79 % 9.74 C
738 21-08-2003 05:29:01 13.1 C 79 % 9.54 C
739 21-08-2003 05:41:01 13 C 79 % 9.45 C
740 21-08-2003 05:53:01 12.9 C 82 % 9.9 C
741 21-08-2003 06:05:01 12.8 C 83 % 9.99 C
742 21-08-2003 06:17:01 12.7 C 83 % 9.89 C
743 21-08-2003 06:29:01 12.5 C 83 % 9.69 C
744 21-08-2003 06:41:01 12.5 C 83 % 9.69 C
745 21-08-2003 06:53:01 12.5 C 83 % 9.69 C
746 21-08-2003 07:05:01 12.5 C 84 % 9.87 C
747 21-08-2003 07:17:01 12.5 C 84 % 9.87 C
748 21-08-2003 07:29:01 12.7 C 83 % 9.89 C
749 21-08-2003 07:41:01 12.7 C 84 % 10.07 C
750 21-08-2003 07:53:01 12.9 C 84 % 10.26 C
Sensor: Nr:Datum:Temp:Feuchte:Taupunkt:
Aussen-T/F 751 21-08-2003 08:05:01 13 C 84 % 10.36 C
752 21-08-2003 08:17:01 13 C 83 % 10.18 C
753 21-08-2003 08:29:01 13.3 C 82 % 10.3 C
754 21-08-2003 08:41:01 13.6 C 80 % 10.22 C
755 21-08-2003 08:53:01 13.9 C 79 % 10.32 C
756 21-08-2003 09:05:01 14.1 C 78 % 10.33 C
757 21-08-2003 09:17:01 14.6 C 77 % 10.62 C
758 21-08-2003 09:29:01 15.1 C 74 % 10.5 C
759 21-08-2003 09:41:01 15.6 C 73 % 10.78 C
760 21-08-2003 09:53:01 16.2 C 71 % 10.94 C
761 21-08-2003 10:05:02 16.8 C 67 % 10.64 C
762 21-08-2003 10:17:02 17.4 C 62 % 10.05 C
763 21-08-2003 10:29:02 18.1 C 58 % 9.71 C
764 21-08-2003 10:41:01 18.7 C 59 % 10.53 C
765 21-08-2003 10:53:01 19.3 C 57 % 10.58 C
766 21-08-2003 11:05:01 20 C 55 % 10.69 C
767 21-08-2003 11:17:01 20.9 C 53 % 10.97 C
768 21-08-2003 11:29:01 21.7 C 48 % 10.22 C
769 21-08-2003 11:41:00 22.4 C 47 % 10.54 C
770 21-08-2003 11:53:00 23 C 44 % 10.1 C
771 21-08-2003 12:05:01 23.8 C 43 % 10.48 C
772 21-08-2003 12:17:01 23.8 C 41 % 9.76 C
773 21-08-2003 12:29:01 24.4 C 37 % 8.78 C
774 21-08-2003 12:41:01 24.9 C 36 % 8.81 C
775 21-08-2003 12:53:01 25.4 C 33 % 7.97 C
Sensor: Nr:Datum:Temp:Feuchte:Taupunkt:
Aussen-T/F 776 21-08-2003 13:05:01 25.7 C 32 % 7.78 C
777 21-08-2003 13:17:01 25.4 C 32 % 7.52 C
778 21-08-2003 13:29:01 25.7 C 34 % 8.67 C
779 21-08-2003 13:41:01 26 C 31 % 7.57 C
780 21-08-2003 13:53:01 26 C 30 % 7.09 C
781 21-08-2003 14:05:01 26.5 C 29 % 7.03 C
782 21-08-2003 14:17:01 27.3 C 27 % 6.67 C
783 21-08-2003 14:29:01 27.7 C 26 % 6.47 C
784 21-08-2003 14:41:01 27.4 C 25 % 5.65 C
785 21-08-2003 14:53:01 28.1 C 25 % 6.24 C
786 21-08-2003 15:05:02 28.7 C 25 % 6.74 C
787 21-08-2003 15:17:02 29 C 23 % 5.78 C
788 21-08-2003 15:29:02 28.7 C 23 % 5.53 C
789 21-08-2003 15:41:01 29.7 C 23 % 6.37 C
790 21-08-2003 15:53:01 29.5 C 21 % 4.89 C
791 21-08-2003 16:05:02 30.4 C 21 % 5.63 C
792 21-08-2003 16:17:02 30.1 C 21 % 5.39 C
793 21-08-2003 16:29:02 30.5 C 21 % 5.72 C
794 21-08-2003 16:41:01 30.6 C 20 % 5.1 C
795 21-08-2003 16:53:01 31 C 20 % 5.42 C
796 21-08-2003 17:05:01 29.6 C 20 % 4.28 C
797 21-08-2003 17:17:01 30 C 20 % 4.61 C
798 21-08-2003 17:29:01 30 C 20 % 4.61 C
799 21-08-2003 17:41:00 30.4 C 21 % 5.63 C
800 21-08-2003 17:53:00 30.3 C 21 % 5.55 C
Sensor: Nr:Datum:Temp:Feuchte:Taupunkt:
Aussen-T/F 801 21-08-2003 18:05:01 30.1 C 20 % 4.69 C
802 21-08-2003 18:17:01 30.2 C 22 % 6.14 C
803 21-08-2003 18:29:01 30.2 C 23 % 6.78 C
804 21-08-2003 18:41:01 29 C 25 % 6.99 C
805 21-08-2003 18:53:01 29.5 C 27 % 8.54 C
806 21-08-2003 19:05:01 28.8 C 29 % 9 C
807 21-08-2003 19:17:01 28.3 C 30 % 9.07 C
808 21-08-2003 19:29:01 27.6 C 32 % 9.43 C
809 21-08-2003 19:41:01 27.3 C 36 % 10.93 C
810 21-08-2003 19:53:01 26.6 C 39 % 11.51 C
811 21-08-2003 20:05:02 25.7 C 41 % 11.47 C
812 21-08-2003 20:17:02 24.9 C 42 % 11.11 C
813 21-08-2003 20:29:02 24.4 C 42 % 10.66 C
814 21-08-2003 20:41:00 23.4 C 43 % 10.12 C
815 21-08-2003 20:53:00 22.9 C 44 % 10.01 C
816 21-08-2003 21:05:01 22.4 C 46 % 10.22 C
817 21-08-2003 21:17:01 21.9 C 48 % 10.4 C
818 21-08-2003 21:29:01 21.6 C 49 % 10.44 C
819 21-08-2003 21:42:01 21.3 C 50 % 10.46 C
820 21-08-2003 21:54:01 21.1 C 51 % 10.58 C
821 21-08-2003 22:06:01 21 C 51 % 10.48 C
822 21-08-2003 22:18:01 20.9 C 51 % 10.39 C
823 21-08-2003 22:30:01 20.5 C 51 % 10.02 C
824 21-08-2003 22:42:01 20.5 C 52 % 10.31 C
825 21-08-2003 22:54:01 20.1 C 53 % 10.23 C
Sensor: Nr:Datum:Temp:Feuchte:Taupunkt:
Aussen-T/F 826 21-08-2003 23:06:01 20 C 55 % 10.69 C
827 21-08-2003 23:18:01 19.7 C 58 % 11.21 C
828 21-08-2003 23:30:01 19.5 C 58 % 11.02 C
829 21-08-2003 23:42:01 19.3 C 59 % 11.09 C
830 21-08-2003 23:54:01 19.1 C 60 % 11.16 C
831 22-08-2003 00:06:01 18.9 C 61 % 11.22 C
832 22-08-2003 00:18:01 18.6 C 62 % 11.18 C
833 22-08-2003 00:30:01 18.4 C 63 % 11.23 C
834 22-08-2003 00:42:01 18.1 C 63 % 10.95 C
835 22-08-2003 00:54:01 17.9 C 66 % 11.46 C
836 22-08-2003 01:06:01 18 C 64 % 11.09 C
837 22-08-2003 01:18:01 17.8 C 66 % 11.37 C
838 22-08-2003 01:30:01 17.6 C 67 % 11.4 C
839 22-08-2003 01:42:01 17.5 C 67 % 11.31 C
840 22-08-2003 01:54:01 17.3 C 67 % 11.12 C
841 22-08-2003 02:06:01 17.1 C 69 % 11.37 C
842 22-08-2003 02:18:01 17 C 69 % 11.28 C
843 22-08-2003 02:30:01 16.9 C 70 % 11.4 C
844 22-08-2003 02:42:01 16.6 C 71 % 11.32 C
845 22-08-2003 02:54:01 16.3 C 72 % 11.25 C
846 22-08-2003 03:06:01 16.2 C 72 % 11.15 C
847 22-08-2003 03:18:01 16.2 C 72 % 11.15 C
848 22-08-2003 03:30:01 16 C 72 % 10.96 C
849 22-08-2003 03:42:01 15.8 C 74 % 11.18 C
850 22-08-2003 03:54:01 15.8 C 74 % 11.18 C
Sensor: Nr:Datum:Temp:Feuchte:Taupunkt:
Aussen-T/F 851 22-08-2003 04:06:01 15.6 C 74 % 10.99 C
852 22-08-2003 04:18:01 15.4 C 75 % 11 C
853 22-08-2003 04:30:01 15.3 C 76 % 11.1 C
854 22-08-2003 04:42:01 15.1 C 77 % 11.1 C
855 22-08-2003 04:54:01 14.9 C 79 % 11.29 C
856 22-08-2003 05:06:01 14.8 C 79 % 11.2 C
857 22-08-2003 05:18:01 14.7 C 79 % 11.1 C
858 22-08-2003 05:30:01 14.4 C 80 % 11 C
859 22-08-2003 05:42:01 14.3 C 80 % 10.9 C
860 22-08-2003 05:54:01 14.3 C 80 % 10.9 C
861 22-08-2003 06:06:01 14.1 C 80 % 10.71 C
862 22-08-2003 06:18:01 14 C 80 % 10.61 C
863 22-08-2003 06:30:01 13.9 C 81 % 10.7 C
864 22-08-2003 06:42:01 13.8 C 81 % 10.6 C
865 22-08-2003 06:54:01 13.7 C 82 % 10.69 C
866 22-08-2003 07:06:01 13.6 C 82 % 10.59 C
867 22-08-2003 07:18:01 13.6 C 82 % 10.59 C
868 22-08-2003 07:30:01 13.6 C 82 % 10.59 C
869 22-08-2003 07:42:01 13.8 C 82 % 10.78 C
870 22-08-2003 07:54:01 13.9 C 82 % 10.88 C
871 22-08-2003 08:06:01 14.1 C 80 % 10.71 C
872 22-08-2003 08:18:01 14.4 C 79 % 10.81 C
873 22-08-2003 08:30:01 14.7 C 78 % 10.91 C
874 22-08-2003 08:42:02 15 C 77 % 11 C
875 22-08-2003 08:54:02 15.5 C 74 % 10.89 C
Sensor: Nr:Datum:Temp:Feuchte:Taupunkt:
Aussen-T/F 876 22-08-2003 09:06:02 15.7 C 72 % 10.67 C
877 22-08-2003 09:18:02 16 C 71 % 10.75 C
878 22-08-2003 09:30:02 16.7 C 68 % 10.77 C
879 22-08-2003 09:42:01 17.2 C 63 % 10.1 C
880 22-08-2003 09:54:01 17.6 C 59 % 9.5 C
881 22-08-2003 10:06:02 18 C 54 % 8.56 C
882 22-08-2003 10:18:02 18.5 C 54 % 9.03 C
883 22-08-2003 10:30:02 18.9 C 51 % 8.55 C
884 22-08-2003 10:42:01 19.5 C 50 % 8.81 C
885 22-08-2003 10:54:01 20.1 C 48 % 8.76 C
886 22-08-2003 11:06:01 20.7 C 45 % 8.35 C
887 22-08-2003 11:18:01 21 C 44 % 8.29 C
888 22-08-2003 11:30:01 21.3 C 42 % 7.88 C
889 22-08-2003 11:42:01 21.5 C 41 % 7.7 C
890 22-08-2003 11:54:01 21.9 C 41 % 8.06 C
891 22-08-2003 12:06:01 22.3 C 39 % 7.69 C
892 22-08-2003 12:18:01 22.5 C 39 % 7.86 C
893 22-08-2003 12:30:01 22.5 C 38 % 7.48 C
894 22-08-2003 12:42:01 22.6 C 39 % 7.95 C
895 22-08-2003 12:54:01 23 C 38 % 7.93 C
896 22-08-2003 13:06:00 23.3 C 38 % 8.19 C
897 22-08-2003 13:18:00 24.6 C 36 % 8.55 C
898 22-08-2003 13:30:00 24.7 C 36 % 8.64 C
899 22-08-2003 13:42:01 24.6 C 37 % 8.95 C
900 22-08-2003 13:54:01 25.1 C 35 % 8.57 C
Sensor: Nr:Datum:Temp:Feuchte:Taupunkt:
Aussen-T/F 901 22-08-2003 14:06:02 24.8 C 36 % 8.72 C
902 22-08-2003 14:18:02 25.3 C 35 % 8.75 C
903 22-08-2003 14:30:02 25.1 C 36 % 8.99 C
904 22-08-2003 14:42:01 25.5 C 35 % 8.92 C
905 22-08-2003 14:54:01 25.4 C 36 % 9.25 C
906 22-08-2003 15:06:02 25.4 C 35 % 8.84 C
907 22-08-2003 15:18:02 25.8 C 35 % 9.19 C
908 22-08-2003 15:30:02 26 C 34 % 8.93 C
909 22-08-2003 15:42:00 26.2 C 33 % 8.67 C
910 22-08-2003 15:54:00 26.4 C 33 % 8.84 C
911 22-08-2003 16:06:01 26.8 C 32 % 8.73 C
912 22-08-2003 16:18:01 26.6 C 32 % 8.56 C
913 22-08-2003 16:30:01 27 C 32 % 8.91 C
914 22-08-2003 16:42:01 27.1 C 31 % 8.52 C
915 22-08-2003 16:54:01 26.9 C 32 % 8.82 C
916 22-08-2003 17:06:01 27.4 C 31 % 8.78 C
917 22-08-2003 17:18:01 27.1 C 32 % 8.99 C
918 22-08-2003 17:30:01 26.9 C 32 % 8.82 C
919 22-08-2003 17:42:01 27.1 C 32 % 8.99 C
920 22-08-2003 17:54:01 27.3 C 31 % 8.7 C
921 22-08-2003 18:06:01 27.2 C 32 % 9.08 C
922 22-08-2003 18:18:01 27.4 C 32 % 9.25 C
923 22-08-2003 18:30:01 27.1 C 31 % 8.52 C
924 22-08-2003 18:42:01 26.6 C 33 % 9.01 C
925 22-08-2003 18:54:01 26.6 C 33 % 9.01 C
Sensor: Nr:Datum:Temp:Feuchte:Taupunkt:
Aussen-T/F 926 22-08-2003 19:06:02 26.5 C 34 % 9.37 C
927 22-08-2003 19:18:02 26.3 C 34 % 9.19 C
928 22-08-2003 19:30:02 26.3 C 35 % 9.63 C
929 22-08-2003 19:42:00 25.1 C 36 % 8.99 C
930 22-08-2003 19:54:00 24.6 C 38 % 9.35 C
931 22-08-2003 20:06:01 23.9 C 40 % 9.49 C
932 22-08-2003 20:18:01 23.6 C 42 % 9.94 C
933 22-08-2003 20:30:01 23 C 43 % 9.76 C
934 22-08-2003 20:42:01 22.6 C 45 % 10.07 C
935 22-08-2003 20:54:01 22.1 C 47 % 10.27 C
936 22-08-2003 21:06:00 21.9 C 48 % 10.4 C
937 22-08-2003 21:18:00 21.6 C 49 % 10.44 C
938 22-08-2003 21:30:00 21.3 C 50 % 10.46 C
939 22-08-2003 21:42:01 21.1 C 52 % 10.87 C
940 22-08-2003 21:54:01 20.8 C 53 % 10.88 C
941 22-08-2003 22:06:01 20.4 C 53 % 10.51 C
942 22-08-2003 22:18:01 20 C 55 % 10.69 C
943 22-08-2003 22:30:01 19.7 C 56 % 10.68 C
944 22-08-2003 22:43:04 19.5 C 58 % 11.02 C
945 22-08-2003 22:55:04 19 C 60 % 11.07 C
946 22-08-2003 23:07:04 19.1 C 59 % 10.91 C
947 22-08-2003 23:19:04 19 C 59 % 10.81 C
948 22-08-2003 23:31:04 18.8 C 62 % 11.37 C
949 22-08-2003 23:43:04 19.2 C 59 % 11 C
950 22-08-2003 23:55:04 19.3 C 59 % 11.09 C
Sensor: Nr:Datum:Temp:Feuchte:Taupunkt:
Aussen-T/F 951 23-08-2003 00:07:04 19.1 C 59 % 10.91 C
952 23-08-2003 00:19:04 18.9 C 61 % 11.22 C
953 23-08-2003 00:31:04 18.9 C 61 % 11.22 C
954 23-08-2003 00:43:04 19 C 60 % 11.07 C
955 23-08-2003 00:55:04 19 C 60 % 11.07 C
956 23-08-2003 01:07:04 18.9 C 61 % 11.22 C
957 23-08-2003 01:19:04 18.8 C 62 % 11.37 C
958 23-08-2003 01:31:04 18.5 C 63 % 11.33 C
959 23-08-2003 01:43:04 18.3 C 64 % 11.38 C
960 23-08-2003 01:55:04 18.2 C 65 % 11.52 C
961 23-08-2003 02:07:04 18.1 C 65 % 11.42 C
962 23-08-2003 02:19:04 18.2 C 65 % 11.52 C
963 23-08-2003 02:31:04 18.1 C 65 % 11.42 C
964 23-08-2003 02:43:04 18.1 C 65 % 11.42 C
965 23-08-2003 02:55:04 17.8 C 67 % 11.6 C
966 23-08-2003 03:07:04 17.4 C 68 % 11.44 C
967 23-08-2003 03:19:04 17 C 69 % 11.28 C
968 23-08-2003 03:31:04 17 C 70 % 11.49 C
969 23-08-2003 03:43:04 16.8 C 72 % 11.73 C
970 23-08-2003 03:55:04 16.8 C 72 % 11.73 C
971 23-08-2003 04:07:04 16.9 C 71 % 11.61 C
972 23-08-2003 04:19:04 16.6 C 73 % 11.74 C
973 23-08-2003 04:31:04 16.6 C 73 % 11.74 C
974 23-08-2003 04:43:04 16.4 C 73 % 11.55 C
975 23-08-2003 04:55:04 16.4 C 74 % 11.76 C
Sensor: Nr:Datum:Temp:Feuchte:Taupunkt:
Aussen-T/F 976 23-08-2003 05:07:04 16.3 C 74 % 11.66 C
977 23-08-2003 05:19:04 16.2 C 74 % 11.56 C
978 23-08-2003 05:31:04 16.1 C 74 % 11.47 C
979 23-08-2003 05:43:04 16 C 75 % 11.57 C
980 23-08-2003 05:55:04 15.9 C 77 % 11.88 C
981 23-08-2003 06:07:04 15.8 C 77 % 11.78 C
982 23-08-2003 06:19:04 15.6 C 78 % 11.78 C
983 23-08-2003 06:31:04 15.5 C 78 % 11.68 C
984 23-08-2003 06:43:04 15.4 C 78 % 11.59 C
985 23-08-2003 06:55:04 15.4 C 79 % 11.78 C
986 23-08-2003 07:07:04 15.4 C 79 % 11.78 C
987 23-08-2003 07:19:04 15.4 C 79 % 11.78 C
988 23-08-2003 07:31:04 15.4 C 79 % 11.78 C
989 23-08-2003 07:43:04 15.6 C 78 % 11.78 C
990 23-08-2003 07:55:04 16 C 76 % 11.77 C
991 23-08-2003 08:07:04 16.2 C 75 % 11.77 C
992 23-08-2003 08:19:04 16.6 C 74 % 11.95 C
993 23-08-2003 08:31:04 16.9 C 73 % 12.03 C
994 23-08-2003 08:43:01 16.9 C 74 % 12.24 C
995 23-08-2003 08:55:01 17.2 C 72 % 12.11 C
996 23-08-2003 09:07:01 17.7 C 71 % 12.38 C
997 23-08-2003 09:19:01 18.1 C 70 % 12.55 C
998 23-08-2003 09:31:01 19 C 67 % 12.74 C
999 23-08-2003 09:43:01 19.4 C 65 % 12.66 C
1000 23-08-2003 09:55:01 19.8 C 64 % 12.8 C
Sensor: Nr:Datum:Temp:Feuchte:Taupunkt:
Aussen-T/F 1001 23-08-2003 10:07:02 20.2 C 61 % 12.44 C
1002 23-08-2003 10:19:02 20.8 C 60 % 12.76 C
1003 23-08-2003 10:31:02 21.8 C 56 % 12.64 C
1004 23-08-2003 10:43:02 22.1 C 54 % 12.36 C
1005 23-08-2003 10:55:02 22.5 C 54 % 12.73 C
1006 23-08-2003 11:07:02 22.1 C 55 % 12.64 C
1007 23-08-2003 11:19:02 22.1 C 56 % 12.92 C
1008 23-08-2003 11:31:02 22.1 C 58 % 13.45 C
1009 23-08-2003 11:43:01 23.5 C 51 % 12.78 C
1010 23-08-2003 11:55:01 24 C 47 % 12 C
1011 23-08-2003 12:07:02 24.2 C 48 % 12.5 C
1012 23-08-2003 12:19:02 24.4 C 48 % 12.68 C
1013 23-08-2003 12:31:02 25.4 C 46 % 12.94 C
1014 23-08-2003 12:43:00 25.6 C 44 % 12.45 C
1015 23-08-2003 12:55:00 25.7 C 44 % 12.54 C
1016 23-08-2003 13:07:00 26.1 C 42 % 12.19 C
1017 23-08-2003 13:19:00 25.9 C 45 % 13.06 C
1018 23-08-2003 13:31:00 25.5 C 47 % 13.36 C
1019 23-08-2003 13:43:01 25.2 C 50 % 14.04 C
1020 23-08-2003 13:55:01 25 C 49 % 13.55 C
1021 23-08-2003 14:07:02 25.2 C 46 % 12.76 C
1022 23-08-2003 14:19:02 25.8 C 45 % 12.97 C
1023 23-08-2003 14:31:02 26.5 C 43 % 12.91 C
1024 23-08-2003 14:43:01 27.7 C 41 % 13.25 C
1025 23-08-2003 14:55:01 28.3 C 39 % 13.02 C
Sensor: Nr:Datum:Temp:Feuchte:Taupunkt:
Aussen-T/F 1026 23-08-2003 15:07:01 28.1 C 40 % 13.23 C
1027 23-08-2003 15:19:01 28.6 C 38 % 12.89 C
1028 23-08-2003 15:31:01 27.8 C 40 % 12.97 C
1029 23-08-2003 15:43:01 27.5 C 41 % 13.08 C
1030 23-08-2003 15:55:01 26.6 C 42 % 12.64 C
1031 23-08-2003 16:07:02 26.5 C 42 % 12.55 C
1032 23-08-2003 16:19:02 27.5 C 39 % 12.31 C
1033 23-08-2003 16:31:02 27.5 C 41 % 13.08 C
1034 23-08-2003 16:43:01 27.5 C 41 % 13.08 C
1035 23-08-2003 16:55:01 27.4 C 42 % 13.35 C
1036 23-08-2003 17:07:03 26.9 C 42 % 12.91 C
1037 23-08-2003 17:19:03 27.2 C 40 % 12.43 C
1038 23-08-2003 17:31:03 27.7 C 39 % 12.49 C
1039 23-08-2003 17:43:01 27.9 C 39 % 12.67 C
1040 23-08-2003 17:55:01 28 C 37 % 11.96 C
1041 23-08-2003 18:07:01 27.6 C 39 % 12.4 C
1042 23-08-2003 18:19:01 26.6 C 42 % 12.64 C
1043 23-08-2003 18:31:01 26.3 C 43 % 12.73 C
1044 23-08-2003 18:43:08 25.9 C 45 % 13.06 C
1045 23-08-2003 18:55:08 25.5 C 46 % 13.03 C
1046 23-08-2003 19:07:01 26.5 C 43 % 12.91 C
1047 23-08-2003 19:19:01 27.2 C 42 % 13.18 C
1048 23-08-2003 19:31:01 26.4 C 42 % 12.46 C
1049 23-08-2003 19:43:01 26.2 C 43 % 12.64 C
1050 23-08-2003 19:55:01 26.1 C 44 % 12.9 C
Sensor: Nr:Datum:Temp:Feuchte:Taupunkt:
Aussen-T/F 1051 23-08-2003 20:07:01 25.5 C 48 % 13.69 C
1052 23-08-2003 20:19:01 24.5 C 51 % 13.7 C
1053 23-08-2003 20:31:01 24.5 C 52 % 14 C
1054 23-08-2003 20:43:02 23.8 C 54 % 13.94 C
1055 23-08-2003 20:55:02 23.9 C 54 % 14.03 C
1056 23-08-2003 21:07:01 23.5 C 55 % 13.94 C
1057 23-08-2003 21:19:01 23.3 C 56 % 14.03 C
1058 23-08-2003 21:31:01 23.1 C 57 % 14.12 C
1059 23-08-2003 21:44:01 22.7 C 58 % 14.01 C
1060 23-08-2003 21:56:01 22.2 C 60 % 14.07 C
1061 23-08-2003 22:08:01 22 C 62 % 14.39 C
1062 23-08-2003 22:20:01 21.7 C 63 % 14.35 C
1063 23-08-2003 22:32:01 21.5 C 63 % 14.16 C
1064 23-08-2003 22:44:01 21.6 C 62 % 14.01 C
1065 23-08-2003 22:56:01 21.6 C 63 % 14.26 C
1066 23-08-2003 23:08:01 21.2 C 64 % 14.12 C
1067 23-08-2003 23:20:01 20.9 C 66 % 14.31 C
1068 23-08-2003 23:32:01 20.8 C 66 % 14.22 C
1069 23-08-2003 23:44:01 20.7 C 67 % 14.36 C
1070 23-08-2003 23:56:01 20.4 C 68 % 14.3 C
1071 24-08-2003 00:08:01 20.3 C 68 % 14.2 C
1072 24-08-2003 00:20:01 20.1 C 68 % 14.01 C
1073 24-08-2003 00:32:01 20.1 C 69 % 14.24 C
1074 24-08-2003 00:44:01 19.9 C 70 % 14.27 C
1075 24-08-2003 00:56:01 20 C 69 % 14.14 C
Sensor: Nr:Datum:Temp:Feuchte:Taupunkt:
Aussen-T/F 1076 24-08-2003 01:08:01 19.7 C 71 % 14.3 C
1077 24-08-2003 01:20:01 19.5 C 71 % 14.1 C
1078 24-08-2003 01:32:01 19.3 C 70 % 13.69 C
1079 24-08-2003 01:44:01 19.3 C 70 % 13.69 C
1080 24-08-2003 01:56:01 19.1 C 69 % 13.28 C
1081 24-08-2003 02:08:01 19 C 69 % 13.19 C
1082 24-08-2003 02:20:01 18.7 C 69 % 12.9 C
1083 24-08-2003 02:32:01 18.6 C 69 % 12.8 C
1084 24-08-2003 02:44:01 18.5 C 70 % 12.93 C
1085 24-08-2003 02:56:01 18.2 C 70 % 12.64 C
1086 24-08-2003 03:08:01 18.1 C 70 % 12.55 C
1087 24-08-2003 03:20:01 17.8 C 72 % 12.69 C
1088 24-08-2003 03:32:01 17.6 C 73 % 12.71 C
1089 24-08-2003 03:44:01 17.4 C 73 % 12.51 C
1090 24-08-2003 03:56:01 17.3 C 73 % 12.42 C
1091 24-08-2003 04:08:01 17.1 C 74 % 12.43 C
1092 24-08-2003 04:20:01 16.8 C 75 % 12.35 C
1093 24-08-2003 04:32:01 16.6 C 76 % 12.36 C
1094 24-08-2003 04:44:01 16.5 C 75 % 12.06 C
1095 24-08-2003 04:56:01 16.3 C 76 % 12.07 C
1096 24-08-2003 05:08:01 16.2 C 76 % 11.97 C
1097 24-08-2003 05:20:01 16.1 C 76 % 11.87 C
1098 24-08-2003 05:32:01 16 C 77 % 11.97 C
1099 24-08-2003 05:44:01 15.7 C 77 % 11.68 C
1100 24-08-2003 05:56:01 15.7 C 79 % 12.07 C
Sensor: Nr:Datum:Temp:Feuchte:Taupunkt:
Aussen-T/F 1101 24-08-2003 06:08:01 15.4 C 78 % 11.59 C
1102 24-08-2003 06:20:01 15.2 C 79 % 11.59 C
1103 24-08-2003 06:32:01 15 C 79 % 11.39 C
1104 24-08-2003 06:44:01 15 C 79 % 11.39 C
1105 24-08-2003 06:56:01 14.8 C 80 % 11.39 C
1106 24-08-2003 07:08:01 14.8 C 81 % 11.57 C
1107 24-08-2003 07:20:01 14.8 C 81 % 11.57 C
1108 24-08-2003 07:32:01 14.8 C 81 % 11.57 C
1109 24-08-2003 07:44:01 14.8 C 80 % 11.39 C
1110 24-08-2003 07:56:01 14.9 C 80 % 11.48 C
1111 24-08-2003 08:08:01 15.1 C 80 % 11.68 C
1112 24-08-2003 08:20:01 15.2 C 79 % 11.59 C
1113 24-08-2003 08:32:01 15.4 C 78 % 11.59 C
1114 24-08-2003 08:44:01 15.7 C 77 % 11.68 C
1115 24-08-2003 08:56:01 16.1 C 76 % 11.87 C
1116 24-08-2003 09:08:01 16.5 C 74 % 11.85 C
1117 24-08-2003 09:20:01 16.8 C 73 % 11.94 C
1118 24-08-2003 09:32:01 17.2 C 71 % 11.9 C
1119 24-08-2003 09:44:01 17.4 C 69 % 11.66 C
1120 24-08-2003 09:56:01 17.6 C 69 % 11.85 C
1121 24-08-2003 10:08:02 18.1 C 66 % 11.65 C
1122 24-08-2003 10:20:02 18.8 C 64 % 11.85 C
1123 24-08-2003 10:32:01 19.3 C 61 % 11.6 C
1124 24-08-2003 10:44:01 19.3 C 60 % 11.35 C
1125 24-08-2003 10:56:01 19.8 C 57 % 11.04 C
Sensor: Nr:Datum:Temp:Feuchte:Taupunkt:
Aussen-T/F 1126 24-08-2003 11:08:01 19.8 C 57 % 11.04 C
1127 24-08-2003 11:20:01 20.4 C 53 % 10.51 C
1128 24-08-2003 11:32:02 20.6 C 52 % 10.41 C
1129 24-08-2003 11:44:02 21.1 C 50 % 10.28 C
1130 24-08-2003 11:56:02 21.9 C 48 % 10.4 C
1131 24-08-2003 12:08:02 22.5 C 46 % 10.31 C
1132 24-08-2003 12:20:02 22.3 C 43 % 9.13 C
1133 24-08-2003 12:32:48 22.6 C 43 % 9.4 C
1134 24-08-2003 12:44:48 22.9 C 41 % 8.96 C
1135 24-08-2003 12:56:01 22.6 C 39 % 7.95 C
1136 24-08-2003 13:08:01 23.4 C 39 % 8.67 C
1137 24-08-2003 13:20:01 24 C 35 % 7.61 C
1138 24-08-2003 13:32:01 24 C 34 % 7.18 C
1139 24-08-2003 13:44:01 24.5 C 32 % 6.74 C
1140 24-08-2003 13:56:01 24.4 C 32 % 6.65 C
1141 24-08-2003 14:08:01 25 C 31 % 6.71 C
1142 24-08-2003 14:20:01 25.5 C 30 % 6.66 C
1143 24-08-2003 14:32:01 25.8 C 30 % 6.92 C
1144 24-08-2003 14:44:01 26.8 C 27 % 6.25 C
1145 24-08-2003 14:56:01 27 C 27 % 6.42 C
1146 24-08-2003 15:08:00 26.7 C 26 % 5.62 C
1147 24-08-2003 15:20:00 26.8 C 27 % 6.25 C
1148 24-08-2003 15:32:01 27.1 C 25 % 5.39 C
1149 24-08-2003 15:44:01 27.8 C 25 % 5.98 C
1150 24-08-2003 15:56:01 28.7 C 23 % 5.53 C
Sensor: Nr:Datum:Temp:Feuchte:Taupunkt:
Aussen-T/F 1151 24-08-2003 16:08:01 27.8 C 23 % 4.78 C
1152 24-08-2003 16:20:01 28.8 C 22 % 4.98 C
1153 24-08-2003 16:32:01 28.1 C 22 % 4.4 C
1154 24-08-2003 16:44:01 28 C 22 % 4.32 C
1155 24-08-2003 16:56:01 28.7 C 22 % 4.9 C
1156 24-08-2003 17:08:01 29.2 C 21 % 4.64 C
1157 24-08-2003 17:20:01 28.3 C 22 % 4.57 C
1158 24-08-2003 17:32:01 27.7 C 23 % 4.7 C
1159 24-08-2003 17:44:01 28 C 23 % 4.95 C
1160 24-08-2003 17:56:01 28.6 C 23 % 5.45 C
1161 24-08-2003 18:08:02 28.6 C 24 % 6.06 C
1162 24-08-2003 18:20:02 27.6 C 25 % 5.81 C
1163 24-08-2003 18:32:01 27.3 C 25 % 5.56 C
1164 24-08-2003 18:44:01 26.7 C 28 % 6.69 C
1165 24-08-2003 18:56:01 27.2 C 29 % 7.63 C
1166 24-08-2003 19:08:02 26 C 30 % 7.09 C
1167 24-08-2003 19:20:02 25.5 C 33 % 8.06 C
1168 24-08-2003 19:32:01 25.4 C 34 % 8.41 C
1169 24-08-2003 19:44:01 25 C 35 % 8.48 C
1170 24-08-2003 19:56:01 24.8 C 36 % 8.72 C
1171 24-08-2003 20:08:02 23.4 C 39 % 8.67 C
1172 24-08-2003 20:20:02 22.3 C 42 % 8.78 C
1173 24-08-2003 20:32:01 21.6 C 45 % 9.17 C
1174 24-08-2003 20:44:01 21.5 C 46 % 9.4 C
1175 24-08-2003 20:56:01 21.3 C 46 % 9.22 C
Sensor: Nr:Datum:Temp:Feuchte:Taupunkt:
Aussen-T/F 1176 24-08-2003 21:08:02 21 C 46 % 8.95 C
1177 24-08-2003 21:20:02 20.6 C 48 % 9.21 C
1178 24-08-2003 21:33:01 20.4 C 49 % 9.34 C
1179 24-08-2003 21:45:01 20.3 C 49 % 9.24 C
1180 24-08-2003 21:57:01 19.9 C 50 % 9.18 C
1181 24-08-2003 22:09:01 19.5 C 52 % 9.39 C
1182 24-08-2003 22:21:01 19.1 C 53 % 9.3 C
1183 24-08-2003 22:33:01 18.7 C 54 % 9.21 C
1184 24-08-2003 22:45:01 18.1 C 55 % 8.93 C
1185 24-08-2003 22:57:01 17.7 C 57 % 9.08 C
1186 24-08-2003 23:09:01 17.4 C 57 % 8.8 C
1187 24-08-2003 23:21:01 17.2 C 58 % 8.87 C
1188 24-08-2003 23:33:01 16.9 C 60 % 9.09 C
1189 24-08-2003 23:45:01 16.5 C 62 % 9.2 C
1190 24-08-2003 23:57:01 16.4 C 63 % 9.35 C
1191 25-08-2003 00:09:01 16.2 C 62 % 8.92 C
1192 25-08-2003 00:21:01 15.9 C 64 % 9.11 C
1193 25-08-2003 00:33:01 15.7 C 65 % 9.15 C
1194 25-08-2003 00:45:01 15.4 C 66 % 9.09 C
1195 25-08-2003 00:57:01 15.4 C 66 % 9.09 C
1196 25-08-2003 01:09:01 15.3 C 66 % 8.99 C
1197 25-08-2003 01:21:01 15.1 C 67 % 9.02 C
1198 25-08-2003 01:33:01 15.1 C 67 % 9.02 C
1199 25-08-2003 01:45:01 15 C 67 % 8.93 C
1200 25-08-2003 01:57:01 14.8 C 68 % 8.96 C
Sensor: Nr:Datum:Temp:Feuchte:Taupunkt:
Aussen-T/F 1201 25-08-2003 02:09:01 14.5 C 69 % 8.89 C
1202 25-08-2003 02:21:01 14.3 C 70 % 8.91 C
1203 25-08-2003 02:33:01 14.2 C 71 % 9.02 C
1204 25-08-2003 02:45:01 14.2 C 70 % 8.81 C
1205 25-08-2003 02:57:01 14.2 C 72 % 9.23 C
1206 25-08-2003 03:09:01 13.9 C 73 % 9.15 C
1207 25-08-2003 03:21:01 13.7 C 74 % 9.15 C
1208 25-08-2003 03:33:01 13.3 C 74 % 8.77 C
1209 25-08-2003 03:45:01 13.3 C 75 % 8.97 C
1210 25-08-2003 03:57:01 13.2 C 76 % 9.07 C
1211 25-08-2003 04:09:01 13 C 76 % 8.87 C
1212 25-08-2003 04:21:01 13 C 77 % 9.07 C
1213 25-08-2003 04:33:01 12.9 C 78 % 9.16 C
1214 25-08-2003 04:45:01 12.7 C 79 % 9.16 C
1215 25-08-2003 04:57:01 12.5 C 79 % 8.96 C
1216 25-08-2003 05:09:01 12.4 C 80 % 9.05 C
1217 25-08-2003 05:21:01 12.2 C 80 % 8.86 C
1218 25-08-2003 05:33:01 12.1 C 81 % 8.94 C
1219 25-08-2003 05:45:01 12 C 82 % 9.03 C
1220 25-08-2003 05:57:01 11.8 C 82 % 8.83 C
1221 25-08-2003 06:09:01 11.8 C 82 % 8.83 C
1222 25-08-2003 06:21:01 11.6 C 83 % 8.81 C
1223 25-08-2003 06:33:01 11.4 C 83 % 8.62 C
1224 25-08-2003 06:45:01 11.4 C 84 % 8.8 C
1225 25-08-2003 06:57:01 11.4 C 84 % 8.8 C
Sensor: Nr:Datum:Temp:Feuchte:Taupunkt:
Aussen-T/F 1226 25-08-2003 07:09:01 11.4 C 85 % 8.97 C
1227 25-08-2003 07:21:01 11.4 C 84 % 8.8 C
1228 25-08-2003 07:33:01 11.5 C 84 % 8.89 C
1229 25-08-2003 07:45:01 11.6 C 84 % 8.99 C
1230 25-08-2003 07:57:01 11.7 C 84 % 9.09 C
1231 25-08-2003 08:09:00 11.9 C 84 % 9.29 C
1232 25-08-2003 08:21:00 12.2 C 84 % 9.58 C
1233 25-08-2003 08:33:01 12.5 C 83 % 9.69 C
1234 25-08-2003 08:45:01 12.9 C 81 % 9.72 C
1235 25-08-2003 08:57:01 13.3 C 77 % 9.36 C
1236 25-08-2003 09:09:01 13.7 C 75 % 9.35 C
1237 25-08-2003 09:21:01 14 C 74 % 9.44 C
1238 25-08-2003 09:33:01 14.7 C 71 % 9.5 C
1239 25-08-2003 09:45:01 15.2 C 71 % 9.98 C
1240 25-08-2003 09:57:01 15.7 C 68 % 9.82 C
1241 25-08-2003 10:09:01 16.4 C 66 % 10.04 C
1242 25-08-2003 10:21:01 17.1 C 63 % 10.01 C
1243 25-08-2003 10:33:02 17.7 C 63 % 10.57 C
1244 25-08-2003 10:45:02 18.1 C 59 % 9.97 C
1245 25-08-2003 10:57:02 19.1 C 53 % 9.3 C
1246 25-08-2003 11:09:02 20 C 48 % 8.67 C
1247 25-08-2003 11:21:02 20.5 C 46 % 8.49 C
1248 25-08-2003 11:33:01 21.1 C 43 % 8.04 C
1249 25-08-2003 11:45:01 21.8 C 42 % 8.33 C
1250 25-08-2003 11:57:01 22 C 40 % 7.79 C
Sensor: Nr:Datum:Temp:Feuchte:Taupunkt:
Aussen-T/F 1251 25-08-2003 12:09:01 22.5 C 39 % 7.86 C
1252 25-08-2003 12:21:01 22.6 C 38 % 7.57 C
1253 25-08-2003 12:33:02 23 C 37 % 7.54 C
1254 25-08-2003 12:45:02 23.3 C 36 % 7.4 C
1255 25-08-2003 12:57:02 23.9 C 36 % 7.93 C
1256 25-08-2003 13:09:02 24.3 C 35 % 7.87 C
1257 25-08-2003 13:21:02 24.4 C 34 % 7.53 C
1258 25-08-2003 13:33:01 25.1 C 32 % 7.26 C
1259 25-08-2003 13:45:01 25.1 C 31 % 6.79 C
1260 25-08-2003 13:57:01 26 C 31 % 7.57 C
1261 25-08-2003 14:09:01 26.4 C 30 % 7.44 C
1262 25-08-2003 14:21:01 26.2 C 29 % 6.77 C
1263 25-08-2003 14:33:01 27.4 C 29 % 7.8 C
1264 25-08-2003 14:45:01 27.5 C 27 % 6.84 C
1265 25-08-2003 14:57:01 28.6 C 26 % 7.23 C
1266 25-08-2003 15:09:01 29.1 C 24 % 6.48 C
1267 25-08-2003 15:21:01 28.8 C 25 % 6.82 C
1268 25-08-2003 15:33:01 29.5 C 23 % 6.2 C
1269 25-08-2003 15:45:01 29 C 24 % 6.4 C
1270 25-08-2003 15:57:01 29.7 C 23 % 6.37 C
1271 25-08-2003 16:09:01 30 C 22 % 5.97 C
1272 25-08-2003 16:21:01 30.3 C 22 % 6.22 C
1273 25-08-2003 16:33:01 29.1 C 22 % 5.23 C
1274 25-08-2003 16:45:01 29.6 C 22 % 5.64 C
1275 25-08-2003 16:57:01 30.6 C 20 % 5.1 C
Sensor: Nr:Datum:Temp:Feuchte:Taupunkt:
Aussen-T/F 1276 25-08-2003 17:09:01 31 C 20 % 5.42 C
1277 25-08-2003 17:21:01 31.4 C 20 % 5.75 C
1278 25-08-2003 17:33:02 31.2 C 20 % 5.59 C
1279 25-08-2003 17:45:02 31.2 C 20 % 5.59 C
1280 25-08-2003 17:57:02 31.3 C 20 % 5.67 C
1281 25-08-2003 18:09:01 31.4 C 20 % 5.75 C
1282 25-08-2003 18:21:01 31.4 C 20 % 5.75 C
1283 25-08-2003 18:33:01 30.6 C 20 % 5.1 C
1284 25-08-2003 18:45:01 30.6 C 20 % 5.1 C
1285 25-08-2003 18:57:01 30.8 C 20 % 5.26 C
1286 25-08-2003 19:09:02 30.4 C 21 % 5.63 C
1287 25-08-2003 19:21:02 30 C 21 % 5.3 C
1288 25-08-2003 19:33:02 29.4 C 23 % 6.12 C
1289 25-08-2003 19:45:02 28.9 C 25 % 6.91 C
1290 25-08-2003 19:57:02 27.7 C 25 % 5.9 C
1291 25-08-2003 20:09:01 26.4 C 29 % 6.94 C
1292 25-08-2003 20:21:01 25.1 C 30 % 6.32 C
1293 25-08-2003 20:33:01 24 C 32 % 6.3 C
1294 25-08-2003 20:45:01 23.3 C 33 % 6.14 C
1295 25-08-2003 20:57:01 23 C 36 % 7.14 C
1296 25-08-2003 21:09:01 22.3 C 36 % 6.52 C
1297 25-08-2003 21:21:01 21.4 C 38 % 6.51 C
1298 25-08-2003 21:33:00 21.1 C 39 % 6.62 C
1299 25-08-2003 21:45:00 20.9 C 40 % 6.81 C
1300 25-08-2003 21:57:00 20.6 C 42 % 7.25 C
Sensor: Nr:Datum:Temp:Feuchte:Taupunkt:
Aussen-T/F 1301 25-08-2003 22:10:01 20.1 C 43 % 7.14 C
1302 25-08-2003 22:22:01 20 C 44 % 7.39 C
1303 25-08-2003 22:34:01 19.6 C 46 % 7.67 C
1304 25-08-2003 22:46:01 19.4 C 47 % 7.81 C
1305 25-08-2003 22:58:01 19 C 48 % 7.75 C
1306 25-08-2003 23:10:01 18.8 C 50 % 8.17 C
1307 25-08-2003 23:22:01 18.7 C 50 % 8.08 C
1308 25-08-2003 23:34:01 18.4 C 52 % 8.38 C
1309 25-08-2003 23:46:01 18.2 C 53 % 8.47 C
1310 25-08-2003 23:58:01 18.2 C 54 % 8.75 C
1311 26-08-2003 00:10:01 17.9 C 55 % 8.74 C
1312 26-08-2003 00:22:01 17.8 C 56 % 8.91 C
1313 26-08-2003 00:34:01 17.3 C 57 % 8.71 C
1314 26-08-2003 00:46:01 17.3 C 58 % 8.97 C
1315 26-08-2003 00:58:01 16.8 C 60 % 9 C
1316 26-08-2003 01:10:01 16.4 C 62 % 9.11 C
1317 26-08-2003 01:22:01 16.4 C 63 % 9.35 C
1318 26-08-2003 01:34:01 16.3 C 62 % 9.01 C
1319 26-08-2003 01:46:01 16.1 C 64 % 9.29 C
1320 26-08-2003 01:58:01 15.8 C 66 % 9.47 C
1321 26-08-2003 02:10:01 15.7 C 67 % 9.6 C
1322 26-08-2003 02:22:01 15.5 C 66 % 9.18 C
1323 26-08-2003 02:34:01 15.2 C 68 % 9.34 C
1324 26-08-2003 02:46:01 15 C 68 % 9.15 C
1325 26-08-2003 02:58:01 14.8 C 71 % 9.6 C
Sensor: Nr:Datum:Temp:Feuchte:Taupunkt:
Aussen-T/F 1326 26-08-2003 03:10:01 14.7 C 71 % 9.5 C
1327 26-08-2003 03:22:01 14.5 C 71 % 9.31 C
1328 26-08-2003 03:34:01 14.4 C 72 % 9.42 C
1329 26-08-2003 03:46:01 14.1 C 73 % 9.34 C
1330 26-08-2003 03:58:01 14.2 C 74 % 9.64 C
1331 26-08-2003 04:10:01 13.9 C 75 % 9.55 C
1332 26-08-2003 04:22:01 13.7 C 76 % 9.55 C
1333 26-08-2003 04:34:01 13.5 C 76 % 9.36 C
1334 26-08-2003 04:46:01 13.3 C 77 % 9.36 C
1335 26-08-2003 04:58:01 13.2 C 77 % 9.26 C
1336 26-08-2003 05:10:01 13.1 C 77 % 9.16 C
1337 26-08-2003 05:22:01 13 C 77 % 9.07 C
1338 26-08-2003 05:34:01 12.9 C 79 % 9.35 C
1339 26-08-2003 05:46:01 12.5 C 79 % 8.96 C
1340 26-08-2003 05:58:01 12.4 C 79 % 8.86 C
1341 26-08-2003 06:10:01 12.4 C 80 % 9.05 C
1342 26-08-2003 06:22:01 12.3 C 81 % 9.14 C
1343 26-08-2003 06:34:01 12.2 C 80 % 8.86 C
1344 26-08-2003 06:46:01 12.1 C 81 % 8.94 C
1345 26-08-2003 06:58:01 12 C 82 % 9.03 C
1346 26-08-2003 07:10:01 12.1 C 82 % 9.12 C
1347 26-08-2003 07:22:01 12.1 C 81 % 8.94 C
1348 26-08-2003 07:34:01 12.1 C 82 % 9.12 C
1349 26-08-2003 07:46:01 12.1 C 82 % 9.12 C
1350 26-08-2003 07:58:01 12.1 C 82 % 9.12 C
Sensor: Nr:Datum:Temp:Feuchte:Taupunkt:
Aussen-T/F 1351 26-08-2003 08:10:01 12.3 C 82 % 9.32 C
1352 26-08-2003 08:22:01 12.6 C 82 % 9.61 C
1353 26-08-2003 08:34:01 12.8 C 81 % 9.62 C
1354 26-08-2003 08:46:01 13.1 C 80 % 9.73 C
1355 26-08-2003 08:58:01 13.4 C 79 % 9.84 C
1356 26-08-2003 09:10:01 13.7 C 79 % 10.13 C
1357 26-08-2003 09:22:01 14.3 C 78 % 10.52 C
1358 26-08-2003 09:34:02 14.8 C 75 % 10.42 C
1359 26-08-2003 09:46:02 15.5 C 71 % 10.27 C
1360 26-08-2003 09:58:02 16.2 C 68 % 10.29 C
1361 26-08-2003 10:10:02 17 C 66 % 10.61 C
1362 26-08-2003 10:22:02 17.5 C 64 % 10.62 C
1363 26-08-2003 10:34:01 18.2 C 61 % 10.56 C
1364 26-08-2003 10:46:01 18.9 C 58 % 10.46 C
1365 26-08-2003 10:58:01 19.6 C 55 % 10.32 C
1366 26-08-2003 11:10:02 20.4 C 52 % 10.22 C
1367 26-08-2003 11:22:02 20.8 C 47 % 9.08 C
1368 26-08-2003 11:34:01 21.4 C 45 % 8.99 C
1369 26-08-2003 11:46:01 22.3 C 41 % 8.42 C
1370 26-08-2003 11:58:01 22.9 C 42 % 9.32 C
1371 26-08-2003 12:10:01 23.6 C 41 % 9.59 C
1372 26-08-2003 12:22:01 24.1 C 38 % 8.9 C
1373 26-08-2003 12:34:01 24.3 C 37 % 8.69 C
1374 26-08-2003 12:46:01 25.1 C 33 % 7.71 C
1375 26-08-2003 12:58:01 25.6 C 30 % 6.75 C
Sensor: Nr:Datum:Temp:Feuchte:Taupunkt:
Aussen-T/F 1376 26-08-2003 13:10:01 25.8 C 29 % 6.43 C
1377 26-08-2003 13:22:01 26.5 C 26 % 5.45 C
1378 26-08-2003 13:34:01 27.1 C 22 % 3.57 C
1379 26-08-2003 13:46:01 26.9 C 23 % 4.03 C
1380 26-08-2003 13:58:01 26.8 C 23 % 3.95 C
1381 26-08-2003 14:10:02 27.7 C 23 % 4.7 C
1382 26-08-2003 14:22:02 28.5 C 21 % 4.07 C
1383 26-08-2003 14:34:01 29 C 21 % 4.48 C
1384 26-08-2003 14:46:01 29.4 C 20 % 4.11 C
1385 26-08-2003 14:58:01 30 C 20 % 4.61 C
1386 26-08-2003 15:10:02 30.4 C 20 % 4.93 C
1387 26-08-2003 15:22:02 30 C 20 % 4.61 C
1388 26-08-2003 15:34:00 28.8 C 20 % 3.62 C
1389 26-08-2003 15:46:00 30.1 C 20 % 4.69 C
1390 26-08-2003 15:58:00 30.7 C 20 % 5.18 C
1391 26-08-2003 16:10:01 30.8 C 20 % 5.26 C
1392 26-08-2003 16:22:01 30.6 C 20 % 5.1 C
1393 26-08-2003 16:34:01 30.4 C 20 % 4.93 C
1394 26-08-2003 16:46:01 30.9 C 20 % 5.34 C
1395 26-08-2003 16:58:01 30 C 21 % 5.3 C
1396 26-08-2003 17:10:01 30.6 C 20 % 5.1 C
1397 26-08-2003 17:22:01 30.4 C 20 % 4.93 C
1398 26-08-2003 17:34:01 31 C 20 % 5.42 C
1399 26-08-2003 17:46:01 31.2 C 20 % 5.59 C
1400 26-08-2003 17:58:01 30.9 C 21 % 6.05 C
Sensor: Nr:Datum:Temp:Feuchte:Taupunkt:
Aussen-T/F 1401 26-08-2003 18:10:02 30.7 C 21 % 5.88 C
1402 26-08-2003 18:22:02 30 C 25 % 7.83 C
1403 26-08-2003 18:34:02 29 C 26 % 7.57 C
1404 26-08-2003 18:46:02 29.5 C 25 % 7.41 C
1405 26-08-2003 18:58:02 29 C 24 % 6.4 C
1406 26-08-2003 19:10:02 28.7 C 25 % 6.74 C
1407 26-08-2003 19:22:02 27.5 C 27 % 6.84 C
1408 26-08-2003 19:34:01 26.9 C 30 % 7.87 C
1409 26-08-2003 19:46:01 26.8 C 30 % 7.78 C
1410 26-08-2003 19:58:01 25.8 C 31 % 7.4 C
1411 26-08-2003 20:10:01 25.2 C 32 % 7.34 C
1412 26-08-2003 20:22:01 24.7 C 34 % 7.8 C
1413 26-08-2003 20:34:00 24.2 C 36 % 8.2 C
1414 26-08-2003 20:46:00 23.9 C 36 % 7.93 C
1415 26-08-2003 20:58:00 23.4 C 38 % 8.28 C
1416 26-08-2003 21:10:01 22.9 C 41 % 8.96 C
1417 26-08-2003 21:22:01 22.4 C 42 % 8.87 C
1418 26-08-2003 21:34:00 21.9 C 45 % 9.44 C
1419 26-08-2003 21:46:00 21.5 C 46 % 9.4 C
1420 26-08-2003 21:58:00 21 C 47 % 9.27 C
1421 26-08-2003 22:11:02 20.6 C 49 % 9.52 C
1422 26-08-2003 22:23:02 20.5 C 49 % 9.43 C
1423 26-08-2003 22:35:02 20.3 C 50 % 9.54 C
1424 26-08-2003 22:47:02 20.1 C 51 % 9.66 C
1425 26-08-2003 22:59:02 20.1 C 51 % 9.66 C
Sensor: Nr:Datum:Temp:Feuchte:Taupunkt:
Aussen-T/F 1426 26-08-2003 23:11:02 19.9 C 53 % 10.04 C
1427 26-08-2003 23:23:02 19.6 C 53 % 9.77 C
1428 26-08-2003 23:35:02 19.5 C 54 % 9.95 C
1429 26-08-2003 23:47:02 19.1 C 55 % 9.86 C
1430 26-08-2003 23:59:02 18.9 C 56 % 9.94 C
1431 27-08-2003 00:11:02 18.7 C 57 % 10.02 C
1432 27-08-2003 00:23:02 18.5 C 58 % 10.09 C
1433 27-08-2003 00:35:02 18.2 C 59 % 10.06 C
1434 27-08-2003 00:47:02 18 C 60 % 10.13 C
1435 27-08-2003 00:59:02 17.8 C 62 % 10.43 C
1436 27-08-2003 01:11:02 18.1 C 61 % 10.47 C
1437 27-08-2003 01:23:02 18.3 C 60 % 10.41 C
1438 27-08-2003 01:35:02 18.3 C 60 % 10.41 C
1439 27-08-2003 01:47:02 18.1 C 60 % 10.22 C
1440 27-08-2003 01:59:02 17.9 C 61 % 10.28 C
1441 27-08-2003 02:11:02 17.7 C 62 % 10.33 C
1442 27-08-2003 02:23:02 17.5 C 62 % 10.15 C
1443 27-08-2003 02:35:02 17.2 C 63 % 10.1 C
1444 27-08-2003 02:47:02 17.1 C 64 % 10.24 C
1445 27-08-2003 02:59:02 16.8 C 66 % 10.42 C
1446 27-08-2003 03:11:02 16.6 C 67 % 10.45 C
1447 27-08-2003 03:23:02 16.4 C 67 % 10.26 C
1448 27-08-2003 03:35:02 16.2 C 69 % 10.51 C
1449 27-08-2003 03:47:02 16.1 C 69 % 10.42 C
1450 27-08-2003 03:59:02 15.7 C 72 % 10.67 C
Sensor: Nr:Datum:Temp:Feuchte:Taupunkt:
Aussen-T/F 1451 27-08-2003 04:11:02 15.5 C 73 % 10.69 C
1452 27-08-2003 04:23:02 15.3 C 73 % 10.49 C
1453 27-08-2003 04:35:02 15.1 C 74 % 10.5 C
1454 27-08-2003 04:47:02 14.8 C 77 % 10.81 C
1455 27-08-2003 04:59:02 14.8 C 77 % 10.81 C
1456 27-08-2003 05:11:02 14.5 C 78 % 10.71 C
1457 27-08-2003 05:23:02 14.3 C 79 % 10.71 C
1458 27-08-2003 05:35:02 14.5 C 78 % 10.71 C
1459 27-08-2003 05:47:02 14.9 C 77 % 10.91 C
1460 27-08-2003 05:59:02 15.1 C 74 % 10.5 C
1461 27-08-2003 06:11:02 15 C 74 % 10.41 C
1462 27-08-2003 06:23:02 15 C 74 % 10.41 C
1463 27-08-2003 06:35:02 14.7 C 76 % 10.52 C
1464 27-08-2003 06:47:02 15.1 C 74 % 10.5 C
1465 27-08-2003 06:59:02 15.4 C 73 % 10.59 C
1466 27-08-2003 07:11:02 15.2 C 73 % 10.4 C
1467 27-08-2003 07:23:02 15.2 C 73 % 10.4 C
1468 27-08-2003 07:35:02 15.4 C 73 % 10.59 C
1469 27-08-2003 07:47:02 15.4 C 73 % 10.59 C
1470 27-08-2003 07:59:02 15.6 C 72 % 10.57 C
1471 27-08-2003 08:11:02 15.8 C 71 % 10.56 C
1472 27-08-2003 08:23:02 16 C 70 % 10.54 C
1473 27-08-2003 08:35:02 16.2 C 69 % 10.51 C
1474 27-08-2003 08:47:02 16.3 C 69 % 10.61 C
1475 27-08-2003 08:59:02 16.5 C 68 % 10.58 C
Sensor: Nr:Datum:Temp:Feuchte:Taupunkt:
Aussen-T/F 1476 27-08-2003 09:11:02 16.8 C 67 % 10.64 C
1477 27-08-2003 09:23:02 16.9 C 67 % 10.74 C
1478 27-08-2003 09:35:01 17.1 C 65 % 10.47 C
1479 27-08-2003 09:47:01 17.2 C 66 % 10.8 C
1480 27-08-2003 09:59:01 17.5 C 65 % 10.85 C
1481 27-08-2003 10:11:01 17.8 C 64 % 10.9 C
1482 27-08-2003 10:23:01 17.6 C 64 % 10.72 C
1483 27-08-2003 10:35:01 17.9 C 64 % 11 C
1484 27-08-2003 10:47:01 17.5 C 65 % 10.85 C
1485 27-08-2003 10:59:01 16 C 74 % 11.37 C
1486 27-08-2003 11:11:00 16.3 C 75 % 11.86 C
1487 27-08-2003 11:23:00 17.3 C 68 % 11.34 C
1488 27-08-2003 11:35:00 17.9 C 63 % 10.76 C
1489 27-08-2003 11:47:00 18.6 C 60 % 10.69 C
1490 27-08-2003 11:59:00 18.6 C 56 % 9.66 C
1491 27-08-2003 11:59:01 18.6 C 56 % 9.66 C
1492 27-08-2003 12:11:01 18.7 C 56 % 9.75 C
1493 27-08-2003 12:23:01 19.2 C 54 % 9.67 C
1494 27-08-2003 12:35:02 20 C 51 % 9.56 C
1495 27-08-2003 12:47:02 20.4 C 48 % 9.03 C
1496 27-08-2003 12:59:02 20.5 C 48 % 9.12 C
1497 27-08-2003 13:11:01 20 C 47 % 8.35 C
1498 27-08-2003 13:23:01 20.5 C 46 % 8.49 C
1499 27-08-2003 13:35:02 21.1 C 44 % 8.38 C
1500 27-08-2003 13:47:02 21.8 C 45 % 9.35 C
Sensor: Nr:Datum:Temp:Feuchte:Taupunkt:
Aussen-T/F 1501 27-08-2003 13:59:02 22 C 40 % 7.79 C
1502 27-08-2003 14:11:01 21.7 C 40 % 7.52 C
1503 27-08-2003 14:23:01 21.4 C 40 % 7.25 C
1504 27-08-2003 14:35:01 21.5 C 40 % 7.34 C
1505 27-08-2003 14:47:01 21.9 C 41 % 8.06 C
1506 27-08-2003 14:59:01 21.1 C 40 % 6.99 C
1507 27-08-2003 15:11:01 21.7 C 41 % 7.88 C
1508 27-08-2003 15:23:01 22.8 C 38 % 7.75 C
1509 27-08-2003 15:35:02 22.8 C 38 % 7.75 C
1510 27-08-2003 15:47:02 22.2 C 40 % 7.97 C
1511 27-08-2003 15:59:02 21.9 C 41 % 8.06 C
1512 27-08-2003 16:11:00 21.8 C 41 % 7.97 C
1513 27-08-2003 16:23:00 21.6 C 42 % 8.15 C
1514 27-08-2003 16:35:01 21.7 C 41 % 7.88 C
1515 27-08-2003 16:47:01 21.8 C 41 % 7.97 C
1516 27-08-2003 16:59:01 22 C 40 % 7.79 C
1517 27-08-2003 17:11:01 21.6 C 40 % 7.43 C
1518 27-08-2003 17:23:01 21.9 C 41 % 8.06 C
1519 27-08-2003 17:35:04 21.1 C 42 % 7.7 C
1520 27-08-2003 17:47:04 21.4 C 41 % 7.62 C
1521 27-08-2003 17:59:04 21.6 C 42 % 8.15 C
1522 27-08-2003 18:11:04 21.6 C 42 % 8.15 C
1523 27-08-2003 18:23:04 21.4 C 43 % 8.31 C
1524 27-08-2003 18:35:02 21.4 C 43 % 8.31 C
1525 27-08-2003 18:47:02 20.9 C 45 % 8.53 C
Sensor: Nr:Datum:Temp:Feuchte:Taupunkt:
Aussen-T/F 1526 27-08-2003 18:59:02 20.6 C 46 % 8.58 C
1527 27-08-2003 19:11:03 20.1 C 47 % 8.45 C
1528 27-08-2003 19:23:03 20.1 C 48 % 8.76 C
1529 27-08-2003 19:35:01 19.8 C 49 % 8.79 C
1530 27-08-2003 19:47:01 19.4 C 50 % 8.72 C
1531 27-08-2003 19:59:01 18.9 C 52 % 8.84 C
1532 27-08-2003 20:11:00 18.6 C 53 % 8.84 C
1533 27-08-2003 20:23:00 18.5 C 54 % 9.03 C
1534 27-08-2003 20:35:01 18.5 C 55 % 9.3 C
1535 27-08-2003 20:47:01 18.5 C 55 % 9.3 C
1536 27-08-2003 20:59:01 18.5 C 55 % 9.3 C
1537 27-08-2003 21:12:00 18.4 C 56 % 9.47 C
1538 27-08-2003 21:24:00 18.3 C 56 % 9.38 C
1539 27-08-2003 21:36:00 18 C 57 % 9.36 C
1540 27-08-2003 21:48:00 17.7 C 60 % 9.84 C
1541 27-08-2003 22:00:00 17.2 C 60 % 9.37 C
1542 27-08-2003 22:12:00 16.9 C 62 % 9.58 C
1543 27-08-2003 22:24:00 16.4 C 63 % 9.35 C
1544 27-08-2003 22:36:00 16.2 C 64 % 9.39 C
1545 27-08-2003 22:48:00 16 C 65 % 9.43 C
1546 27-08-2003 23:00:00 15.7 C 67 % 9.6 C
1547 27-08-2003 23:12:00 15.6 C 67 % 9.5 C
1548 27-08-2003 23:24:00 15.5 C 68 % 9.63 C
1549 27-08-2003 23:36:00 15.3 C 68 % 9.43 C
1550 27-08-2003 23:48:00 15.2 C 68 % 9.34 C
Sensor: Nr:Datum:Temp:Feuchte:Taupunkt:
Aussen-T/F 1551 28-08-2003 00:00:00 15 C 69 % 9.36 C
1552 28-08-2003 00:12:00 14.9 C 70 % 9.48 C
1553 28-08-2003 00:24:00 14.6 C 70 % 9.2 C
1554 28-08-2003 00:36:00 14.4 C 72 % 9.42 C
1555 28-08-2003 00:48:00 14.3 C 73 % 9.53 C
1556 28-08-2003 01:00:00 14.1 C 72 % 9.13 C
1557 28-08-2003 01:12:00 13.8 C 73 % 9.05 C
1558 28-08-2003 01:24:00 13.7 C 74 % 9.15 C
1559 28-08-2003 01:36:00 13.5 C 75 % 9.16 C
1560 28-08-2003 01:48:00 13.4 C 76 % 9.26 C
1561 28-08-2003 02:00:00 13.3 C 78 % 9.55 C
1562 28-08-2003 02:12:00 13.2 C 78 % 9.45 C
1563 28-08-2003 02:24:00 13.1 C 79 % 9.54 C
1564 28-08-2003 02:36:00 12.9 C 80 % 9.54 C
1565 28-08-2003 02:48:00 12.8 C 80 % 9.44 C
1566 28-08-2003 03:00:00 12.7 C 81 % 9.53 C
1567 28-08-2003 03:12:00 12.5 C 81 % 9.33 C
1568 28-08-2003 03:24:00 12.4 C 82 % 9.42 C
1569 28-08-2003 03:36:00 12.3 C 82 % 9.32 C
1570 28-08-2003 03:48:00 12.2 C 82 % 9.22 C
1571 28-08-2003 04:00:00 12 C 82 % 9.03 C
1572 28-08-2003 04:12:00 11.9 C 83 % 9.11 C
1573 28-08-2003 04:24:00 11.7 C 84 % 9.09 C
1574 28-08-2003 04:36:00 11.8 C 84 % 9.19 C
1575 28-08-2003 04:48:00 11.7 C 85 % 9.27 C
Sensor: Nr:Datum:Temp:Feuchte:Taupunkt:
Aussen-T/F 1576 28-08-2003 05:00:00 11.6 C 86 % 9.34 C
1577 28-08-2003 05:12:00 11.5 C 86 % 9.24 C
1578 28-08-2003 05:24:00 11.4 C 86 % 9.14 C
1579 28-08-2003 05:36:00 11.3 C 85 % 8.87 C
1580 28-08-2003 05:48:00 11.2 C 86 % 8.95 C
1581 28-08-2003 06:00:00 11.1 C 87 % 9.02 C
1582 28-08-2003 06:12:00 11 C 87 % 8.92 C
1583 28-08-2003 06:24:00 10.9 C 87 % 8.82 C
1584 28-08-2003 06:36:00 11.3 C 87 % 9.22 C
1585 28-08-2003 06:48:00 11.5 C 86 % 9.24 C
1586 28-08-2003 07:00:00 11.5 C 85 % 9.07 C
1587 28-08-2003 07:12:00 11.5 C 85 % 9.07 C
1588 28-08-2003 07:24:00 11.5 C 85 % 9.07 C
1589 28-08-2003 07:36:00 12 C 84 % 9.38 C
1590 28-08-2003 07:48:00 12.1 C 83 % 9.3 C
1591 28-08-2003 08:00:00 12.5 C 81 % 9.33 C
1592 28-08-2003 08:12:01 12.6 C 80 % 9.25 C
1593 28-08-2003 08:24:01 12.6 C 80 % 9.25 C
1594 28-08-2003 08:36:00 12.6 C 81 % 9.43 C
1595 28-08-2003 08:48:00 12.7 C 81 % 9.53 C
1596 28-08-2003 09:00:00 13 C 79 % 9.45 C
1597 28-08-2003 09:12:01 13.2 C 79 % 9.64 C
1598 28-08-2003 09:24:01 13.6 C 79 % 10.03 C
1599 28-08-2003 09:36:00 14.1 C 77 % 10.13 C
1600 28-08-2003 09:48:00 14.6 C 76 % 10.42 C
Sensor: Nr:Datum:Temp:Feuchte:Taupunkt:
Aussen-T/F 1601 28-08-2003 10:00:00 15.2 C 74 % 10.6 C
1602 28-08-2003 10:12:00 15.8 C 72 % 10.77 C
1603 28-08-2003 10:24:00 16.4 C 69 % 10.7 C
1604 28-08-2003 10:36:01 17.2 C 65 % 10.57 C
1605 28-08-2003 10:48:01 18 C 61 % 10.37 C
1606 28-08-2003 11:00:01 18.5 C 56 % 9.57 C
1607 28-08-2003 11:12:01 19 C 54 % 9.49 C
1608 28-08-2003 11:24:01 19.5 C 52 % 9.39 C
1609 28-08-2003 11:36:01 19.9 C 52 % 9.76 C
1610 28-08-2003 11:48:01 21.1 C 47 % 9.36 C
1611 28-08-2003 12:00:01 21.9 C 47 % 10.09 C
1612 28-08-2003 12:12:02 22.3 C 45 % 9.8 C
1613 28-08-2003 12:24:02 22.9 C 43 % 9.67 C
1614 28-08-2003 12:36:01 23.6 C 40 % 9.22 C
1615 28-08-2003 12:48:01 23.4 C 39 % 8.67 C
1616 28-08-2003 13:00:01 23.7 C 40 % 9.31 C
1617 28-08-2003 13:12:02 24.1 C 36 % 8.11 C
1618 28-08-2003 13:24:02 25.2 C 33 % 7.79 C
1619 28-08-2003 13:36:01 26 C 33 % 8.49 C
1620 28-08-2003 13:48:01 26.7 C 32 % 8.65 C
1621 28-08-2003 14:00:01 27.3 C 31 % 8.7 C
1622 28-08-2003 14:12:00 27.2 C 30 % 8.13 C
1623 28-08-2003 14:24:00 26.6 C 31 % 8.09 C
1624 28-08-2003 14:36:01 27.1 C 30 % 8.04 C
1625 28-08-2003 14:48:01 27.1 C 30 % 8.04 C
Sensor: Nr:Datum:Temp:Feuchte:Taupunkt:
Aussen-T/F 1626 28-08-2003 15:00:01 27.2 C 30 % 8.13 C
1627 28-08-2003 15:12:01 27.3 C 30 % 8.21 C
1628 28-08-2003 15:24:01 27.6 C 30 % 8.47 C
1629 28-08-2003 15:36:00 27.8 C 29 % 8.15 C
1630 28-08-2003 15:48:00 27.6 C 30 % 8.47 C
1631 28-08-2003 16:00:00 28.1 C 29 % 8.4 C
1632 28-08-2003 16:12:00 28.4 C 29 % 8.66 C
1633 28-08-2003 16:24:00 28.3 C 29 % 8.57 C
1634 28-08-2003 16:36:29 28.7 C 30 % 9.42 C
1635 28-08-2003 16:48:29 28.7 C 29 % 8.92 C
1636 28-08-2003 17:00:01 28.7 C 29 % 8.92 C
1637 28-08-2003 17:12:02 29.5 C 28 % 9.08 C
1638 28-08-2003 17:24:02 29.3 C 28 % 8.91 C
1639 28-08-2003 17:36:01 29.2 C 29 % 9.34 C
1640 28-08-2003 17:48:01 29 C 30 % 9.68 C
1641 28-08-2003 18:00:01 29.2 C 30 % 9.85 C
1642 28-08-2003 18:12:01 28.6 C 31 % 9.82 C
1643 28-08-2003 18:24:01 27.7 C 35 % 10.85 C
1644 28-08-2003 18:36:01 27.2 C 35 % 10.42 C
1645 28-08-2003 18:48:01 26.7 C 37 % 10.81 C
1646 28-08-2003 19:00:01 26.2 C 38 % 10.77 C
1647 28-08-2003 19:12:01 25.6 C 41 % 11.38 C
1648 28-08-2003 19:24:01 25.2 C 42 % 11.38 C
1649 28-08-2003 19:36:01 24.5 C 41 % 10.39 C
1650 28-08-2003 19:48:01 22.9 C 52 % 12.53 C
Sensor: Nr:Datum:Temp:Feuchte:Taupunkt:
Aussen-T/F 1651 28-08-2003 20:00:01 20.7 C 60 % 12.66 C
1652 28-08-2003 20:12:01 20.7 C 60 % 12.66 C
1653 28-08-2003 20:24:01 20.5 C 62 % 12.97 C
1654 28-08-2003 20:36:01 20.4 C 62 % 12.88 C
1655 28-08-2003 20:48:01 20.4 C 63 % 13.12 C
1656 28-08-2003 21:00:01 19.9 C 73 % 14.92 C
1657 28-08-2003 21:12:02 18.2 C 83 % 15.27 C
1658 28-08-2003 21:24:02 17.7 C 89 % 15.86 C
1659 28-08-2003 21:37:01 17.4 C 90 % 15.74 C
1660 28-08-2003 21:49:01 17.5 C 91 % 16.01 C
1661 28-08-2003 22:01:01 17.5 C 91 % 16.01 C
1662 28-08-2003 22:13:01 17.6 C 91 % 16.11 C
1663 28-08-2003 22:25:01 17.5 C 90 % 15.84 C
1664 28-08-2003 22:37:01 17.5 C 90 % 15.84 C
1665 28-08-2003 22:49:01 17.6 C 89 % 15.77 C
1666 28-08-2003 23:01:01 17.5 C 89 % 15.67 C
1667 28-08-2003 23:13:01 17.5 C 89 % 15.67 C
1668 28-08-2003 23:25:01 17.5 C 88 % 15.49 C
1669 28-08-2003 23:37:01 17.6 C 88 % 15.59 C
1670 28-08-2003 23:49:01 17.4 C 87 % 15.21 C
1671 29-08-2003 00:01:01 17.5 C 88 % 15.49 C
1672 29-08-2003 00:13:01 17.3 C 87 % 15.12 C
1673 29-08-2003 00:25:01 17.5 C 88 % 15.49 C
1674 29-08-2003 00:37:01 17.3 C 89 % 15.47 C
1675 29-08-2003 00:49:01 17.2 C 90 % 15.55 C
Sensor: Nr:Datum:Temp:Feuchte:Taupunkt:
Aussen-T/F 1676 29-08-2003 01:01:01 17 C 90 % 15.35 C
1677 29-08-2003 01:13:01 17.1 C 92 % 15.79 C
1678 29-08-2003 01:25:01 17.1 C 92 % 15.79 C
1679 29-08-2003 01:37:01 17 C 92 % 15.69 C
1680 29-08-2003 01:49:01 17 C 93 % 15.86 C
1681 29-08-2003 02:01:01 17 C 93 % 15.86 C
1682 29-08-2003 02:13:01 17 C 93 % 15.86 C
1683 29-08-2003 02:25:01 17 C 93 % 15.86 C
1684 29-08-2003 02:37:01 17 C 93 % 15.86 C
1685 29-08-2003 02:49:01 16.8 C 94 % 15.83 C
1686 29-08-2003 03:01:01 16.8 C 94 % 15.83 C
1687 29-08-2003 03:13:01 16.8 C 94 % 15.83 C
1688 29-08-2003 03:25:01 16.8 C 94 % 15.83 C
1689 29-08-2003 03:37:01 16.7 C 94 % 15.73 C
1690 29-08-2003 03:49:01 16.7 C 94 % 15.73 C
1691 29-08-2003 04:01:01 16.8 C 94 % 15.83 C
1692 29-08-2003 04:13:01 16.6 C 94 % 15.63 C
1693 29-08-2003 04:25:01 16.7 C 94 % 15.73 C
1694 29-08-2003 04:37:01 16.7 C 94 % 15.73 C
1695 29-08-2003 04:49:01 16.6 C 94 % 15.63 C
1696 29-08-2003 05:01:01 16.6 C 94 % 15.63 C
1697 29-08-2003 05:13:01 16.4 C 94 % 15.43 C
1698 29-08-2003 05:25:01 16.2 C 94 % 15.23 C
1699 29-08-2003 05:37:01 16.2 C 94 % 15.23 C
1700 29-08-2003 05:49:01 16.3 C 94 % 15.33 C
Sensor: Nr:Datum:Temp:Feuchte:Taupunkt:
Aussen-T/F 1701 29-08-2003 06:01:01 16.5 C 94 % 15.53 C
1702 29-08-2003 06:13:01 16.7 C 94 % 15.73 C
1703 29-08-2003 06:25:01 16.7 C 95 % 15.9 C
1704 29-08-2003 06:37:01 16.7 C 95 % 15.9 C
1705 29-08-2003 06:49:01 16.8 C 95 % 15.99 C
1706 29-08-2003 07:01:01 16.9 C 95 % 16.09 C
1707 29-08-2003 07:13:01 16.9 C 94 % 15.93 C
1708 29-08-2003 07:25:01 17.1 C 94 % 16.13 C
1709 29-08-2003 07:37:01 17.2 C 94 % 16.23 C
1710 29-08-2003 07:49:01 17.5 C 93 % 16.36 C
1711 29-08-2003 08:01:01 17.9 C 92 % 16.58 C
1712 29-08-2003 08:13:01 18.3 C 87 % 16.1 C
1713 29-08-2003 08:25:01 18.7 C 84 % 15.94 C
1714 29-08-2003 08:37:01 19 C 84 % 16.24 C
1715 29-08-2003 08:49:01 19.3 C 85 % 16.72 C
1716 29-08-2003 09:01:01 19.4 C 83 % 16.44 C
1717 29-08-2003 09:13:01 19.7 C 83 % 16.73 C
1718 29-08-2003 09:25:01 19.7 C 83 % 16.73 C
1719 29-08-2003 09:37:01 19.8 C 79 % 16.05 C
1720 29-08-2003 09:49:01 20.1 C 77 % 15.94 C
1721 29-08-2003 10:01:01 20.4 C 74 % 15.61 C
1722 29-08-2003 10:13:01 20.1 C 75 % 15.53 C
1723 29-08-2003 10:25:01 19.9 C 76 % 15.54 C
1724 29-08-2003 10:37:01 19.7 C 77 % 15.56 C
1725 29-08-2003 10:49:01 18.9 C 83 % 15.95 C
Sensor: Nr:Datum:Temp:Feuchte:Taupunkt:
Aussen-T/F 1726 29-08-2003 11:01:01 18.7 C 87 % 16.49 C
1727 29-08-2003 11:13:00 19 C 87 % 16.79 C
1728 29-08-2003 11:25:00 19.2 C 86 % 16.8 C
1729 29-08-2003 11:37:01 19.5 C 84 % 16.72 C
1730 29-08-2003 11:49:01 19.4 C 82 % 16.25 C
1731 29-08-2003 12:01:01 19 C 83 % 16.05 C
1732 29-08-2003 12:13:02 18.9 C 85 % 16.32 C
1733 29-08-2003 12:25:02 19 C 83 % 16.05 C
1734 29-08-2003 12:37:01 18.6 C 82 % 15.47 C
1735 29-08-2003 12:49:01 17.8 C 85 % 15.25 C
1736 29-08-2003 13:01:01 17.2 C 88 % 15.2 C
1737 29-08-2003 13:13:02 17.5 C 88 % 15.49 C
1738 29-08-2003 13:25:02 19.5 C 86 % 17.1 C
1739 29-08-2003 13:37:01 20.4 C 77 % 16.23 C
1740 29-08-2003 13:49:01 20.5 C 74 % 15.71 C
1741 29-08-2003 14:01:01 20.9 C 72 % 15.66 C
1742 29-08-2003 14:13:02 19.4 C 75 % 14.86 C
1743 29-08-2003 14:25:02 18.5 C 76 % 14.19 C
1744 29-08-2003 14:37:01 18.6 C 77 % 14.49 C
1745 29-08-2003 14:49:01 19.4 C 71 % 14.01 C
1746 29-08-2003 15:01:01 20.2 C 67 % 13.88 C
1747 29-08-2003 15:13:01 20.6 C 65 % 13.79 C
1748 29-08-2003 15:25:01 21.1 C 63 % 13.79 C
1749 29-08-2003 15:37:01 21.6 C 58 % 12.99 C
1750 29-08-2003 15:49:01 21.5 C 57 % 12.63 C
Sensor: Nr:Datum:Temp:Feuchte:Taupunkt:
Aussen-T/F 1751 29-08-2003 16:01:01 21.3 C 55 % 11.9 C
1752 29-08-2003 16:13:01 21.1 C 56 % 11.99 C
1753 29-08-2003 16:25:01 21.8 C 54 % 12.08 C
1754 29-08-2003 16:37:00 22.2 C 51 % 11.59 C
1755 29-08-2003 16:49:00 22.1 C 52 % 11.79 C
1756 29-08-2003 17:01:00 21.2 C 57 % 12.35 C
1757 29-08-2003 17:13:01 19 C 66 % 12.51 C
1758 29-08-2003 17:25:01 17.7 C 70 % 12.16 C
1759 29-08-2003 17:37:22 15.8 C 84 % 13.1 C
1760 29-08-2003 17:49:02 15.5 C 89 % 13.7 C
1761 29-08-2003 18:01:02 15 C 89 % 13.2 C
1762 29-08-2003 18:13:01 14.9 C 90 % 13.28 C
1763 29-08-2003 18:25:01 14.7 C 89 % 12.91 C
1764 29-08-2003 18:37:01 14.5 C 90 % 12.88 C
1765 29-08-2003 18:49:01 14.4 C 89 % 12.61 C
1766 29-08-2003 19:01:01 14.7 C 88 % 12.73 C
1767 29-08-2003 19:13:54 14.7 C 86 % 12.38 C
1768 29-08-2003 19:25:02 14.7 C 86 % 12.38 C
1769 29-08-2003 19:37:01 14.6 C 86 % 12.29 C
1770 29-08-2003 19:49:01 14.6 C 85 % 12.11 C
1771 29-08-2003 20:01:01 14.6 C 86 % 12.29 C
1772 29-08-2003 20:13:01 14.5 C 85 % 12.01 C
1773 29-08-2003 20:25:01 14.5 C 85 % 12.01 C
1774 29-08-2003 20:37:01 14.4 C 86 % 12.09 C
1775 29-08-2003 20:49:01 14.5 C 85 % 12.01 C
Sensor: Nr:Datum:Temp:Feuchte:Taupunkt:
Aussen-T/F 1776 29-08-2003 21:01:01 14.5 C 84 % 11.83 C
1777 29-08-2003 21:13:01 14.5 C 84 % 11.83 C
1778 29-08-2003 21:25:01 14.5 C 84 % 11.83 C
1779 29-08-2003 21:37:02 14.4 C 86 % 12.09 C
1780 29-08-2003 21:49:02 14 C 88 % 12.05 C
1781 29-08-2003 22:01:02 13.9 C 89 % 12.12 C
1782 29-08-2003 22:14:05 13.9 C 89 % 12.12 C
1783 29-08-2003 22:26:05 14 C 88 % 12.05 C
1784 29-08-2003 22:38:05 14 C 88 % 12.05 C
1785 29-08-2003 22:50:05 14.3 C 88 % 12.34 C
1786 29-08-2003 23:02:05 13.9 C 89 % 12.12 C
1787 29-08-2003 23:14:05 14.1 C 88 % 12.14 C
1788 29-08-2003 23:26:05 14.2 C 85 % 11.72 C
1789 29-08-2003 23:38:05 14.2 C 84 % 11.54 C
1790 29-08-2003 23:50:05 14.2 C 84 % 11.54 C
1791 30-08-2003 00:02:05 14.2 C 84 % 11.54 C
1792 30-08-2003 00:14:05 14.2 C 84 % 11.54 C
1793 30-08-2003 00:26:05 14.2 C 83 % 11.36 C
1794 30-08-2003 00:38:05 14.2 C 82 % 11.17 C
1795 30-08-2003 00:50:05 14.2 C 82 % 11.17 C
1796 30-08-2003 01:02:05 14.3 C 84 % 11.64 C
1797 30-08-2003 01:14:05 14.3 C 83 % 11.45 C
1798 30-08-2003 01:26:05 14.3 C 83 % 11.45 C
1799 30-08-2003 01:38:05 13.8 C 84 % 11.15 C
1800 30-08-2003 01:50:05 13.5 C 85 % 11.03 C
Sensor: Nr:Datum:Temp:Feuchte:Taupunkt:
Aussen-T/F 1801 30-08-2003 02:02:05 13.5 C 86 % 11.21 C
1802 30-08-2003 02:14:05 13.4 C 86 % 11.11 C
1803 30-08-2003 02:26:05 13.5 C 86 % 11.21 C
1804 30-08-2003 02:38:05 13.7 C 86 % 11.4 C
1805 30-08-2003 02:50:05 13.7 C 86 % 11.4 C
1806 30-08-2003 03:02:05 13.6 C 86 % 11.3 C
1807 30-08-2003 03:14:05 13.6 C 86 % 11.3 C
1808 30-08-2003 03:26:05 13.6 C 85 % 11.13 C
1809 30-08-2003 03:38:05 13.6 C 84 % 10.95 C
1810 30-08-2003 03:50:05 13.7 C 83 % 10.87 C
1811 30-08-2003 04:02:05 13.6 C 84 % 10.95 C
1812 30-08-2003 04:14:05 13.6 C 84 % 10.95 C
1813 30-08-2003 04:26:05 13.6 C 84 % 10.95 C
1814 30-08-2003 04:38:05 13.7 C 84 % 11.05 C
1815 30-08-2003 04:50:05 13.7 C 84 % 11.05 C
1816 30-08-2003 05:02:05 13.7 C 83 % 10.87 C
1817 30-08-2003 05:14:05 13.7 C 84 % 11.05 C
1818 30-08-2003 05:26:05 13.6 C 85 % 11.13 C
1819 30-08-2003 05:38:05 13.6 C 86 % 11.3 C
1820 30-08-2003 05:50:05 13.6 C 86 % 11.3 C
1821 30-08-2003 06:02:05 13.5 C 87 % 11.38 C
1822 30-08-2003 06:14:05 13.4 C 87 % 11.28 C
1823 30-08-2003 06:26:05 13.4 C 88 % 11.45 C
1824 30-08-2003 06:38:05 13.2 C 88 % 11.26 C
1825 30-08-2003 06:50:05 13.2 C 89 % 11.43 C
Sensor: Nr:Datum:Temp:Feuchte:Taupunkt:
Aussen-T/F 1826 30-08-2003 07:02:05 13.2 C 90 % 11.6 C
1827 30-08-2003 07:14:05 13.2 C 90 % 11.6 C
1828 30-08-2003 07:26:05 13.2 C 91 % 11.76 C
1829 30-08-2003 07:38:05 13.3 C 91 % 11.86 C
1830 30-08-2003 07:50:05 13.2 C 91 % 11.76 C
1831 30-08-2003 08:02:05 13.3 C 92 % 12.03 C
1832 30-08-2003 08:14:05 13.3 C 92 % 12.03 C
1833 30-08-2003 08:26:05 13.4 C 92 % 12.13 C
1834 30-08-2003 08:38:05 13.4 C 92 % 12.13 C
1835 30-08-2003 08:50:05 13.6 C 93 % 12.49 C
1836 30-08-2003 09:02:05 13.6 C 93 % 12.49 C
1837 30-08-2003 09:14:05 13.7 C 93 % 12.59 C
1838 30-08-2003 09:26:05 13.6 C 93 % 12.49 C
1839 30-08-2003 09:38:01 13.6 C 93 % 12.49 C
1840 30-08-2003 09:50:01 13.6 C 93 % 12.49 C
1841 30-08-2003 10:02:02 13.6 C 93 % 12.49 C
1842 30-08-2003 10:14:02 13.7 C 93 % 12.59 C
1843 30-08-2003 10:26:02 13.9 C 93 % 12.79 C
1844 30-08-2003 10:38:00 14.3 C 93 % 13.18 C
1845 30-08-2003 10:50:00 14.2 C 92 % 12.92 C
1846 30-08-2003 11:02:00 14.4 C 89 % 12.61 C
1847 30-08-2003 11:14:00 14.6 C 87 % 12.46 C
1848 30-08-2003 11:26:00 15 C 83 % 12.14 C
1849 30-08-2003 11:38:01 15.3 C 80 % 11.87 C
1850 30-08-2003 11:50:01 15.1 C 79 % 11.49 C
Sensor: Nr:Datum:Temp:Feuchte:Taupunkt:
Aussen-T/F 1851 30-08-2003 12:02:01 15 C 78 % 11.2 C
1852 30-08-2003 12:14:01 14.5 C 82 % 11.47 C
1853 30-08-2003 12:26:01 13.8 C 80 % 10.41 C
1854 30-08-2003 12:38:00 13.7 C 82 % 10.69 C
1855 30-08-2003 12:50:00 14.1 C 84 % 11.44 C
1856 30-08-2003 13:02:01 14.4 C 80 % 11 C
1857 30-08-2003 13:14:01 15.2 C 81 % 11.96 C
1858 30-08-2003 13:26:01 16.9 C 73 % 12.03 C
1859 30-08-2003 13:38:01 17.9 C 70 % 12.35 C
1860 30-08-2003 13:50:01 19 C 64 % 12.04 C
1861 30-08-2003 14:02:01 18.9 C 64 % 11.95 C
1862 30-08-2003 14:14:01 19.6 C 62 % 12.13 C
1863 30-08-2003 14:26:01 19.5 C 58 % 11.02 C
1864 30-08-2003 14:38:01 19.9 C 57 % 11.14 C
1865 30-08-2003 14:50:01 19 C 55 % 9.76 C
1866 30-08-2003 15:02:08 18.6 C 61 % 10.94 C
1867 30-08-2003 15:14:08 18.1 C 65 % 11.42 C
1868 30-08-2003 15:26:08 18.5 C 64 % 11.57 C
1869 30-08-2003 15:38:01 18.7 C 64 % 11.76 C
1870 30-08-2003 15:50:01 20.4 C 57 % 11.6 C
1871 30-08-2003 16:02:00 21.5 C 53 % 11.52 C
1872 30-08-2003 16:14:00 22.5 C 43 % 9.31 C
1873 30-08-2003 16:26:00 21.9 C 45 % 9.44 C
1874 30-08-2003 16:38:02 21.2 C 48 % 9.76 C
1875 30-08-2003 16:50:02 20.4 C 53 % 10.51 C
Sensor: Nr:Datum:Temp:Feuchte:Taupunkt:
Aussen-T/F 1876 30-08-2003 17:02:58 19.5 C 56 % 10.5 C
1877 30-08-2003 17:14:58 18.9 C 58 % 10.46 C
1878 30-08-2003 17:26:02 17 C 72 % 11.92 C
1879 30-08-2003 17:38:44 15.7 C 84 % 13.01 C
1880 30-08-2003 17:50:44 15.2 C 87 % 13.05 C
1881 30-08-2003 18:02:37 15.1 C 89 % 13.3 C
1882 30-08-2003 18:14:01 15.4 C 89 % 13.6 C
1883 30-08-2003 18:26:01 15.6 C 89 % 13.79 C
1884 30-08-2003 18:38:01 15.6 C 86 % 13.27 C
1885 30-08-2003 18:50:01 15.3 C 86 % 12.97 C
1886 30-08-2003 19:02:01 15.3 C 86 % 12.97 C
1887 30-08-2003 19:14:01 15.3 C 83 % 12.43 C
1888 30-08-2003 19:26:01 14.9 C 84 % 12.22 C
1889 30-08-2003 19:38:01 14.5 C 86 % 12.19 C
1890 30-08-2003 19:50:01 14.5 C 88 % 12.54 C
1891 30-08-2003 20:02:00 14.5 C 88 % 12.54 C
1892 30-08-2003 20:14:00 14.5 C 88 % 12.54 C
1893 30-08-2003 20:26:00 14.5 C 87 % 12.36 C
1894 30-08-2003 20:38:00 14.3 C 86 % 11.99 C
1895 30-08-2003 20:50:00 14.1 C 87 % 11.97 C
1896 30-08-2003 21:02:01 13.9 C 88 % 11.95 C
1897 30-08-2003 21:14:01 13.9 C 89 % 12.12 C
1898 30-08-2003 21:26:01 14 C 88 % 12.05 C
1899 30-08-2003 21:39:03 13.8 C 89 % 12.02 C
1900 30-08-2003 21:51:03 13.7 C 88 % 11.75 C
Sensor: Nr:Datum:Temp:Feuchte:Taupunkt:
Aussen-T/F 1901 30-08-2003 22:03:03 13.6 C 88 % 11.65 C
1902 30-08-2003 22:15:03 13.4 C 88 % 11.45 C
1903 30-08-2003 22:27:03 13.5 C 89 % 11.72 C
1904 30-08-2003 22:39:03 13.5 C 88 % 11.55 C
1905 30-08-2003 22:51:03 13.5 C 87 % 11.38 C
1906 30-08-2003 23:03:03 13.4 C 87 % 11.28 C
1907 30-08-2003 23:15:03 13.1 C 87 % 10.99 C
1908 30-08-2003 23:27:03 13.2 C 85 % 10.74 C
1909 30-08-2003 23:39:03 13.2 C 85 % 10.74 C
1910 30-08-2003 23:51:03 13 C 86 % 10.72 C
1911 31-08-2003 00:03:03 13 C 84 % 10.36 C
1912 31-08-2003 00:15:03 12.7 C 87 % 10.59 C
1913 31-08-2003 00:27:03 12.6 C 87 % 10.5 C
1914 31-08-2003 00:39:03 12.5 C 87 % 10.4 C
1915 31-08-2003 00:51:03 12.4 C 88 % 10.47 C
1916 31-08-2003 01:03:03 12.2 C 88 % 10.27 C
1917 31-08-2003 01:15:03 12.1 C 89 % 10.34 C
1918 31-08-2003 01:27:03 11.9 C 89 % 10.15 C
1919 31-08-2003 01:39:03 11.7 C 90 % 10.12 C
1920 31-08-2003 01:51:03 11.5 C 90 % 9.92 C
1921 31-08-2003 02:03:03 11.4 C 90 % 9.82 C
1922 31-08-2003 02:15:03 11.2 C 90 % 9.62 C
1923 31-08-2003 02:27:03 11.1 C 91 % 9.69 C
1924 31-08-2003 02:39:03 11 C 91 % 9.59 C
1925 31-08-2003 02:51:03 10.9 C 92 % 9.65 C
Sensor: Nr:Datum:Temp:Feuchte:Taupunkt:
Aussen-T/F 1926 31-08-2003 03:03:03 10.8 C 91 % 9.39 C
1927 31-08-2003 03:15:03 10.8 C 92 % 9.55 C
1928 31-08-2003 03:27:03 10.9 C 92 % 9.65 C
1929 31-08-2003 03:39:03 10.9 C 92 % 9.65 C
1930 31-08-2003 03:51:03 11 C 92 % 9.75 C
1931 31-08-2003 04:03:03 10.9 C 92 % 9.65 C
1932 31-08-2003 04:15:03 10.8 C 92 % 9.55 C
1933 31-08-2003 04:27:03 11 C 90 % 9.42 C
1934 31-08-2003 04:39:03 10.8 C 90 % 9.23 C
1935 31-08-2003 04:51:03 10.6 C 90 % 9.03 C
1936 31-08-2003 05:03:03 10.6 C 91 % 9.19 C
1937 31-08-2003 05:15:03 10.8 C 91 % 9.39 C
1938 31-08-2003 05:27:03 10.7 C 90 % 9.13 C
1939 31-08-2003 05:39:03 10.8 C 90 % 9.23 C
1940 31-08-2003 05:51:03 11 C 89 % 9.26 C
1941 31-08-2003 06:03:03 11 C 89 % 9.26 C
1942 31-08-2003 06:15:03 10.8 C 89 % 9.06 C
1943 31-08-2003 06:27:03 10.4 C 89 % 8.67 C
1944 31-08-2003 06:39:03 10.4 C 89 % 8.67 C
1945 31-08-2003 06:51:03 10.5 C 90 % 8.93 C
1946 31-08-2003 07:03:03 10.6 C 89 % 8.86 C
1947 31-08-2003 07:15:03 10.7 C 88 % 8.8 C
1948 31-08-2003 07:27:03 10.8 C 88 % 8.89 C
1949 31-08-2003 07:39:03 11.1 C 86 % 8.85 C
1950 31-08-2003 07:51:03 11.3 C 84 % 8.7 C
Sensor: Nr:Datum:Temp:Feuchte:Taupunkt:
Aussen-T/F 1951 31-08-2003 08:03:03 11.3 C 84 % 8.7 C
1952 31-08-2003 08:15:03 11.4 C 84 % 8.8 C
1953 31-08-2003 08:27:03 11.7 C 83 % 8.91 C
1954 31-08-2003 08:39:03 12 C 80 % 8.66 C
1955 31-08-2003 08:51:03 12 C 81 % 8.84 C
1956 31-08-2003 09:03:03 12 C 81 % 8.84 C
1957 31-08-2003 09:15:03 12.1 C 81 % 8.94 C
1958 31-08-2003 09:27:03 12.2 C 79 % 8.67 C
1959 31-08-2003 09:39:03 12.6 C 78 % 8.87 C
1960 31-08-2003 09:51:03 13.1 C 76 % 8.97 C
1961 31-08-2003 10:03:03 13.8 C 73 % 9.05 C
1962 31-08-2003 10:15:03 14.2 C 72 % 9.23 C
1963 31-08-2003 10:27:03 14.6 C 69 % 8.98 C
1964 31-08-2003 10:39:03 14.9 C 67 % 8.83 C
1965 31-08-2003 10:51:03 15.4 C 64 % 8.63 C
1966 31-08-2003 11:03:03 15.2 C 64 % 8.44 C
1967 31-08-2003 11:15:03 15.1 C 64 % 8.35 C
1968 31-08-2003 11:27:03 15.7 C 60 % 7.97 C
1969 31-08-2003 11:39:00 15.4 C 62 % 8.16 C
1970 31-08-2003 11:51:00 15.1 C 63 % 8.12 C
1971 31-08-2003 12:03:01 15.5 C 63 % 8.49 C
1972 31-08-2003 12:15:01 15.9 C 61 % 8.4 C
1973 31-08-2003 12:27:01 15.7 C 61 % 8.21 C
1974 31-08-2003 12:39:01 16.2 C 58 % 7.94 C
1975 31-08-2003 12:51:01 16.4 C 57 % 7.87 C
Sensor: Nr:Datum:Temp:Feuchte:Taupunkt:
Aussen-T/F 1976 31-08-2003 13:03:01 16.4 C 57 % 7.87 C
1977 31-08-2003 13:15:01 17 C 55 % 7.9 C
1978 31-08-2003 13:27:01 18 C 50 % 7.43 C
1979 31-08-2003 13:39:02 14.5 C 65 % 8.01 C
1980 31-08-2003 13:51:02 13.6 C 83 % 10.77 C
1981 31-08-2003 14:03:02 13.7 C 87 % 11.58 C
1982 31-08-2003 14:15:02 15.4 C 78 % 11.59 C
1983 31-08-2003 14:27:02 16.9 C 69 % 11.18 C
1984 31-08-2003 14:39:01 18.3 C 68 % 12.3 C
1985 31-08-2003 14:51:01 19.7 C 61 % 11.97 C
1986 31-08-2003 15:03:02 18.8 C 59 % 10.63 C
1987 31-08-2003 15:15:02 15.7 C 65 % 9.15 C
1988 31-08-2003 15:27:02 15.1 C 73 % 10.3 C
1989 31-08-2003 15:39:00 15.9 C 66 % 9.56 C
1990 31-08-2003 15:51:00 17.2 C 61 % 9.62 C
1991 31-08-2003 16:03:01 18.7 C 57 % 10.02 C
1992 31-08-2003 16:15:01 18.7 C 59 % 10.53 C
1993 31-08-2003 16:27:01 17.9 C 60 % 10.03 C
1994 31-08-2003 16:39:02 18 C 48 % 6.84 C
1995 31-08-2003 16:51:02 19.1 C 43 % 6.24 C
1996 31-08-2003 17:03:02 19.9 C 38 % 5.18 C
1997 31-08-2003 17:15:02 20.3 C 37 % 5.15 C
1998 31-08-2003 17:27:02 21.6 C 35 % 5.5 C
1999 31-08-2003 17:39:02 20 C 38 % 5.26 C
2000 31-08-2003 17:51:02 19.3 C 42 % 6.08 C
Sensor: Nr:Datum:Temp:Feuchte:Taupunkt:
Aussen-T/F 2001 31-08-2003 18:03:01 18.3 C 46 % 6.49 C
2002 31-08-2003 18:15:01 18.2 C 48 % 7.02 C
2003 31-08-2003 18:27:01 17.8 C 50 % 7.25 C
2004 31-08-2003 18:39:02 18.2 C 49 % 7.32 C
2005 31-08-2003 18:51:02 18.3 C 45 % 6.17 C
2006 31-08-2003 19:03:01 17.5 C 47 % 6.07 C
2007 31-08-2003 19:15:01 17.3 C 49 % 6.5 C
2008 31-08-2003 19:27:01 17.6 C 49 % 6.77 C
2009 31-08-2003 19:39:02 17 C 51 % 6.8 C
2010 31-08-2003 19:51:02 16.6 C 51 % 6.43 C
2011 31-08-2003 20:03:02 16.4 C 55 % 7.35 C
2012 31-08-2003 20:15:02 16 C 54 % 6.71 C
2013 31-08-2003 20:27:02 15.4 C 55 % 6.42 C
2014 31-08-2003 20:39:01 14.9 C 61 % 7.45 C
2015 31-08-2003 20:51:01 14.6 C 62 % 7.41 C
2016 31-08-2003 21:04:00 14.6 C 63 % 7.64 C
2017 31-08-2003 21:16:00 14.4 C 65 % 7.91 C
2018 31-08-2003 21:28:00 14.3 C 65 % 7.82 C
2019 31-08-2003 21:40:00 14.2 C 67 % 8.17 C
2020 31-08-2003 21:52:00 14.1 C 66 % 7.85 C
2021 31-08-2003 22:04:00 14.1 C 68 % 8.29 C
2022 31-08-2003 22:16:00 14.2 C 66 % 7.95 C
2023 31-08-2003 22:28:00 14.2 C 62 % 7.03 C
2024 31-08-2003 22:40:00 14.1 C 65 % 7.63 C
2025 31-08-2003 22:52:00 13.8 C 65 % 7.34 C
Sensor: Nr:Datum:Temp:Feuchte:Taupunkt:
Aussen-T/F 2026 31-08-2003 23:04:00 13.7 C 65 % 7.25 C
2027 31-08-2003 23:16:00 13.5 C 68 % 7.72 C
2028 31-08-2003 23:28:00 13.1 C 70 % 7.76 C
2029 31-08-2003 23:40:00 12.6 C 71 % 7.49 C
2030 31-08-2003 23:52:00 12.2 C 72 % 7.31 C
2031 01-09-2003 00:04:00 12 C 73 % 7.32 C
2032 01-09-2003 00:16:00 11.8 C 77 % 7.9 C
2033 01-09-2003 00:28:00 11.8 C 79 % 8.28 C
2034 01-09-2003 00:40:00 11.5 C 80 % 8.17 C
2035 01-09-2003 00:52:00 11.3 C 82 % 8.34 C
2036 01-09-2003 01:04:00 11.1 C 83 % 8.33 C
2037 01-09-2003 01:16:00 10.9 C 84 % 8.31 C
2038 01-09-2003 01:28:00 10.8 C 84 % 8.21 C
2039 01-09-2003 01:40:00 10.7 C 84 % 8.11 C
2040 01-09-2003 01:52:00 10.5 C 84 % 7.91 C
2041 01-09-2003 02:04:00 10.5 C 84 % 7.91 C
2042 01-09-2003 02:16:00 10.4 C 85 % 7.99 C
2043 01-09-2003 02:28:00 10.4 C 86 % 8.16 C
2044 01-09-2003 02:40:00 10.4 C 85 % 7.99 C
2045 01-09-2003 02:52:00 10.5 C 85 % 8.09 C
2046 01-09-2003 03:04:00 10.3 C 86 % 8.06 C
2047 01-09-2003 03:16:00 10.2 C 87 % 8.14 C
2048 01-09-2003 03:28:00 10.2 C 87 % 8.14 C
2049 01-09-2003 03:40:00 10.2 C 87 % 8.14 C
2050 01-09-2003 03:52:00 10.3 C 87 % 8.23 C
Sensor: Nr:Datum:Temp:Feuchte:Taupunkt:
Aussen-T/F 2051 01-09-2003 04:04:00 10.3 C 86 % 8.06 C
2052 01-09-2003 04:16:00 10.4 C 86 % 8.16 C
2053 01-09-2003 04:28:00 10.4 C 86 % 8.16 C
2054 01-09-2003 04:40:00 10.4 C 86 % 8.16 C
2055 01-09-2003 04:52:00 10.4 C 86 % 8.16 C
2056 01-09-2003 05:04:00 10.4 C 86 % 8.16 C
2057 01-09-2003 05:16:00 10.3 C 86 % 8.06 C
2058 01-09-2003 05:28:00 10.2 C 86 % 7.97 C
2059 01-09-2003 05:40:00 10.2 C 86 % 7.97 C
2060 01-09-2003 05:52:00 10.2 C 86 % 7.97 C
2061 01-09-2003 06:04:00 10.2 C 86 % 7.97 C
2062 01-09-2003 06:16:00 10.1 C 87 % 8.04 C
2063 01-09-2003 06:28:00 10 C 86 % 7.77 C
2064 01-09-2003 06:40:00 9.7 C 89 % 7.98 C
2065 01-09-2003 06:52:00 9.5 C 89 % 7.78 C
2066 01-09-2003 07:04:00 9.3 C 89 % 7.58 C
2067 01-09-2003 07:16:00 9.3 C 89 % 7.58 C
2068 01-09-2003 07:28:00 9.3 C 90 % 7.75 C
2069 01-09-2003 07:40:00 9.5 C 90 % 7.94 C
2070 01-09-2003 07:52:00 9.6 C 90 % 8.04 C
2071 01-09-2003 08:04:00 9.7 C 90 % 8.14 C
2072 01-09-2003 08:16:00 9.6 C 90 % 8.04 C
2073 01-09-2003 08:28:00 9.7 C 90 % 8.14 C
2074 01-09-2003 08:40:00 10 C 88 % 8.11 C
2075 01-09-2003 08:52:00 10.4 C 87 % 8.33 C
Sensor: Nr:Datum:Temp:Feuchte:Taupunkt:
Aussen-T/F 2076 01-09-2003 09:04:00 10.9 C 84 % 8.31 C
2077 01-09-2003 09:16:00 11.3 C 83 % 8.52 C
2078 01-09-2003 09:28:00 11.5 C 81 % 8.36 C
2079 01-09-2003 09:40:00 11.8 C 80 % 8.47 C
2080 01-09-2003 09:52:00 12 C 79 % 8.48 C
2081 01-09-2003 10:04:01 12.4 C 77 % 8.49 C
2082 01-09-2003 10:16:01 12.9 C 76 % 8.78 C
2083 01-09-2003 10:28:01 13.1 C 71 % 7.97 C
2084 01-09-2003 10:40:01 13.3 C 69 % 7.74 C
2085 01-09-2003 10:52:01 13.5 C 68 % 7.72 C
2086 01-09-2003 11:04:02 13.9 C 66 % 7.66 C
2087 01-09-2003 11:16:02 14.1 C 65 % 7.63 C
2088 01-09-2003 11:28:02 13.9 C 66 % 7.66 C
2089 01-09-2003 11:40:01 14.3 C 64 % 7.59 C
2090 01-09-2003 11:52:01 15.3 C 57 % 6.84 C
2091 01-09-2003 12:04:02 15.8 C 56 % 7.05 C
2092 01-09-2003 12:16:02 17 C 51 % 6.8 C
2093 01-09-2003 12:28:02 16.5 C 52 % 6.62 C
2094 01-09-2003 12:40:01 16.1 C 54 % 6.8 C
2095 01-09-2003 12:52:01 15.8 C 55 % 6.79 C
2096 01-09-2003 13:04:01 15.8 C 55 % 6.79 C
2097 01-09-2003 13:16:01 15.8 C 52 % 5.97 C
2098 01-09-2003 13:28:01 16.4 C 48 % 5.37 C
2099 01-09-2003 13:40:01 16.8 C 44 % 4.49 C
2100 01-09-2003 13:52:01 17.7 C 42 % 4.64 C
Sensor: Nr:Datum:Temp:Feuchte:Taupunkt:
Aussen-T/F 2101 01-09-2003 14:04:01 17.8 C 42 % 4.73 C
2102 01-09-2003 14:16:01 18.3 C 42 % 5.18 C
2103 01-09-2003 14:28:01 18.1 C 41 % 4.66 C
2104 01-09-2003 14:40:01 18 C 43 % 5.25 C
2105 01-09-2003 14:52:01 17.8 C 46 % 6.04 C
2106 01-09-2003 15:04:01 17.5 C 45 % 5.45 C
2107 01-09-2003 15:16:01 19.1 C 40 % 5.2 C
2108 01-09-2003 15:28:01 19.1 C 40 % 5.2 C
2109 01-09-2003 15:40:02 18.8 C 43 % 5.97 C
2110 01-09-2003 15:52:02 18.5 C 42 % 5.36 C
2111 01-09-2003 16:04:01 18.4 C 43 % 5.61 C
2112 01-09-2003 16:16:01 19.6 C 40 % 5.64 C
2113 01-09-2003 16:28:01 20.5 C 35 % 4.53 C
2114 01-09-2003 16:40:01 19.8 C 39 % 5.46 C
2115 01-09-2003 16:52:01 18.9 C 45 % 6.72 C
2116 01-09-2003 17:04:01 18.2 C 43 % 5.43 C
2117 01-09-2003 17:16:01 18 C 44 % 5.58 C
2118 01-09-2003 17:28:01 17.9 C 45 % 5.81 C
2119 01-09-2003 17:40:01 17.5 C 46 % 5.76 C
2120 01-09-2003 17:52:01 16.4 C 56 % 7.61 C
2121 01-09-2003 18:04:00 14.4 C 68 % 8.58 C
2122 01-09-2003 18:16:00 14.6 C 72 % 9.61 C
2123 01-09-2003 18:28:00 15.2 C 68 % 9.34 C
2124 01-09-2003 18:40:02 15.6 C 64 % 8.82 C
2125 01-09-2003 18:52:02 15.2 C 60 % 7.5 C
Sensor: Nr:Datum:Temp:Feuchte:Taupunkt:
Aussen-T/F 2126 01-09-2003 19:04:01 14.7 C 64 % 7.97 C
2127 01-09-2003 19:16:01 14.5 C 65 % 8.01 C
2128 01-09-2003 19:28:01 13.8 C 70 % 8.43 C
2129 01-09-2003 19:40:01 13.5 C 72 % 8.56 C
2130 01-09-2003 19:52:01 13.5 C 71 % 8.35 C
2131 01-09-2003 20:04:01 13.4 C 71 % 8.26 C
2132 01-09-2003 20:16:01 13.2 C 71 % 8.06 C
2133 01-09-2003 20:28:01 12.9 C 73 % 8.18 C
2134 01-09-2003 20:41:04 12.5 C 74 % 8 C
2135 01-09-2003 20:53:04 12.2 C 75 % 7.91 C
2136 01-09-2003 21:05:04 12.3 C 74 % 7.8 C
2137 01-09-2003 21:17:04 12.3 C 73 % 7.61 C
2138 01-09-2003 21:29:04 12.1 C 74 % 7.61 C
2139 01-09-2003 21:41:04 11.8 C 76 % 7.71 C
2140 01-09-2003 21:53:04 11.6 C 76 % 7.52 C
2141 01-09-2003 22:05:04 11.7 C 77 % 7.81 C
2142 01-09-2003 22:17:04 12 C 75 % 7.71 C
2143 01-09-2003 22:29:04 12.4 C 75 % 8.1 C
2144 01-09-2003 22:41:04 12 C 80 % 8.66 C
2145 01-09-2003 22:53:04 11.6 C 84 % 8.99 C
2146 01-09-2003 23:05:04 11.3 C 86 % 9.05 C
2147 01-09-2003 23:17:04 11 C 87 % 8.92 C
2148 01-09-2003 23:29:04 10.6 C 88 % 8.7 C
2149 01-09-2003 23:41:04 10.5 C 89 % 8.77 C
2150 01-09-2003 23:53:04 10.3 C 90 % 8.73 C
Sensor: Nr:Datum:Temp:Feuchte:Taupunkt:
Aussen-T/F 2151 02-09-2003 00:05:04 10.2 C 90 % 8.64 C
2152 02-09-2003 00:17:04 10.1 C 90 % 8.54 C
2153 02-09-2003 00:29:04 9.9 C 92 % 8.66 C
2154 02-09-2003 00:41:04 10 C 91 % 8.6 C
2155 02-09-2003 00:53:04 10 C 91 % 8.6 C
2156 02-09-2003 01:05:04 9.8 C 92 % 8.56 C
2157 02-09-2003 01:17:04 9.9 C 92 % 8.66 C
2158 02-09-2003 01:29:04 9.7 C 92 % 8.46 C
2159 02-09-2003 01:41:04 9.4 C 91 % 8.01 C
2160 02-09-2003 01:53:04 9.3 C 91 % 7.91 C
2161 02-09-2003 02:05:04 9.2 C 91 % 7.81 C
2162 02-09-2003 02:17:04 9.1 C 91 % 7.71 C
2163 02-09-2003 02:29:04 9.1 C 92 % 7.87 C
2164 02-09-2003 02:41:04 9 C 92 % 7.77 C
2165 02-09-2003 02:53:04 9 C 92 % 7.77 C
2166 02-09-2003 03:05:04 9 C 92 % 7.77 C
2167 02-09-2003 03:17:04 9 C 93 % 7.93 C
2168 02-09-2003 03:29:04 9.1 C 93 % 8.03 C
2169 02-09-2003 03:41:04 9.1 C 93 % 8.03 C
2170 02-09-2003 03:53:04 9.1 C 93 % 8.03 C
2171 02-09-2003 04:05:04 9 C 93 % 7.93 C
2172 02-09-2003 04:17:04 9.1 C 93 % 8.03 C
2173 02-09-2003 04:29:04 9.1 C 93 % 8.03 C
2174 02-09-2003 04:41:04 9.2 C 93 % 8.13 C
2175 02-09-2003 04:53:04 9.2 C 93 % 8.13 C
Sensor: Nr:Datum:Temp:Feuchte:Taupunkt:
Aussen-T/F 2176 02-09-2003 05:05:04 9.2 C 93 % 8.13 C
2177 02-09-2003 05:17:04 9 C 92 % 7.77 C
2178 02-09-2003 05:29:04 9.1 C 92 % 7.87 C
2179 02-09-2003 05:41:04 9 C 92 % 7.77 C
2180 02-09-2003 05:53:04 8.9 C 93 % 7.83 C
2181 02-09-2003 06:05:04 8.8 C 93 % 7.73 C
2182 02-09-2003 06:17:04 8.7 C 93 % 7.63 C
2183 02-09-2003 06:29:04 8.7 C 93 % 7.63 C
2184 02-09-2003 06:41:04 8.5 C 93 % 7.43 C
2185 02-09-2003 06:53:04 8.6 C 93 % 7.53 C
2186 02-09-2003 07:05:04 8.6 C 93 % 7.53 C
2187 02-09-2003 07:17:04 8.5 C 93 % 7.43 C
2188 02-09-2003 07:29:04 8.6 C 93 % 7.53 C
2189 02-09-2003 07:41:04 9 C 92 % 7.77 C
2190 02-09-2003 07:53:04 9.2 C 92 % 7.97 C
2191 02-09-2003 08:05:04 9.3 C 92 % 8.07 C
2192 02-09-2003 08:17:04 9.3 C 91 % 7.91 C
2193 02-09-2003 08:29:04 9.4 C 91 % 8.01 C
2194 02-09-2003 08:41:04 9.8 C 93 % 8.72 C
2195 02-09-2003 08:53:04 10.3 C 91 % 8.9 C
2196 02-09-2003 09:05:04 10.5 C 91 % 9.09 C
2197 02-09-2003 09:17:04 11.4 C 91 % 9.98 C
2198 02-09-2003 09:29:04 11.9 C 90 % 10.31 C
2199 02-09-2003 09:41:01 12 C 87 % 9.91 C
2200 02-09-2003 09:53:01 12.5 C 85 % 10.05 C
Sensor: Nr:Datum:Temp:Feuchte:Taupunkt:
Aussen-T/F 2201 02-09-2003 10:05:00 12.7 C 81 % 9.53 C
2202 02-09-2003 10:17:00 13 C 79 % 9.45 C
2203 02-09-2003 10:29:00 13.1 C 78 % 9.36 C
2204 02-09-2003 10:41:01 13.6 C 73 % 8.86 C
2205 02-09-2003 10:53:01 13.8 C 74 % 9.25 C
2206 02-09-2003 11:05:01 14.8 C 72 % 9.81 C
2207 02-09-2003 11:17:01 15.4 C 67 % 9.31 C
2208 02-09-2003 11:29:01 15.5 C 66 % 9.18 C
2209 02-09-2003 11:41:01 16.2 C 62 % 8.92 C
2210 02-09-2003 11:53:01 16 C 61 % 8.49 C
2211 02-09-2003 12:05:01 16 C 64 % 9.2 C
2212 02-09-2003 12:17:01 17.4 C 58 % 9.06 C
2213 02-09-2003 12:29:01 18.3 C 53 % 8.56 C
2214 02-09-2003 12:41:01 17.7 C 53 % 8.01 C
2215 02-09-2003 12:53:01 16.8 C 56 % 7.98 C
2216 02-09-2003 13:05:01 17.1 C 56 % 8.26 C
2217 02-09-2003 13:17:01 17.6 C 55 % 8.46 C
2218 02-09-2003 13:29:01 18.6 C 47 % 7.08 C
2219 02-09-2003 13:41:02 19.9 C 43 % 6.96 C
2220 02-09-2003 13:53:02 19.2 C 44 % 6.66 C
2221 02-09-2003 14:05:02 19.5 C 42 % 6.26 C
2222 02-09-2003 14:17:02 20.7 C 40 % 6.63 C
2223 02-09-2003 14:29:02 21.2 C 40 % 7.08 C
2224 02-09-2003 14:41:02 19.9 C 39 % 5.55 C
2225 02-09-2003 14:53:02 20.5 C 36 % 4.93 C
Sensor: Nr:Datum:Temp:Feuchte:Taupunkt:
Aussen-T/F 2226 02-09-2003 15:05:02 20.6 C 34 % 4.2 C
2227 02-09-2003 15:17:02 22.4 C 31 % 4.46 C
2228 02-09-2003 15:29:02 20.7 C 32 % 3.43 C
2229 02-09-2003 15:41:02 21.5 C 33 % 4.57 C
2230 02-09-2003 15:53:02 21.9 C 28 % 2.59 C
2231 02-09-2003 16:05:07 21.8 C 28 % 2.5 C
2232 02-09-2003 16:17:07 22.2 C 26 % 1.8 C
2233 02-09-2003 16:29:07 22.1 C 27 % 2.25 C
2234 02-09-2003 16:41:02 22.9 C 27 % 2.93 C
2235 02-09-2003 16:53:02 22 C 27 % 2.16 C
2236 02-09-2003 17:05:01 22.1 C 27 % 2.25 C
2237 02-09-2003 17:17:01 22.2 C 27 % 2.33 C
2238 02-09-2003 17:29:01 22.4 C 27 % 2.5 C
2239 02-09-2003 17:41:01 23 C 25 % 1.93 C
2240 02-09-2003 17:53:01 22.5 C 25 % 1.51 C
2241 02-09-2003 18:05:01 21.5 C 32 % 4.13 C
2242 02-09-2003 18:17:01 20.4 C 37 % 5.24 C
2243 02-09-2003 18:29:01 21.7 C 32 % 4.3 C
2244 02-09-2003 18:41:01 22.3 C 27 % 2.42 C
2245 02-09-2003 18:53:01 21.2 C 31 % 3.42 C
2246 02-09-2003 19:05:02 20.3 C 35 % 4.35 C
2247 02-09-2003 19:17:02 19.4 C 38 % 4.73 C
2248 02-09-2003 19:29:02 18.6 C 43 % 5.79 C
2249 02-09-2003 19:41:02 18.3 C 44 % 5.85 C
2250 02-09-2003 19:53:02 17.8 C 46 % 6.04 C
Sensor: Nr:Datum:Temp:Feuchte:Taupunkt:
Aussen-T/F 2251 02-09-2003 20:05:02 16.9 C 47 % 5.53 C
2252 02-09-2003 20:17:02 15.8 C 50 % 5.41 C
2253 02-09-2003 20:29:02 15.2 C 51 % 5.14 C
2254 02-09-2003 20:41:01 14.7 C 54 % 5.5 C
2255 02-09-2003 20:53:01 14.4 C 54 % 5.22 C
2256 02-09-2003 21:06:02 14.2 C 55 % 5.3 C
2257 02-09-2003 21:18:02 14 C 56 % 5.37 C
2258 02-09-2003 21:30:02 13.7 C 59 % 5.84 C
2259 02-09-2003 21:42:02 13.4 C 59 % 5.56 C
2260 02-09-2003 21:54:02 13.2 C 60 % 5.61 C
2261 02-09-2003 22:06:02 13.1 C 61 % 5.76 C
2262 02-09-2003 22:18:02 12.8 C 64 % 6.17 C
2263 02-09-2003 22:30:02 12.7 C 63 % 5.85 C
2264 02-09-2003 22:42:02 12.5 C 64 % 5.88 C
2265 02-09-2003 22:54:02 12.4 C 65 % 6.01 C
2266 02-09-2003 23:06:02 12.2 C 66 % 6.04 C
2267 02-09-2003 23:18:02 11.8 C 68 % 6.09 C
2268 02-09-2003 23:30:02 11.7 C 68 % 6 C
2269 02-09-2003 23:42:02 11.4 C 70 % 6.13 C
2270 02-09-2003 23:54:02 11.2 C 70 % 5.94 C
2271 03-09-2003 00:06:02 11 C 71 % 5.95 C
2272 03-09-2003 00:18:02 10.9 C 71 % 5.86 C
2273 03-09-2003 00:30:02 10.7 C 71 % 5.66 C
2274 03-09-2003 00:42:02 10.6 C 72 % 5.77 C
2275 03-09-2003 00:54:02 10.3 C 70 % 5.08 C
Sensor: Nr:Datum:Temp:Feuchte:Taupunkt:
Aussen-T/F 2276 03-09-2003 01:06:02 10.2 C 71 % 5.18 C
2277 03-09-2003 01:18:02 9.9 C 73 % 5.29 C
2278 03-09-2003 01:30:02 9.8 C 74 % 5.39 C
2279 03-09-2003 01:42:02 9.5 C 75 % 5.3 C
2280 03-09-2003 01:54:02 9.5 C 76 % 5.49 C
2281 03-09-2003 02:06:02 9.4 C 78 % 5.76 C
2282 03-09-2003 02:18:02 9.2 C 78 % 5.57 C
2283 03-09-2003 02:30:02 9 C 80 % 5.74 C
2284 03-09-2003 02:42:02 8.7 C 82 % 5.8 C
2285 03-09-2003 02:54:02 8.7 C 82 % 5.8 C
2286 03-09-2003 03:06:02 8.7 C 82 % 5.8 C
2287 03-09-2003 03:18:02 8.4 C 82 % 5.51 C
2288 03-09-2003 03:30:02 8.2 C 82 % 5.32 C
2289 03-09-2003 03:42:02 8.1 C 82 % 5.22 C
2290 03-09-2003 03:54:02 8 C 83 % 5.29 C
2291 03-09-2003 04:06:02 7.9 C 85 % 5.54 C
2292 03-09-2003 04:18:02 7.8 C 86 % 5.61 C
2293 03-09-2003 04:30:02 7.8 C 86 % 5.61 C
2294 03-09-2003 04:42:02 7.6 C 87 % 5.58 C
2295 03-09-2003 04:54:02 7.5 C 87 % 5.48 C
2296 03-09-2003 05:06:02 7.4 C 87 % 5.38 C
2297 03-09-2003 05:18:02 7.3 C 87 % 5.28 C
2298 03-09-2003 05:30:02 7.2 C 87 % 5.19 C
2299 03-09-2003 05:42:02 7 C 87 % 4.99 C
2300 03-09-2003 05:54:02 7 C 87 % 4.99 C
Sensor: Nr:Datum:Temp:Feuchte:Taupunkt:
Aussen-T/F 2301 03-09-2003 06:06:02 6.9 C 88 % 5.05 C
2302 03-09-2003 06:18:02 6.9 C 89 % 5.22 C
2303 03-09-2003 06:30:02 6.6 C 90 % 5.08 C
2304 03-09-2003 06:42:02 6.5 C 90 % 4.98 C
2305 03-09-2003 06:54:02 6.5 C 91 % 5.14 C
2306 03-09-2003 07:06:02 6.5 C 92 % 5.3 C
2307 03-09-2003 07:18:02 6.6 C 92 % 5.4 C
2308 03-09-2003 07:30:02 6.8 C 92 % 5.59 C
2309 03-09-2003 07:42:02 6.9 C 91 % 5.54 C
2310 03-09-2003 07:54:02 7.1 C 89 % 5.41 C
2311 03-09-2003 08:06:02 7.1 C 89 % 5.41 C
2312 03-09-2003 08:18:02 7.2 C 89 % 5.51 C
2313 03-09-2003 08:30:02 7.1 C 89 % 5.41 C
2314 03-09-2003 08:42:02 7.1 C 89 % 5.41 C
2315 03-09-2003 08:54:02 7.2 C 90 % 5.67 C
2316 03-09-2003 09:06:01 7.4 C 90 % 5.87 C
2317 03-09-2003 09:18:01 7.7 C 90 % 6.17 C
2318 03-09-2003 09:30:01 8 C 88 % 6.14 C
2319 03-09-2003 09:42:02 8.5 C 87 % 6.46 C
2320 03-09-2003 09:54:02 9.2 C 86 % 6.98 C
2321 03-09-2003 10:06:02 9.7 C 82 % 6.78 C
2322 03-09-2003 10:18:02 10.5 C 80 % 7.2 C
2323 03-09-2003 10:30:02 11.2 C 75 % 6.94 C
2324 03-09-2003 10:42:01 11.9 C 71 % 6.82 C
2325 03-09-2003 10:54:01 12.3 C 71 % 7.2 C
Sensor: Nr:Datum:Temp:Feuchte:Taupunkt:
Aussen-T/F 2326 03-09-2003 11:06:01 13.1 C 68 % 7.34 C
2327 03-09-2003 11:18:01 13.9 C 67 % 7.88 C
2328 03-09-2003 11:30:01 14.4 C 65 % 7.91 C
2329 03-09-2003 11:42:02 15.2 C 64 % 8.44 C
2330 03-09-2003 11:54:02 15.8 C 60 % 8.06 C
2331 03-09-2003 12:06:02 16.8 C 56 % 7.98 C
2332 03-09-2003 12:18:02 17.5 C 48 % 6.38 C
2333 03-09-2003 12:30:02 18 C 43 % 5.25 C
2334 03-09-2003 12:42:01 18.3 C 39 % 4.12 C
2335 03-09-2003 12:54:01 18.7 C 39 % 4.48 C
2336 03-09-2003 13:06:01 18.9 C 37 % 3.91 C
2337 03-09-2003 13:18:01 19.5 C 35 % 3.65 C
2338 03-09-2003 13:30:01 19.9 C 32 % 2.73 C
2339 03-09-2003 13:42:01 20.2 C 32 % 3 C
2340 03-09-2003 13:54:01 20.4 C 32 % 3.17 C
2341 03-09-2003 14:06:01 20.5 C 30 % 2.35 C
2342 03-09-2003 14:18:01 21.1 C 30 % 2.87 C
2343 03-09-2003 14:30:01 21.5 C 28 % 2.24 C
2344 03-09-2003 14:42:00 22.7 C 26 % 2.23 C
2345 03-09-2003 14:54:00 22.9 C 24 % 1.28 C
2346 03-09-2003 15:06:01 22.3 C 25 % 1.34 C
2347 03-09-2003 15:18:01 22 C 29 % 3.17 C
2348 03-09-2003 15:30:01 23.3 C 26 % 2.74 C
2349 03-09-2003 15:42:01 23.5 C 24 % 1.79 C
2350 03-09-2003 15:54:01 22.7 C 24 % 1.11 C
Sensor: Nr:Datum:Temp:Feuchte:Taupunkt:
Aussen-T/F 2351 03-09-2003 16:06:01 22.6 C 25 % 1.6 C
2352 03-09-2003 16:18:01 23.8 C 24 % 2.04 C
2353 03-09-2003 16:30:01 23 C 23 % 0.78 C
2354 03-09-2003 16:42:02 24.1 C 25 % 2.86 C
2355 03-09-2003 16:54:02 24.5 C 21 % 0.76 C
2356 03-09-2003 17:06:02 25 C 25 % 3.62 C
2357 03-09-2003 17:18:02 23.6 C 23 % 1.28 C
2358 03-09-2003 17:30:02 24.4 C 22 % 1.33 C
2359 03-09-2003 17:42:01 25.3 C 22 % 2.07 C
2360 03-09-2003 17:54:01 25 C 20 % 0.5 C
2361 03-09-2003 18:06:01 24.7 C 21 % 0.93 C
2362 03-09-2003 18:18:01 24.4 C 22 % 1.33 C
2363 03-09-2003 18:30:01 25.3 C 25 % 3.88 C
2364 03-09-2003 18:42:00 25.1 C 26 % 4.26 C
2365 03-09-2003 18:54:00 24.1 C 25 % 2.86 C
2366 03-09-2003 19:06:01 24 C 27 % 3.87 C
2367 03-09-2003 19:18:01 23.1 C 32 % 5.52 C
2368 03-09-2003 19:30:01 22.2 C 32 % 4.74 C
2369 03-09-2003 19:42:01 21.7 C 35 % 5.58 C
2370 03-09-2003 19:54:01 20.3 C 40 % 6.27 C
2371 03-09-2003 20:06:01 18.7 C 42 % 5.54 C
2372 03-09-2003 20:18:01 17.8 C 46 % 6.04 C
2373 03-09-2003 20:30:01 17.4 C 46 % 5.67 C
2374 03-09-2003 20:42:02 16.8 C 49 % 6.04 C
2375 03-09-2003 20:54:02 16.6 C 50 % 6.15 C
Sensor: Nr:Datum:Temp:Feuchte:Taupunkt:
Aussen-T/F 2376 03-09-2003 21:06:01 15.8 C 52 % 5.97 C
2377 03-09-2003 21:18:01 15.6 C 53 % 6.06 C
2378 03-09-2003 21:30:01 15.4 C 53 % 5.88 C
2379 03-09-2003 21:43:01 15.4 C 53 % 5.88 C
2380 03-09-2003 21:55:01 15.2 C 54 % 5.96 C
2381 03-09-2003 22:07:01 15.1 C 55 % 6.14 C
2382 03-09-2003 22:19:01 14.8 C 57 % 6.37 C
2383 03-09-2003 22:31:01 14.6 C 58 % 6.44 C
2384 03-09-2003 22:43:01 14.3 C 59 % 6.41 C
2385 03-09-2003 22:55:01 14.1 C 60 % 6.46 C
2386 03-09-2003 23:07:01 13.9 C 62 % 6.75 C
2387 03-09-2003 23:19:01 13.7 C 62 % 6.56 C
2388 03-09-2003 23:31:01 13.4 C 62 % 6.28 C
2389 03-09-2003 23:43:01 13.2 C 64 % 6.55 C
2390 03-09-2003 23:55:01 13 C 64 % 6.36 C
2391 04-09-2003 00:07:01 12.8 C 67 % 6.83 C
2392 04-09-2003 00:19:01 12.4 C 67 % 6.45 C
2393 04-09-2003 00:31:01 12.4 C 68 % 6.67 C
2394 04-09-2003 00:43:01 12.1 C 69 % 6.59 C
2395 04-09-2003 00:55:01 12 C 69 % 6.5 C
2396 04-09-2003 01:07:01 11.8 C 70 % 6.51 C
2397 04-09-2003 01:19:01 11.7 C 72 % 6.83 C
2398 04-09-2003 01:31:01 11.5 C 72 % 6.63 C
2399 04-09-2003 01:43:01 11.2 C 73 % 6.55 C
2400 04-09-2003 01:55:01 11.1 C 73 % 6.45 C
Sensor: Nr:Datum:Temp:Feuchte:Taupunkt:
Aussen-T/F 2401 04-09-2003 02:07:01 10.9 C 76 % 6.84 C
2402 04-09-2003 02:19:01 10.8 C 76 % 6.75 C
2403 04-09-2003 02:31:01 10.7 C 76 % 6.65 C
2404 04-09-2003 02:43:01 10.5 C 76 % 6.45 C
2405 04-09-2003 02:55:01 10.2 C 77 % 6.35 C
2406 04-09-2003 03:07:01 10 C 78 % 6.35 C
2407 04-09-2003 03:19:01 9.9 C 80 % 6.62 C
2408 04-09-2003 03:31:01 9.8 C 81 % 6.7 C
2409 04-09-2003 03:43:01 9.7 C 81 % 6.6 C
2410 04-09-2003 03:55:01 9.6 C 81 % 6.5 C
2411 04-09-2003 04:07:01 9.4 C 82 % 6.49 C
2412 04-09-2003 04:19:01 9.3 C 82 % 6.39 C
2413 04-09-2003 04:31:01 9.1 C 82 % 6.19 C
2414 04-09-2003 04:43:01 9 C 83 % 6.27 C
2415 04-09-2003 04:55:01 9 C 84 % 6.45 C
2416 04-09-2003 05:07:01 8.8 C 85 % 6.42 C
2417 04-09-2003 05:19:01 8.7 C 86 % 6.49 C
2418 04-09-2003 05:31:01 8.7 C 87 % 6.66 C
2419 04-09-2003 05:43:01 8.6 C 87 % 6.56 C
2420 04-09-2003 05:55:01 8.4 C 86 % 6.2 C
2421 04-09-2003 06:07:01 8.3 C 86 % 6.1 C
2422 04-09-2003 06:19:01 8.2 C 86 % 6 C
2423 04-09-2003 06:31:01 8.1 C 86 % 5.9 C
2424 04-09-2003 06:43:01 8 C 86 % 5.81 C
2425 04-09-2003 06:55:01 8 C 87 % 5.97 C
Sensor: Nr:Datum:Temp:Feuchte:Taupunkt:
Aussen-T/F 2426 04-09-2003 07:07:01 7.9 C 88 % 6.04 C
2427 04-09-2003 07:19:01 8 C 87 % 5.97 C
2428 04-09-2003 07:31:01 8 C 88 % 6.14 C
2429 04-09-2003 07:43:01 8 C 87 % 5.97 C
2430 04-09-2003 07:55:01 8 C 87 % 5.97 C
2431 04-09-2003 08:07:01 8.2 C 87 % 6.17 C
2432 04-09-2003 08:19:01 8.1 C 88 % 6.24 C
2433 04-09-2003 08:31:01 8.2 C 89 % 6.5 C
2434 04-09-2003 08:43:01 8.4 C 90 % 6.86 C
2435 04-09-2003 08:55:01 8.6 C 89 % 6.89 C
2436 04-09-2003 09:07:02 8.9 C 89 % 7.19 C
2437 04-09-2003 09:19:02 9.1 C 87 % 7.05 C
2438 04-09-2003 09:31:02 9.5 C 87 % 7.45 C
2439 04-09-2003 09:43:01 10 C 85 % 7.6 C
2440 04-09-2003 09:55:01 10.6 C 84 % 8.01 C
2441 04-09-2003 10:07:00 11.4 C 81 % 8.26 C
2442 04-09-2003 10:19:00 12.2 C 77 % 8.29 C
2443 04-09-2003 10:31:00 12.8 C 76 % 8.68 C
2444 04-09-2003 10:43:01 13.3 C 74 % 8.77 C
2445 04-09-2003 10:55:01 14.2 C 72 % 9.23 C
2446 04-09-2003 11:07:02 15 C 69 % 9.36 C
2447 04-09-2003 11:19:02 15.7 C 66 % 9.37 C
2448 04-09-2003 11:31:02 16.3 C 67 % 10.17 C
2449 04-09-2003 11:43:01 17 C 63 % 9.91 C
2450 04-09-2003 11:55:01 17.8 C 60 % 9.94 C
Sensor: Nr:Datum:Temp:Feuchte:Taupunkt:
Aussen-T/F 2451 04-09-2003 12:07:00 18.4 C 58 % 9.99 C
2452 04-09-2003 12:19:00 18.9 C 57 % 10.2 C
2453 04-09-2003 12:31:00 19.5 C 51 % 9.1 C
2454 04-09-2003 12:43:02 20 C 47 % 8.35 C
2455 04-09-2003 12:55:02 20.4 C 40 % 6.36 C
2456 04-09-2003 13:07:01 21 C 37 % 5.77 C
2457 04-09-2003 13:19:01 21.6 C 37 % 6.3 C
2458 04-09-2003 13:31:01 22.1 C 35 % 5.94 C
2459 04-09-2003 13:43:01 22.3 C 34 % 5.69 C
2460 04-09-2003 13:55:01 23.2 C 30 % 4.68 C
2461 04-09-2003 14:07:01 23.8 C 30 % 5.2 C
2462 04-09-2003 14:19:01 24.2 C 26 % 3.5 C
2463 04-09-2003 14:31:01 24.5 C 27 % 4.29 C
2464 04-09-2003 14:43:00 24.3 C 26 % 3.59 C
2465 04-09-2003 14:55:00 25.2 C 25 % 3.79 C
2466 04-09-2003 15:07:01 26.2 C 25 % 4.63 C
2467 04-09-2003 15:19:01 26.3 C 25 % 4.72 C
2468 04-09-2003 15:31:01 26.9 C 24 % 4.64 C
2469 04-09-2003 15:43:00 27.5 C 22 % 3.9 C
2470 04-09-2003 15:55:00 27.5 C 23 % 4.53 C
2471 04-09-2003 16:07:01 27.7 C 22 % 4.07 C
2472 04-09-2003 16:19:01 27.9 C 21 % 3.57 C
2473 04-09-2003 16:31:01 27.9 C 22 % 4.23 C
2474 04-09-2003 16:43:01 27.7 C 22 % 4.07 C
2475 04-09-2003 16:55:01 27.7 C 21 % 3.41 C
Sensor: Nr:Datum:Temp:Feuchte:Taupunkt:
Aussen-T/F 2476 04-09-2003 17:07:01 27.9 C 21 % 3.57 C
2477 04-09-2003 17:19:01 28.8 C 23 % 5.62 C
2478 04-09-2003 17:31:01 29 C 22 % 5.15 C
2479 04-09-2003 17:43:00 28.8 C 22 % 4.98 C
2480 04-09-2003 17:55:00 28.8 C 21 % 4.32 C
2481 04-09-2003 18:07:01 28.7 C 22 % 4.9 C
2482 04-09-2003 18:19:01 28.5 C 24 % 5.98 C
2483 04-09-2003 18:31:01 28.3 C 23 % 5.2 C
2484 04-09-2003 18:43:01 28.2 C 24 % 5.73 C
2485 04-09-2003 18:55:01 27.9 C 27 % 7.18 C
2486 04-09-2003 19:07:01 27.3 C 29 % 7.72 C
2487 04-09-2003 19:19:01 26.5 C 31 % 8.01 C
2488 04-09-2003 19:31:01 25.4 C 33 % 7.97 C
2489 04-09-2003 19:43:02 24.1 C 35 % 7.69 C
2490 04-09-2003 19:55:02 22.8 C 36 % 6.96 C
2491 04-09-2003 20:07:02 21.6 C 38 % 6.69 C
2492 04-09-2003 20:19:02 21 C 38 % 6.15 C
2493 04-09-2003 20:31:02 20.6 C 41 % 6.9 C
2494 04-09-2003 20:43:01 20.1 C 45 % 7.81 C
2495 04-09-2003 20:55:01 19.4 C 45 % 7.17 C
2496 04-09-2003 21:07:02 18.9 C 47 % 7.35 C
2497 04-09-2003 21:19:02 18.3 C 49 % 7.41 C
2498 04-09-2003 21:31:02 18.1 C 50 % 7.52 C
2499 04-09-2003 21:43:01 17.8 C 50 % 7.25 C
2500 04-09-2003 21:55:01 17.5 C 52 % 7.54 C
Sensor: Nr:Datum:Temp:Feuchte:Taupunkt:
Aussen-T/F 2501 04-09-2003 22:07:01 17.3 C 53 % 7.64 C
2502 04-09-2003 22:19:01 17 C 53 % 7.36 C
2503 04-09-2003 22:31:01 16.6 C 55 % 7.53 C
2504 04-09-2003 22:44:04 16.4 C 57 % 7.87 C
2505 04-09-2003 22:56:04 16.3 C 59 % 8.28 C
2506 04-09-2003 23:08:04 15.9 C 61 % 8.4 C
2507 04-09-2003 23:20:04 15.8 C 60 % 8.06 C
2508 04-09-2003 23:32:04 15.5 C 61 % 8.02 C
2509 04-09-2003 23:44:04 15.4 C 62 % 8.16 C
2510 04-09-2003 23:56:04 15 C 63 % 8.02 C
2511 05-09-2003 00:08:04 14.8 C 65 % 8.29 C
2512 05-09-2003 00:20:04 14.6 C 66 % 8.33 C
2513 05-09-2003 00:32:04 14.4 C 66 % 8.14 C
2514 05-09-2003 00:44:04 14.3 C 66 % 8.04 C
2515 05-09-2003 00:56:04 14 C 65 % 7.53 C
2516 05-09-2003 01:08:04 13.9 C 67 % 7.88 C
2517 05-09-2003 01:20:04 13.7 C 68 % 7.91 C
2518 05-09-2003 01:32:04 13.5 C 68 % 7.72 C
2519 05-09-2003 01:44:04 13.3 C 69 % 7.74 C
2520 05-09-2003 01:56:04 13.2 C 70 % 7.86 C
2521 05-09-2003 02:08:04 13 C 70 % 7.66 C
2522 05-09-2003 02:20:04 12.7 C 73 % 7.99 C
2523 05-09-2003 02:32:04 12.6 C 73 % 7.89 C
2524 05-09-2003 02:44:04 12.6 C 74 % 8.09 C
2525 05-09-2003 02:56:04 12.2 C 75 % 7.91 C
Sensor: Nr:Datum:Temp:Feuchte:Taupunkt:
Aussen-T/F 2526 05-09-2003 03:08:04 12.1 C 77 % 8.2 C
2527 05-09-2003 03:20:04 11.9 C 77 % 8 C
2528 05-09-2003 03:32:04 11.6 C 78 % 7.9 C
2529 05-09-2003 03:44:04 11.5 C 80 % 8.17 C
2530 05-09-2003 03:56:04 11.3 C 83 % 8.52 C
2531 05-09-2003 04:08:04 11.2 C 82 % 8.25 C
2532 05-09-2003 04:20:04 11.1 C 81 % 7.97 C
2533 05-09-2003 04:32:04 11 C 82 % 8.05 C
2534 05-09-2003 04:44:04 10.9 C 83 % 8.13 C
2535 05-09-2003 04:56:04 10.7 C 82 % 7.76 C
2536 05-09-2003 05:08:04 10.7 C 82 % 7.76 C
2537 05-09-2003 05:20:04 10.6 C 83 % 7.84 C
2538 05-09-2003 05:32:04 10.5 C 83 % 7.74 C
2539 05-09-2003 05:44:04 10.3 C 84 % 7.72 C
2540 05-09-2003 05:56:04 10.2 C 84 % 7.62 C
2541 05-09-2003 06:08:04 10.1 C 84 % 7.52 C
2542 05-09-2003 06:20:04 10 C 85 % 7.6 C
2543 05-09-2003 06:32:04 9.8 C 86 % 7.57 C
2544 05-09-2003 06:44:04 9.7 C 88 % 7.81 C
2545 05-09-2003 06:56:04 9.5 C 87 % 7.45 C
2546 05-09-2003 07:08:04 9.5 C 87 % 7.45 C
2547 05-09-2003 07:20:04 9.5 C 86 % 7.28 C
2548 05-09-2003 07:32:04 9.5 C 87 % 7.45 C
2549 05-09-2003 07:44:04 9.6 C 87 % 7.55 C
2550 05-09-2003 07:56:04 9.7 C 87 % 7.64 C
Sensor: Nr:Datum:Temp:Feuchte:Taupunkt:
Aussen-T/F 2551 05-09-2003 08:08:04 9.7 C 88 % 7.81 C
2552 05-09-2003 08:20:04 9.6 C 89 % 7.88 C
2553 05-09-2003 08:32:04 9.8 C 89 % 8.08 C
2554 05-09-2003 08:44:04 10 C 88 % 8.11 C
2555 05-09-2003 08:56:04 10.3 C 88 % 8.4 C
2556 05-09-2003 09:08:04 10.7 C 88 % 8.8 C
2557 05-09-2003 09:20:04 11 C 87 % 8.92 C
2558 05-09-2003 09:32:01 11.5 C 85 % 9.07 C
2559 05-09-2003 09:44:01 12.2 C 83 % 9.4 C
2560 05-09-2003 09:56:01 12.8 C 80 % 9.44 C
2561 05-09-2003 10:08:01 13.3 C 77 % 9.36 C
2562 05-09-2003 10:20:01 14.4 C 73 % 9.63 C
2563 05-09-2003 10:32:01 14.9 C 71 % 9.69 C
2564 05-09-2003 10:44:01 15.8 C 66 % 9.47 C
2565 05-09-2003 10:56:01 16.4 C 65 % 9.81 C
2566 05-09-2003 11:08:01 17.2 C 56 % 8.35 C
2567 05-09-2003 11:20:01 17.9 C 55 % 8.74 C
2568 05-09-2003 11:32:01 18.6 C 53 % 8.84 C
2569 05-09-2003 11:44:01 19 C 53 % 9.21 C
2570 05-09-2003 11:56:01 19.5 C 51 % 9.1 C
2571 05-09-2003 12:08:01 20.5 C 48 % 9.12 C
2572 05-09-2003 12:20:01 21.3 C 45 % 8.89 C
2573 05-09-2003 12:32:02 22 C 41 % 8.15 C
2574 05-09-2003 12:44:02 22.5 C 37 % 7.1 C
2575 05-09-2003 12:56:02 22.8 C 37 % 7.36 C
Sensor: Nr:Datum:Temp:Feuchte:Taupunkt:
Aussen-T/F 2576 05-09-2003 13:08:01 23.3 C 33 % 6.14 C
2577 05-09-2003 13:20:01 23.9 C 30 % 5.28 C
2578 05-09-2003 13:32:02 24.5 C 27 % 4.29 C
2579 05-09-2003 13:44:02 25.1 C 25 % 3.71 C
2580 05-09-2003 13:56:02 25.7 C 21 % 1.76 C
2581 05-09-2003 14:08:01 26.1 C 21 % 2.09 C
2582 05-09-2003 14:20:01 26.4 C 20 % 1.65 C
2583 05-09-2003 14:32:13 25.9 C 20 % 1.24 C
2584 05-09-2003 14:44:13 27.1 C 22 % 3.57 C
2585 05-09-2003 14:56:13 27.8 C 21 % 3.49 C
2586 05-09-2003 15:08:03 27.3 C 20 % 2.39 C
2587 05-09-2003 15:20:03 27.7 C 22 % 4.07 C
2588 05-09-2003 15:32:02 27.4 C 20 % 2.47 C
2589 05-09-2003 15:44:02 27.5 C 20 % 2.56 C
2590 05-09-2003 15:56:02 27.7 C 20 % 2.72 C
2591 05-09-2003 16:08:02 27.6 C 23 % 4.62 C
2592 05-09-2003 16:20:02 28.2 C 21 % 3.82 C
2593 05-09-2003 16:32:01 28 C 20 % 2.97 C
2594 05-09-2003 16:44:01 29 C 20 % 3.79 C
2595 05-09-2003 16:56:01 28.4 C 20 % 3.29 C
2596 05-09-2003 17:08:02 28.7 C 20 % 3.54 C
2597 05-09-2003 17:20:02 29.3 C 20 % 4.03 C
2598 05-09-2003 17:32:03 28.9 C 20 % 3.7 C
2599 05-09-2003 17:44:03 27.8 C 21 % 3.49 C
2600 05-09-2003 17:56:03 27.2 C 27 % 6.59 C
Sensor: Nr:Datum:Temp:Feuchte:Taupunkt:
Aussen-T/F 2601 05-09-2003 18:08:03 26 C 33 % 8.49 C
2602 05-09-2003 18:20:03 24.3 C 35 % 7.87 C
2603 05-09-2003 18:32:03 23.4 C 36 % 7.49 C
2604 05-09-2003 18:44:33 22.9 C 38 % 7.84 C
2605 05-09-2003 18:56:33 22.6 C 37 % 7.18 C
2606 05-09-2003 19:08:03 22.5 C 37 % 7.1 C
2607 05-09-2003 19:20:03 22.3 C 37 % 6.92 C
2608 05-09-2003 19:32:11 22 C 37 % 6.65 C
2609 05-09-2003 19:44:11 21.6 C 39 % 7.06 C
2610 05-09-2003 19:56:11 21 C 40 % 6.9 C
2611 05-09-2003 20:08:11 20.5 C 40 % 6.45 C
2612 05-09-2003 20:20:11 20 C 40 % 6 C
2613 05-09-2003 20:32:11 19.6 C 42 % 6.35 C
2614 05-09-2003 20:44:41 19.4 C 44 % 6.84 C
2615 05-09-2003 20:56:41 19.2 C 44 % 6.66 C
2616 05-09-2003 21:09:02 19 C 44 % 6.48 C
2617 05-09-2003 21:21:02 18.9 C 45 % 6.72 C
2618 05-09-2003 21:33:02 18.7 C 45 % 6.54 C
2619 05-09-2003 21:45:02 18.5 C 46 % 6.67 C
2620 05-09-2003 21:57:02 18.4 C 46 % 6.58 C
2621 05-09-2003 22:09:02 18.1 C 47 % 6.62 C
2622 05-09-2003 22:21:02 17.9 C 50 % 7.34 C
2623 05-09-2003 22:33:02 17.8 C 48 % 6.65 C
2624 05-09-2003 22:45:02 18.1 C 48 % 6.93 C
2625 05-09-2003 22:57:02 18.3 C 47 % 6.8 C
Sensor: Nr:Datum:Temp:Feuchte:Taupunkt:
Aussen-T/F 2626 05-09-2003 23:09:02 18.5 C 47 % 6.99 C
2627 05-09-2003 23:21:02 18.4 C 49 % 7.5 C
2628 05-09-2003 23:33:02 18.6 C 52 % 8.56 C
2629 05-09-2003 23:45:02 18.9 C 54 % 9.4 C
2630 05-09-2003 23:57:02 18.9 C 54 % 9.4 C
2631 06-09-2003 00:09:02 19 C 54 % 9.49 C
2632 06-09-2003 00:21:02 19 C 54 % 9.49 C
2633 06-09-2003 00:33:02 18.9 C 56 % 9.94 C
2634 06-09-2003 00:45:02 18.5 C 57 % 9.83 C
2635 06-09-2003 00:57:02 18.5 C 58 % 10.09 C
2636 06-09-2003 01:09:02 18.4 C 57 % 9.74 C
2637 06-09-2003 01:21:02 18.3 C 60 % 10.41 C
2638 06-09-2003 01:33:02 18.2 C 61 % 10.56 C
2639 06-09-2003 01:45:02 18 C 61 % 10.37 C
2640 06-09-2003 01:57:02 17.9 C 63 % 10.76 C
2641 06-09-2003 02:09:02 17.7 C 66 % 11.27 C
2642 06-09-2003 02:21:02 17.6 C 70 % 12.07 C
2643 06-09-2003 02:33:02 17 C 76 % 12.74 C
2644 06-09-2003 02:45:02 16.4 C 81 % 13.13 C
2645 06-09-2003 02:57:02 16.2 C 84 % 13.5 C
2646 06-09-2003 03:09:02 16.1 C 86 % 13.76 C
2647 06-09-2003 03:21:02 16.1 C 86 % 13.76 C
2648 06-09-2003 03:33:02 16 C 86 % 13.66 C
2649 06-09-2003 03:45:02 15.9 C 88 % 13.92 C
2650 06-09-2003 03:57:02 15.9 C 88 % 13.92 C
Sensor: Nr:Datum:Temp:Feuchte:Taupunkt:
Aussen-T/F 2651 06-09-2003 04:09:02 15.9 C 88 % 13.92 C
2652 06-09-2003 04:21:02 16 C 85 % 13.48 C
2653 06-09-2003 04:33:02 15.9 C 85 % 13.38 C
2654 06-09-2003 04:45:02 15.8 C 83 % 12.92 C
2655 06-09-2003 04:57:02 15.9 C 84 % 13.2 C
2656 06-09-2003 05:09:02 15.9 C 83 % 13.02 C
2657 06-09-2003 05:21:02 15.8 C 83 % 12.92 C
2658 06-09-2003 05:33:02 15.8 C 83 % 12.92 C
2659 06-09-2003 05:45:02 15.8 C 83 % 12.92 C
2660 06-09-2003 05:57:02 15.8 C 81 % 12.55 C
2661 06-09-2003 06:09:02 15.8 C 81 % 12.55 C
2662 06-09-2003 06:21:02 15.7 C 82 % 12.64 C
2663 06-09-2003 06:33:02 15.5 C 83 % 12.63 C
2664 06-09-2003 06:45:02 15.1 C 86 % 12.78 C
2665 06-09-2003 06:57:02 15 C 87 % 12.86 C
2666 06-09-2003 07:09:02 15 C 87 % 12.86 C
2667 06-09-2003 07:21:02 15.3 C 88 % 13.33 C
2668 06-09-2003 07:33:02 15.3 C 87 % 13.15 C
2669 06-09-2003 07:45:02 15.4 C 86 % 13.07 C
2670 06-09-2003 07:57:02 15.6 C 84 % 12.91 C
2671 06-09-2003 08:09:02 15.9 C 82 % 12.83 C
2672 06-09-2003 08:21:02 15.9 C 82 % 12.83 C
2673 06-09-2003 08:33:02 16.2 C 80 % 12.75 C
2674 06-09-2003 08:45:02 16.4 C 79 % 12.75 C
2675 06-09-2003 08:57:02 16.6 C 78 % 12.75 C
Sensor: Nr:Datum:Temp:Feuchte:Taupunkt:
Aussen-T/F 2676 06-09-2003 09:09:02 16.7 C 76 % 12.45 C
2677 06-09-2003 09:21:02 17 C 74 % 12.34 C
2678 06-09-2003 09:33:00 17 C 73 % 12.13 C
2679 06-09-2003 09:45:00 17.3 C 75 % 12.83 C
2680 06-09-2003 09:57:00 17.2 C 76 % 12.94 C
2681 06-09-2003 10:09:57 17.2 C 77 % 13.14 C
2682 06-09-2003 10:21:57 17 C 77 % 12.94 C
2683 06-09-2003 10:33:01 17.6 C 75 % 13.12 C
2684 06-09-2003 10:45:01 18.9 C 66 % 12.41 C
2685 06-09-2003 10:57:01 19.7 C 62 % 12.22 C
2686 06-09-2003 11:09:00 20.5 C 57 % 11.7 C
2687 06-09-2003 11:21:00 20.5 C 56 % 11.43 C
2688 06-09-2003 11:33:01 20.6 C 55 % 11.25 C
2689 06-09-2003 11:45:01 20.7 C 57 % 11.88 C
2690 06-09-2003 11:57:01 20.8 C 56 % 11.71 C
2691 06-09-2003 12:09:02 21 C 55 % 11.62 C
2692 06-09-2003 12:21:02 21.5 C 53 % 11.52 C
2693 06-09-2003 12:33:01 21.8 C 54 % 12.08 C
2694 06-09-2003 12:45:01 22 C 52 % 11.7 C
2695 06-09-2003 12:57:01 22.2 C 50 % 11.29 C
2696 06-09-2003 13:09:00 22.9 C 48 % 11.31 C
2697 06-09-2003 13:21:00 23.6 C 42 % 9.94 C
2698 06-09-2003 13:33:02 24.2 C 40 % 9.75 C
2699 06-09-2003 13:45:02 24.4 C 41 % 10.3 C
2700 06-09-2003 13:57:02 25.3 C 39 % 10.36 C
Sensor: Nr:Datum:Temp:Feuchte:Taupunkt:
Aussen-T/F 2701 06-09-2003 14:09:01 25.3 C 36 % 9.16 C
2702 06-09-2003 14:21:01 25.4 C 37 % 9.66 C
2703 06-09-2003 14:33:01 25 C 38 % 9.7 C
2704 06-09-2003 14:45:01 25.2 C 37 % 9.48 C
2705 06-09-2003 14:57:01 25.7 C 37 % 9.92 C
2706 06-09-2003 15:09:02 25.3 C 37 % 9.57 C
2707 06-09-2003 15:21:02 25.6 C 36 % 9.43 C
2708 06-09-2003 15:33:01 25.4 C 38 % 10.06 C
2709 06-09-2003 15:45:01 24.9 C 37 % 9.22 C
2710 06-09-2003 15:57:01 24.9 C 37 % 9.22 C
2711 06-09-2003 16:09:01 24.7 C 41 % 10.57 C
2712 06-09-2003 16:21:01 24.6 C 40 % 10.11 C
2713 06-09-2003 16:33:01 24.7 C 40 % 10.2 C
2714 06-09-2003 16:45:01 24.7 C 40 % 10.2 C
2715 06-09-2003 16:57:01 25 C 38 % 9.7 C
2716 06-09-2003 17:09:01 24.9 C 39 % 10 C
2717 06-09-2003 17:21:01 24.6 C 40 % 10.11 C
2718 06-09-2003 17:33:01 25.3 C 38 % 9.97 C
2719 06-09-2003 17:45:01 24.7 C 40 % 10.2 C
2720 06-09-2003 17:57:01 24.2 C 39 % 9.38 C
2721 06-09-2003 18:09:02 24.1 C 42 % 10.39 C
2722 06-09-2003 18:21:02 23.8 C 41 % 9.76 C
2723 06-09-2003 18:33:01 23.3 C 43 % 10.03 C
2724 06-09-2003 18:45:01 23.1 C 43 % 9.85 C
2725 06-09-2003 18:57:01 23.1 C 43 % 9.85 C
Sensor: Nr:Datum:Temp:Feuchte:Taupunkt:
Aussen-T/F 2726 06-09-2003 19:09:01 23.3 C 44 % 10.37 C
2727 06-09-2003 19:21:01 23.3 C 44 % 10.37 C
2728 06-09-2003 19:33:01 23 C 45 % 10.43 C
2729 06-09-2003 19:45:01 22.7 C 47 % 10.81 C
2730 06-09-2003 19:57:01 22.1 C 50 % 11.2 C
2731 06-09-2003 20:09:02 21.8 C 52 % 11.51 C
2732 06-09-2003 20:21:02 21.5 C 55 % 12.08 C
2733 06-09-2003 20:34:08 21.2 C 57 % 12.35 C
2734 06-09-2003 20:46:08 21 C 58 % 12.43 C
2735 06-09-2003 20:58:08 20.8 C 59 % 12.5 C
2736 06-09-2003 21:10:08 20.8 C 60 % 12.76 C
2737 06-09-2003 21:22:08 20.7 C 61 % 12.91 C
2738 06-09-2003 21:34:08 20.4 C 63 % 13.12 C
2739 06-09-2003 21:46:08 20.2 C 63 % 12.94 C
2740 06-09-2003 21:58:08 20 C 64 % 12.99 C
2741 06-09-2003 22:10:08 19.7 C 66 % 13.17 C
2742 06-09-2003 22:22:08 19.4 C 67 % 13.12 C
2743 06-09-2003 22:34:08 19.1 C 68 % 13.06 C
2744 06-09-2003 22:46:08 18.9 C 69 % 13.09 C
2745 06-09-2003 22:58:08 18.9 C 70 % 13.31 C
2746 06-09-2003 23:10:08 18.4 C 71 % 13.05 C
2747 06-09-2003 23:22:08 18 C 73 % 13.09 C
2748 06-09-2003 23:34:08 17.6 C 75 % 13.12 C
2749 06-09-2003 23:46:08 17.5 C 76 % 13.23 C
2750 06-09-2003 23:58:08 17.1 C 76 % 12.84 C
Sensor: Nr:Datum:Temp:Feuchte:Taupunkt:
Aussen-T/F 2751 07-09-2003 00:10:08 17 C 77 % 12.94 C
2752 07-09-2003 00:22:08 17.1 C 78 % 13.24 C
2753 07-09-2003 00:34:08 17 C 77 % 12.94 C
2754 07-09-2003 00:46:08 17.1 C 78 % 13.24 C
2755 07-09-2003 00:58:08 17.1 C 78 % 13.24 C
2756 07-09-2003 01:10:08 17.2 C 78 % 13.33 C
2757 07-09-2003 01:22:08 17.3 C 78 % 13.43 C
2758 07-09-2003 01:34:08 17.2 C 79 % 13.53 C
2759 07-09-2003 01:46:08 17 C 79 % 13.33 C
2760 07-09-2003 01:58:08 17 C 79 % 13.33 C
2761 07-09-2003 02:10:08 16.8 C 81 % 13.52 C
2762 07-09-2003 02:22:08 16.7 C 82 % 13.61 C
2763 07-09-2003 02:34:08 16.7 C 82 % 13.61 C
2764 07-09-2003 02:46:08 16.8 C 81 % 13.52 C
2765 07-09-2003 02:58:08 16.7 C 81 % 13.43 C
2766 07-09-2003 03:10:08 16.6 C 81 % 13.33 C
2767 07-09-2003 03:22:08 16.5 C 81 % 13.23 C
2768 07-09-2003 03:34:08 16.4 C 82 % 13.32 C
2769 07-09-2003 03:46:08 16.5 C 82 % 13.42 C
2770 07-09-2003 03:58:08 16.5 C 81 % 13.23 C
2771 07-09-2003 04:10:08 16.5 C 81 % 13.23 C
2772 07-09-2003 04:22:08 16.6 C 79 % 12.95 C
2773 07-09-2003 04:34:08 16.4 C 80 % 12.94 C
2774 07-09-2003 04:46:08 16.4 C 81 % 13.13 C
2775 07-09-2003 04:58:08 16.2 C 80 % 12.75 C
Sensor: Nr:Datum:Temp:Feuchte:Taupunkt:
Aussen-T/F 2776 07-09-2003 05:10:08 16.2 C 80 % 12.75 C
2777 07-09-2003 05:22:08 16.1 C 79 % 12.46 C
2778 07-09-2003 05:34:08 16.2 C 79 % 12.56 C
2779 07-09-2003 05:46:08 16.1 C 81 % 12.84 C
2780 07-09-2003 05:58:08 16 C 81 % 12.74 C
2781 07-09-2003 06:10:08 16 C 81 % 12.74 C
2782 07-09-2003 06:22:08 15.8 C 82 % 12.74 C
2783 07-09-2003 06:34:08 15.5 C 82 % 12.44 C
2784 07-09-2003 06:46:08 15.2 C 82 % 12.15 C
2785 07-09-2003 06:58:08 14.9 C 83 % 12.04 C
2786 07-09-2003 07:10:08 14.8 C 84 % 12.12 C
2787 07-09-2003 07:22:08 14.8 C 84 % 12.12 C
2788 07-09-2003 07:34:08 15 C 83 % 12.14 C
2789 07-09-2003 07:46:08 15.3 C 82 % 12.25 C
2790 07-09-2003 07:58:08 15.5 C 82 % 12.44 C
2791 07-09-2003 08:10:08 15.6 C 82 % 12.54 C
2792 07-09-2003 08:22:08 15.8 C 81 % 12.55 C
2793 07-09-2003 08:34:08 15.9 C 81 % 12.65 C
2794 07-09-2003 08:46:08 16.2 C 78 % 12.36 C
2795 07-09-2003 08:58:08 16.5 C 77 % 12.46 C
2796 07-09-2003 09:10:08 16.5 C 76 % 12.26 C
2797 07-09-2003 09:22:08 16.4 C 77 % 12.36 C
2798 07-09-2003 09:34:08 16.7 C 77 % 12.65 C
2799 07-09-2003 09:46:08 17.5 C 73 % 12.61 C
2800 07-09-2003 09:58:08 17.3 C 72 % 12.21 C
Sensor: Nr:Datum:Temp:Feuchte:Taupunkt:
Aussen-T/F 2801 07-09-2003 10:10:08 17.7 C 71 % 12.38 C
2802 07-09-2003 10:22:08 18.2 C 68 % 12.2 C
2803 07-09-2003 10:34:08 18.3 C 67 % 12.07 C
2804 07-09-2003 10:46:08 18.7 C 67 % 12.45 C
2805 07-09-2003 10:58:01 19 C 64 % 12.04 C
2806 07-09-2003 11:10:02 19.5 C 62 % 12.03 C
2807 07-09-2003 11:22:02 19.7 C 59 % 11.47 C
2808 07-09-2003 11:34:02 19.7 C 60 % 11.72 C
2809 07-09-2003 11:46:02 19.4 C 60 % 11.44 C
2810 07-09-2003 11:58:02 19.1 C 64 % 12.14 C
2811 07-09-2003 12:10:02 18.6 C 72 % 13.46 C
2812 07-09-2003 12:22:02 18.5 C 72 % 13.36 C
2813 07-09-2003 12:34:01 19.2 C 71 % 13.82 C
2814 07-09-2003 12:46:01 19.8 C 66 % 13.27 C
2815 07-09-2003 12:58:01 20 C 64 % 12.99 C
2816 07-09-2003 13:10:16 19.9 C 66 % 13.36 C
2817 07-09-2003 13:22:02 19.4 C 68 % 13.34 C
2818 07-09-2003 13:34:02 20.3 C 68 % 14.2 C
2819 07-09-2003 13:46:02 20.7 C 61 % 12.91 C
2820 07-09-2003 13:58:02 20.9 C 58 % 12.33 C
2821 07-09-2003 14:10:02 21.1 C 55 % 11.71 C
2822 07-09-2003 14:22:02 22 C 53 % 11.99 C
2823 07-09-2003 14:34:02 22.3 C 50 % 11.38 C
2824 07-09-2003 14:46:02 23.2 C 47 % 11.27 C
2825 07-09-2003 14:58:02 23.7 C 48 % 12.04 C
Sensor: Nr:Datum:Temp:Feuchte:Taupunkt:
Aussen-T/F 2826 07-09-2003 15:10:02 24 C 45 % 11.34 C
2827 07-09-2003 15:22:02 23.7 C 46 % 11.4 C
2828 07-09-2003 15:34:02 23.4 C 46 % 11.13 C
2829 07-09-2003 15:46:02 24.7 C 40 % 10.2 C
2830 07-09-2003 15:58:02 23.7 C 42 % 10.03 C
2831 07-09-2003 16:10:01 24 C 42 % 10.3 C
2832 07-09-2003 16:22:01 23.8 C 41 % 9.76 C
2833 07-09-2003 16:34:02 23.8 C 40 % 9.4 C
2834 07-09-2003 16:46:02 23.6 C 43 % 10.3 C
2835 07-09-2003 16:58:02 24.5 C 41 % 10.39 C
2836 07-09-2003 17:10:01 25 C 39 % 10.09 C
2837 07-09-2003 17:22:01 24.8 C 39 % 9.91 C
2838 07-09-2003 17:34:01 24.7 C 40 % 10.2 C
2839 07-09-2003 17:46:01 25.2 C 38 % 9.88 C
2840 07-09-2003 17:58:01 24.5 C 41 % 10.39 C
2841 07-09-2003 18:10:00 24 C 43 % 10.66 C
2842 07-09-2003 18:22:00 23.7 C 49 % 12.36 C
2843 07-09-2003 18:34:01 23.2 C 51 % 12.51 C
2844 07-09-2003 18:46:01 22.6 C 52 % 12.25 C
2845 07-09-2003 18:58:01 22.1 C 53 % 12.08 C
2846 07-09-2003 19:10:01 21.8 C 56 % 12.64 C
2847 07-09-2003 19:22:01 21.4 C 57 % 12.53 C
2848 07-09-2003 19:34:01 21.1 C 58 % 12.52 C
2849 07-09-2003 19:46:01 20.7 C 60 % 12.66 C
2850 07-09-2003 19:58:01 20.5 C 61 % 12.73 C
Sensor: Nr:Datum:Temp:Feuchte:Taupunkt:
Aussen-T/F 2851 07-09-2003 20:10:01 19.9 C 63 % 12.65 C
2852 07-09-2003 20:22:01 19.6 C 64 % 12.61 C
2853 07-09-2003 20:34:01 19.3 C 65 % 12.56 C
2854 07-09-2003 20:46:01 19.2 C 64 % 12.23 C
2855 07-09-2003 20:58:01 19.2 C 64 % 12.23 C
2856 07-09-2003 21:10:01 19.1 C 64 % 12.14 C
2857 07-09-2003 21:22:01 19.1 C 65 % 12.37 C
2858 07-09-2003 21:34:02 19 C 65 % 12.28 C
2859 07-09-2003 21:46:02 19 C 65 % 12.28 C
2860 07-09-2003 21:58:02 19 C 65 % 12.28 C
2861 07-09-2003 22:10:02 19 C 66 % 12.51 C
2862 07-09-2003 22:22:02 18.6 C 67 % 12.36 C
2863 07-09-2003 22:35:42 18.6 C 68 % 12.58 C
2864 07-09-2003 22:47:42 18.5 C 68 % 12.49 C
2865 07-09-2003 22:59:42 18.5 C 68 % 12.49 C
2866 07-09-2003 23:11:42 18.4 C 69 % 12.61 C
2867 07-09-2003 23:23:42 18.3 C 70 % 12.74 C
2868 07-09-2003 23:35:42 18.2 C 70 % 12.64 C
2869 07-09-2003 23:47:42 18 C 71 % 12.67 C
2870 07-09-2003 23:59:42 17.9 C 72 % 12.78 C
2871 08-09-2003 00:11:42 17.8 C 72 % 12.69 C
2872 08-09-2003 00:23:42 17.7 C 73 % 12.8 C
2873 08-09-2003 00:35:42 17.6 C 74 % 12.91 C
2874 08-09-2003 00:47:42 17.3 C 75 % 12.83 C
2875 08-09-2003 00:59:42 17.5 C 77 % 13.43 C
Sensor: Nr:Datum:Temp:Feuchte:Taupunkt:
Aussen-T/F 2876 08-09-2003 01:11:42 17.1 C 78 % 13.24 C
2877 08-09-2003 01:23:42 17 C 80 % 13.53 C
2878 08-09-2003 01:35:42 16.9 C 81 % 13.62 C
2879 08-09-2003 01:47:42 16.8 C 83 % 13.9 C
2880 08-09-2003 01:59:42 16.4 C 86 % 14.05 C
2881 08-09-2003 02:11:42 16.1 C 88 % 14.11 C
2882 08-09-2003 02:23:42 16.1 C 89 % 14.29 C
2883 08-09-2003 02:35:42 15.8 C 91 % 14.33 C
2884 08-09-2003 02:47:42 15.3 C 90 % 13.67 C
2885 08-09-2003 02:59:42 14.9 C 92 % 13.61 C
2886 08-09-2003 03:11:42 14.8 C 92 % 13.51 C
2887 08-09-2003 03:23:42 14.8 C 92 % 13.51 C
2888 08-09-2003 03:35:42 14.7 C 93 % 13.58 C
2889 08-09-2003 03:47:42 14.8 C 93 % 13.68 C
2890 08-09-2003 03:59:42 14.7 C 93 % 13.58 C
2891 08-09-2003 04:11:42 14.4 C 93 % 13.28 C
2892 08-09-2003 04:23:42 14.3 C 93 % 13.18 C
2893 08-09-2003 04:35:42 14.4 C 93 % 13.28 C
2894 08-09-2003 04:47:42 14.2 C 94 % 13.25 C
2895 08-09-2003 04:59:42 14.2 C 94 % 13.25 C
2896 08-09-2003 05:11:42 14.2 C 94 % 13.25 C
2897 08-09-2003 05:23:42 14.2 C 94 % 13.25 C
2898 08-09-2003 05:35:42 14.1 C 94 % 13.15 C
2899 08-09-2003 05:47:42 13.8 C 94 % 12.85 C
2900 08-09-2003 05:59:42 13.7 C 93 % 12.59 C
Sensor: Nr:Datum:Temp:Feuchte:Taupunkt:
Aussen-T/F 2901 08-09-2003 06:11:42 13.5 C 93 % 12.39 C
2902 08-09-2003 06:23:42 13.4 C 93 % 12.29 C
2903 08-09-2003 06:35:42 13.5 C 93 % 12.39 C
2904 08-09-2003 06:47:42 13.6 C 93 % 12.49 C
2905 08-09-2003 06:59:42 13.4 C 93 % 12.29 C
2906 08-09-2003 07:11:42 13.4 C 93 % 12.29 C
2907 08-09-2003 07:23:42 13.6 C 94 % 12.65 C
2908 08-09-2003 07:35:02 13.5 C 94 % 12.55 C
2909 08-09-2003 07:47:02 13.5 C 94 % 12.55 C
2910 08-09-2003 07:59:02 13.5 C 94 % 12.55 C
2911 08-09-2003 08:11:02 13.5 C 94 % 12.55 C
2912 08-09-2003 08:23:02 13.5 C 93 % 12.39 C
2913 08-09-2003 08:35:01 13.5 C 93 % 12.39 C
2914 08-09-2003 08:47:01 13.5 C 93 % 12.39 C
2915 08-09-2003 08:59:01 13.4 C 92 % 12.13 C
2916 08-09-2003 09:11:00 13.4 C 92 % 12.13 C
2917 08-09-2003 09:23:00 13.3 C 92 % 12.03 C
2918 08-09-2003 09:35:01 13.5 C 91 % 12.06 C
2919 08-09-2003 09:47:01 13.8 C 91 % 12.36 C
2920 08-09-2003 09:59:01 14 C 90 % 12.39 C
2921 08-09-2003 10:11:00 14.2 C 90 % 12.58 C
2922 08-09-2003 10:23:00 14.4 C 88 % 12.44 C
2923 08-09-2003 10:35:01 14.6 C 85 % 12.11 C
2924 08-09-2003 10:47:01 14.5 C 86 % 12.19 C
2925 08-09-2003 10:59:01 14.4 C 87 % 12.27 C
Sensor: Nr:Datum:Temp:Feuchte:Taupunkt:
Aussen-T/F 2926 08-09-2003 11:11:01 14.7 C 84 % 12.03 C
2927 08-09-2003 11:23:01 15.4 C 82 % 12.35 C
2928 08-09-2003 11:35:01 15.4 C 76 % 11.19 C
2929 08-09-2003 11:47:01 15.5 C 71 % 10.27 C
2930 08-09-2003 11:59:01 15.7 C 65 % 9.15 C
2931 08-09-2003 12:11:01 16.8 C 69 % 11.09 C
2932 08-09-2003 12:23:01 16.9 C 61 % 9.34 C
2933 08-09-2003 12:35:01 17.4 C 54 % 8.01 C
2934 08-09-2003 12:47:01 18.3 C 55 % 9.11 C
2935 08-09-2003 12:59:01 18.7 C 55 % 9.48 C
2936 08-09-2003 13:11:02 18.8 C 59 % 10.63 C
2937 08-09-2003 13:23:02 19.3 C 60 % 11.35 C
2938 08-09-2003 13:35:01 20.7 C 50 % 9.91 C
2939 08-09-2003 13:47:01 20 C 55 % 10.69 C
2940 08-09-2003 13:59:01 19.5 C 59 % 11.28 C
2941 08-09-2003 14:11:02 21 C 52 % 10.78 C
2942 08-09-2003 14:23:02 22.3 C 46 % 10.13 C
2943 08-09-2003 14:35:01 20.5 C 55 % 11.16 C
2944 08-09-2003 14:47:01 18.5 C 60 % 10.6 C
2945 08-09-2003 14:59:01 18.1 C 67 % 11.88 C
2946 08-09-2003 15:11:02 19 C 69 % 13.19 C
2947 08-09-2003 15:23:02 20.9 C 53 % 10.97 C
2948 08-09-2003 15:35:01 21.9 C 45 % 9.44 C
2949 08-09-2003 15:47:01 22.6 C 41 % 8.69 C
2950 08-09-2003 15:59:01 22.9 C 39 % 8.22 C
Sensor: Nr:Datum:Temp:Feuchte:Taupunkt:
Aussen-T/F 2951 08-09-2003 16:11:01 22.8 C 45 % 10.25 C
2952 08-09-2003 16:23:01 22.5 C 43 % 9.31 C
2953 08-09-2003 16:35:00 23.1 C 39 % 8.4 C
2954 08-09-2003 16:47:00 24 C 40 % 9.58 C
2955 08-09-2003 16:59:00 23.1 C 38 % 8.02 C
2956 08-09-2003 17:11:01 23.1 C 42 % 9.5 C
2957 08-09-2003 17:23:01 21.1 C 44 % 8.38 C
2958 08-09-2003 17:35:00 20.8 C 50 % 10 C
2959 08-09-2003 17:47:00 20.2 C 54 % 10.6 C
2960 08-09-2003 17:59:00 19.2 C 59 % 11 C
2961 08-09-2003 18:11:01 18.6 C 61 % 10.94 C
2962 08-09-2003 18:23:01 18 C 61 % 10.37 C
2963 08-09-2003 18:35:01 17.8 C 63 % 10.67 C
2964 08-09-2003 18:47:01 17.7 C 65 % 11.04 C
2965 08-09-2003 18:59:01 17.6 C 65 % 10.95 C
2966 08-09-2003 19:11:01 17.8 C 62 % 10.43 C
2967 08-09-2003 19:23:01 17.6 C 64 % 10.72 C
2968 08-09-2003 19:35:02 17 C 65 % 10.38 C
2969 08-09-2003 19:47:02 16.4 C 65 % 9.81 C
2970 08-09-2003 19:59:02 15.9 C 69 % 10.23 C
2971 08-09-2003 20:11:01 15.7 C 70 % 10.25 C
2972 08-09-2003 20:23:01 15.5 C 69 % 9.84 C
2973 08-09-2003 20:35:01 15.3 C 71 % 10.08 C
2974 08-09-2003 20:47:01 14.9 C 71 % 9.69 C
2975 08-09-2003 20:59:01 14.7 C 72 % 9.71 C
Sensor: Nr:Datum:Temp:Feuchte:Taupunkt:
Aussen-T/F 2976 08-09-2003 21:12:09 14.8 C 74 % 10.22 C
2977 08-09-2003 21:24:09 14.7 C 73 % 9.92 C
2978 08-09-2003 21:36:09 14.5 C 72 % 9.52 C
2979 08-09-2003 21:48:09 14.1 C 73 % 9.34 C
2980 08-09-2003 22:00:09 13.9 C 74 % 9.35 C
2981 08-09-2003 22:12:09 13.7 C 76 % 9.55 C
2982 08-09-2003 22:24:09 13.5 C 77 % 9.55 C
2983 08-09-2003 22:36:09 13.3 C 78 % 9.55 C
2984 08-09-2003 22:48:09 13.2 C 78 % 9.45 C
2985 08-09-2003 23:00:09 13 C 79 % 9.45 C
2986 08-09-2003 23:12:09 12.8 C 81 % 9.62 C
2987 08-09-2003 23:24:09 12.7 C 82 % 9.71 C
2988 08-09-2003 23:36:09 12.5 C 82 % 9.51 C
2989 08-09-2003 23:48:09 12.4 C 82 % 9.42 C
2990 09-09-2003 00:00:09 12.1 C 83 % 9.3 C
2991 09-09-2003 00:12:09 11.9 C 84 % 9.29 C
2992 09-09-2003 00:24:09 11.8 C 85 % 9.36 C
2993 09-09-2003 00:36:09 11.8 C 85 % 9.36 C
2994 09-09-2003 00:48:09 11.7 C 86 % 9.44 C
2995 09-09-2003 01:00:09 11.7 C 86 % 9.44 C
2996 09-09-2003 01:12:09 11.6 C 87 % 9.51 C
2997 09-09-2003 01:24:09 11.4 C 87 % 9.32 C
2998 09-09-2003 01:36:09 11.3 C 87 % 9.22 C
2999 09-09-2003 01:48:09 11.2 C 88 % 9.29 C
3000 09-09-2003 02:00:09 11.1 C 87 % 9.02 C
Sensor: Nr:Datum:Temp:Feuchte:Taupunkt:
Aussen-T/F 3001 09-09-2003 02:12:09 11.1 C 88 % 9.19 C
3002 09-09-2003 02:24:09 11 C 89 % 9.26 C
3003 09-09-2003 02:36:09 11 C 89 % 9.26 C
3004 09-09-2003 02:48:09 10.8 C 89 % 9.06 C
3005 09-09-2003 03:00:09 10.6 C 89 % 8.86 C
3006 09-09-2003 03:12:09 10.5 C 89 % 8.77 C
3007 09-09-2003 03:24:09 10.4 C 89 % 8.67 C
3008 09-09-2003 03:36:09 10.4 C 89 % 8.67 C
3009 09-09-2003 03:48:09 10.3 C 89 % 8.57 C
3010 09-09-2003 04:00:09 10.2 C 89 % 8.47 C
3011 09-09-2003 04:12:09 10.2 C 90 % 8.64 C
3012 09-09-2003 04:24:09 10.1 C 90 % 8.54 C
3013 09-09-2003 04:36:09 10.2 C 91 % 8.8 C
3014 09-09-2003 04:48:09 10.3 C 91 % 8.9 C
3015 09-09-2003 05:00:09 10.4 C 92 % 9.16 C
3016 09-09-2003 05:12:09 10.6 C 92 % 9.36 C
3017 09-09-2003 05:24:09 10.7 C 92 % 9.45 C
3018 09-09-2003 05:36:09 10.4 C 91 % 9 C
3019 09-09-2003 05:48:09 10.1 C 92 % 8.86 C
3020 09-09-2003 06:00:09 10.2 C 92 % 8.96 C
3021 09-09-2003 06:12:09 10.4 C 92 % 9.16 C
3022 09-09-2003 06:24:09 10.6 C 92 % 9.36 C
3023 09-09-2003 06:36:09 10.7 C 91 % 9.29 C
3024 09-09-2003 06:48:09 10.7 C 91 % 9.29 C
3025 09-09-2003 07:00:09 10.7 C 91 % 9.29 C
Sensor: Nr:Datum:Temp:Feuchte:Taupunkt:
Aussen-T/F 3026 09-09-2003 07:12:09 10.5 C 91 % 9.09 C
3027 09-09-2003 07:24:09 10.6 C 91 % 9.19 C
3028 09-09-2003 07:36:09 10.5 C 91 % 9.09 C
3029 09-09-2003 07:48:09 10.5 C 91 % 9.09 C
3030 09-09-2003 08:00:09 10.7 C 91 % 9.29 C
3031 09-09-2003 08:12:09 10.9 C 91 % 9.49 C
3032 09-09-2003 08:24:05 11.1 C 90 % 9.52 C
3033 09-09-2003 08:36:00 11.3 C 90 % 9.72 C
3034 09-09-2003 08:48:00 11.4 C 88 % 9.49 C
3035 09-09-2003 09:00:00 11.8 C 88 % 9.88 C
3036 09-09-2003 09:12:00 11.6 C 87 % 9.51 C
3037 09-09-2003 09:24:00 11.7 C 88 % 9.78 C
3038 09-09-2003 09:36:01 11.8 C 88 % 9.88 C
3039 09-09-2003 09:48:01 12.2 C 87 % 10.1 C
3040 09-09-2003 10:00:01 12.5 C 86 % 10.22 C
3041 09-09-2003 10:12:01 13.4 C 82 % 10.39 C
3042 09-09-2003 10:24:01 13.9 C 79 % 10.32 C
3043 09-09-2003 10:36:01 14.5 C 77 % 10.52 C
3044 09-09-2003 10:48:01 15 C 74 % 10.41 C
3045 09-09-2003 11:00:01 15.2 C 73 % 10.4 C
3046 09-09-2003 11:12:00 15.1 C 74 % 10.5 C
3047 09-09-2003 11:24:00 15.4 C 74 % 10.79 C
3048 09-09-2003 11:36:01 15.6 C 73 % 10.78 C
3049 09-09-2003 11:48:01 16.1 C 73 % 11.26 C
3050 09-09-2003 12:00:01 16.6 C 72 % 11.54 C
Sensor: Nr:Datum:Temp:Feuchte:Taupunkt:
Aussen-T/F 3051 09-09-2003 12:12:01 17.1 C 69 % 11.37 C
3052 09-09-2003 12:24:01 17.7 C 69 % 11.95 C
3053 09-09-2003 12:36:00 18.2 C 65 % 11.52 C
3054 09-09-2003 12:48:00 18.4 C 58 % 9.99 C
3055 09-09-2003 13:00:00 18.9 C 54 % 9.4 C
3056 09-09-2003 13:12:02 19.1 C 50 % 8.44 C
3057 09-09-2003 13:24:02 19.7 C 48 % 8.39 C
3058 09-09-2003 13:36:00 20 C 49 % 8.97 C
3059 09-09-2003 13:48:00 20.3 C 48 % 8.94 C
3060 09-09-2003 14:00:00 20.1 C 49 % 9.06 C
3061 09-09-2003 14:12:01 21.2 C 45 % 8.8 C
3062 09-09-2003 14:24:01 20.6 C 45 % 8.26 C
3063 09-09-2003 14:36:01 22.3 C 40 % 8.06 C
3064 09-09-2003 14:48:01 22.2 C 40 % 7.97 C
3065 09-09-2003 15:00:01 21.2 C 42 % 7.79 C
3066 09-09-2003 15:12:01 20.4 C 44 % 7.75 C
3067 09-09-2003 15:24:01 20.4 C 43 % 7.41 C
3068 09-09-2003 15:36:01 20.9 C 42 % 7.52 C
3069 09-09-2003 15:48:01 22.6 C 38 % 7.57 C
3070 09-09-2003 16:00:01 22.9 C 39 % 8.22 C
3071 09-09-2003 16:12:01 22.8 C 36 % 6.96 C
3072 09-09-2003 16:24:01 22.2 C 37 % 6.83 C
3073 09-09-2003 16:36:01 21.4 C 39 % 6.89 C
3074 09-09-2003 16:48:01 22.1 C 37 % 6.74 C
3075 09-09-2003 17:00:01 21.4 C 38 % 6.51 C
Sensor: Nr:Datum:Temp:Feuchte:Taupunkt:
Aussen-T/F 3076 09-09-2003 17:12:03 21.6 C 40 % 7.43 C
3077 09-09-2003 17:24:03 21.8 C 40 % 7.61 C
3078 09-09-2003 17:36:01 21.7 C 41 % 7.88 C
3079 09-09-2003 17:48:01 22.3 C 38 % 7.31 C
3080 09-09-2003 18:00:01 23.1 C 38 % 8.02 C
3081 09-09-2003 18:12:01 22.2 C 40 % 7.97 C
3082 09-09-2003 18:24:01 21.3 C 42 % 7.88 C
3083 09-09-2003 18:36:01 21.9 C 46 % 9.77 C
3084 09-09-2003 18:48:01 22.2 C 40 % 7.97 C
3085 09-09-2003 19:00:01 21.4 C 41 % 7.62 C
3086 09-09-2003 19:12:01 20.8 C 42 % 7.43 C
3087 09-09-2003 19:24:01 20.4 C 47 % 8.72 C
3088 09-09-2003 19:36:03 19.9 C 52 % 9.76 C
3089 09-09-2003 19:48:03 18.5 C 55 % 9.3 C
3090 09-09-2003 20:00:03 17.6 C 57 % 8.99 C
3091 09-09-2003 20:12:01 17.1 C 59 % 9.03 C
3092 09-09-2003 20:24:01 16.7 C 61 % 9.15 C
3093 09-09-2003 20:36:02 16.3 C 62 % 9.01 C
3094 09-09-2003 20:48:02 16 C 63 % 8.97 C
3095 09-09-2003 21:00:02 15.9 C 63 % 8.87 C
3096 09-09-2003 21:12:01 15.9 C 63 % 8.87 C
3097 09-09-2003 21:24:01 15.7 C 66 % 9.37 C
3098 09-09-2003 21:37:01 15.6 C 66 % 9.28 C
3099 09-09-2003 21:49:01 15.2 C 67 % 9.12 C
3100 09-09-2003 22:01:01 14.8 C 71 % 9.6 C
Sensor: Nr:Datum:Temp:Feuchte:Taupunkt:
Aussen-T/F 3101 09-09-2003 22:13:01 14.4 C 69 % 8.79 C
3102 09-09-2003 22:25:01 14.3 C 70 % 8.91 C
3103 09-09-2003 22:37:01 14.4 C 71 % 9.21 C
3104 09-09-2003 22:49:01 14.2 C 74 % 9.64 C
3105 09-09-2003 23:01:01 13.8 C 75 % 9.45 C
3106 09-09-2003 23:13:01 14 C 75 % 9.64 C
3107 09-09-2003 23:25:01 13.6 C 77 % 9.65 C
3108 09-09-2003 23:37:01 13.4 C 77 % 9.45 C
3109 09-09-2003 23:49:01 13.5 C 77 % 9.55 C
3110 10-09-2003 00:01:01 13.6 C 77 % 9.65 C
3111 10-09-2003 00:13:01 13.5 C 77 % 9.55 C
3112 10-09-2003 00:25:01 13.3 C 79 % 9.74 C
3113 10-09-2003 00:37:01 13.3 C 79 % 9.74 C
3114 10-09-2003 00:49:01 13.5 C 79 % 9.93 C
3115 10-09-2003 01:01:01 13.7 C 78 % 9.94 C
3116 10-09-2003 01:13:01 13.9 C 77 % 9.94 C
3117 10-09-2003 01:25:01 13.8 C 78 % 10.03 C
3118 10-09-2003 01:37:01 13.9 C 78 % 10.13 C
3119 10-09-2003 01:49:01 13.7 C 79 % 10.13 C
3120 10-09-2003 02:01:01 13.8 C 79 % 10.22 C
3121 10-09-2003 02:13:01 13.5 C 81 % 10.31 C
3122 10-09-2003 02:25:01 13.4 C 84 % 10.75 C
3123 10-09-2003 02:37:01 13.3 C 86 % 11.01 C
3124 10-09-2003 02:49:01 13.2 C 87 % 11.09 C
3125 10-09-2003 03:01:01 13.1 C 88 % 11.16 C
Sensor: Nr:Datum:Temp:Feuchte:Taupunkt:
Aussen-T/F 3126 10-09-2003 03:13:01 13.2 C 89 % 11.43 C
3127 10-09-2003 03:25:01 13.1 C 89 % 11.33 C
3128 10-09-2003 03:37:01 13.1 C 90 % 11.5 C
3129 10-09-2003 03:49:01 13 C 90 % 11.4 C
3130 10-09-2003 04:01:01 13 C 91 % 11.57 C
3131 10-09-2003 04:13:01 13 C 91 % 11.57 C
3132 10-09-2003 04:25:01 13.1 C 91 % 11.67 C
3133 10-09-2003 04:37:01 12.9 C 92 % 11.63 C
3134 10-09-2003 04:49:01 13 C 92 % 11.73 C
3135 10-09-2003 05:01:01 12.9 C 93 % 11.8 C
3136 10-09-2003 05:13:01 12.8 C 93 % 11.7 C
3137 10-09-2003 05:25:01 12.8 C 93 % 11.7 C
3138 10-09-2003 05:37:01 12.8 C 93 % 11.7 C
3139 10-09-2003 05:49:01 12.7 C 93 % 11.6 C
3140 10-09-2003 06:01:01 12.6 C 93 % 11.5 C
3141 10-09-2003 06:13:01 12.6 C 93 % 11.5 C
3142 10-09-2003 06:25:01 12.7 C 93 % 11.6 C
3143 10-09-2003 06:37:01 12.7 C 93 % 11.6 C
3144 10-09-2003 06:49:01 12.6 C 93 % 11.5 C
3145 10-09-2003 07:01:01 12.5 C 93 % 11.4 C
3146 10-09-2003 07:13:01 12.5 C 93 % 11.4 C
3147 10-09-2003 07:25:01 12.5 C 92 % 11.24 C
3148 10-09-2003 07:37:01 12.7 C 92 % 11.43 C
3149 10-09-2003 07:49:01 12.8 C 91 % 11.37 C
3150 10-09-2003 08:01:01 13 C 90 % 11.4 C
Sensor: Nr:Datum:Temp:Feuchte:Taupunkt:
Aussen-T/F 3151 10-09-2003 08:13:01 13.3 C 89 % 11.53 C
3152 10-09-2003 08:25:01 13.2 C 88 % 11.26 C
3153 10-09-2003 08:37:00 13.3 C 88 % 11.36 C
3154 10-09-2003 08:49:00 13.4 C 87 % 11.28 C
3155 10-09-2003 09:01:00 13.5 C 87 % 11.38 C
3156 10-09-2003 09:13:02 13.5 C 87 % 11.38 C
3157 10-09-2003 09:25:02 14.2 C 83 % 11.36 C
3158 10-09-2003 09:37:01 14.3 C 83 % 11.45 C
3159 10-09-2003 09:49:01 14.7 C 82 % 11.66 C
3160 10-09-2003 10:01:01 14.8 C 81 % 11.57 C
3161 10-09-2003 10:13:01 15.1 C 79 % 11.49 C
3162 10-09-2003 10:25:01 15.4 C 76 % 11.19 C
3163 10-09-2003 10:37:01 15.6 C 73 % 10.78 C
3164 10-09-2003 10:49:01 15.8 C 73 % 10.97 C
3165 10-09-2003 11:01:01 16.2 C 71 % 10.94 C
3166 10-09-2003 11:13:03 16.4 C 69 % 10.7 C
3167 10-09-2003 11:25:03 16.4 C 68 % 10.48 C
3168 10-09-2003 11:37:01 17 C 65 % 10.38 C
3169 10-09-2003 11:49:01 17 C 63 % 9.91 C
3170 10-09-2003 12:01:01 17.4 C 61 % 9.81 C
3171 10-09-2003 12:13:01 17.8 C 59 % 9.69 C
3172 10-09-2003 12:25:01 18.1 C 58 % 9.71 C
3173 10-09-2003 12:37:01 17.9 C 58 % 9.53 C
3174 10-09-2003 12:49:01 17.6 C 58 % 9.25 C
3175 10-09-2003 13:01:01 17.4 C 59 % 9.31 C
Sensor: Nr:Datum:Temp:Feuchte:Taupunkt:
Aussen-T/F 3176 10-09-2003 13:13:01 17.9 C 58 % 9.53 C
3177 10-09-2003 13:25:01 18 C 56 % 9.1 C
3178 10-09-2003 13:37:02 17.6 C 57 % 8.99 C
3179 10-09-2003 13:49:02 17.7 C 57 % 9.08 C
3180 10-09-2003 14:01:02 17.3 C 60 % 9.47 C
3181 10-09-2003 14:13:02 16.4 C 65 % 9.81 C
3182 10-09-2003 14:25:02 16.5 C 67 % 10.36 C
3183 10-09-2003 14:37:01 16 C 68 % 10.1 C
3184 10-09-2003 14:49:01 16.4 C 63 % 9.35 C
3185 10-09-2003 15:01:01 16.7 C 62 % 9.39 C
3186 10-09-2003 15:13:01 16.2 C 66 % 9.85 C
3187 10-09-2003 15:25:01 14.8 C 74 % 10.22 C
3188 10-09-2003 15:37:01 14.6 C 79 % 11 C
3189 10-09-2003 15:49:01 14.6 C 79 % 11 C
3190 10-09-2003 16:01:01 14.6 C 86 % 12.29 C
3191 10-09-2003 16:13:01 15.2 C 86 % 12.88 C
3192 10-09-2003 16:25:01 15.8 C 73 % 10.97 C
3193 10-09-2003 16:37:01 16 C 70 % 10.54 C
3194 10-09-2003 16:49:01 16.3 C 67 % 10.17 C
3195 10-09-2003 17:01:01 16.6 C 64 % 9.77 C
3196 10-09-2003 17:13:02 16.5 C 64 % 9.67 C
3197 10-09-2003 17:25:02 16.7 C 63 % 9.63 C
3198 10-09-2003 17:37:01 16.7 C 63 % 9.63 C
3199 10-09-2003 17:49:01 16.5 C 65 % 9.9 C
3200 10-09-2003 18:01:01 16 C 67 % 9.88 C
Sensor: Nr:Datum:Temp:Feuchte:Taupunkt:
Aussen-T/F 3201 10-09-2003 18:13:02 16 C 68 % 10.1 C
3202 10-09-2003 18:25:02 16 C 67 % 9.88 C
3203 10-09-2003 18:37:00 15.8 C 69 % 10.13 C
3204 10-09-2003 18:49:00 15.6 C 70 % 10.15 C
3205 10-09-2003 19:01:00 15.5 C 72 % 10.48 C
3206 10-09-2003 19:13:01 15.4 C 73 % 10.59 C
3207 10-09-2003 19:25:01 15.3 C 74 % 10.7 C
3208 10-09-2003 19:37:02 15.2 C 74 % 10.6 C
3209 10-09-2003 19:49:02 15.3 C 75 % 10.9 C
3210 10-09-2003 20:01:02 15.3 C 75 % 10.9 C
3211 10-09-2003 20:13:01 15.3 C 76 % 11.1 C
3212 10-09-2003 20:25:01 15.1 C 77 % 11.1 C
3213 10-09-2003 20:37:00 15 C 80 % 11.58 C
3214 10-09-2003 20:49:00 14.8 C 82 % 11.76 C
3215 10-09-2003 21:01:00 15.2 C 79 % 11.59 C
3216 10-09-2003 21:13:01 15.4 C 78 % 11.59 C
3217 10-09-2003 21:25:01 15.4 C 77 % 11.39 C
3218 10-09-2003 21:37:01 15.6 C 76 % 11.39 C
3219 10-09-2003 21:49:01 15.7 C 76 % 11.48 C
3220 10-09-2003 22:01:01 15.7 C 76 % 11.48 C
3221 10-09-2003 22:14:04 15.7 C 77 % 11.68 C
3222 10-09-2003 22:26:04 15.7 C 77 % 11.68 C
3223 10-09-2003 22:38:04 15.5 C 79 % 11.88 C
3224 10-09-2003 22:50:04 15.2 C 82 % 12.15 C
3225 10-09-2003 23:02:04 14.9 C 86 % 12.58 C
Sensor: Nr:Datum:Temp:Feuchte:Taupunkt:
Aussen-T/F 3226 10-09-2003 23:14:04 14.7 C 88 % 12.73 C
3227 10-09-2003 23:26:04 14.7 C 89 % 12.91 C
3228 10-09-2003 23:38:04 14.1 C 89 % 12.32 C
3229 10-09-2003 23:50:04 13.7 C 88 % 11.75 C
3230 11-09-2003 00:02:04 13.3 C 87 % 11.18 C
3231 11-09-2003 00:14:04 13.2 C 88 % 11.26 C
3232 11-09-2003 00:26:04 13.2 C 87 % 11.09 C
3233 11-09-2003 00:38:04 13.2 C 85 % 10.74 C
3234 11-09-2003 00:50:04 13 C 84 % 10.36 C
3235 11-09-2003 01:02:04 12.9 C 84 % 10.26 C
3236 11-09-2003 01:14:04 12.8 C 85 % 10.34 C
3237 11-09-2003 01:26:04 12.7 C 85 % 10.25 C
3238 11-09-2003 01:38:04 12.4 C 85 % 9.95 C
3239 11-09-2003 01:50:04 12.3 C 84 % 9.68 C
3240 11-09-2003 02:02:04 12.2 C 85 % 9.76 C
3241 11-09-2003 02:14:04 12.5 C 83 % 9.69 C
3242 11-09-2003 02:26:04 12.5 C 81 % 9.33 C
3243 11-09-2003 02:38:04 12.5 C 80 % 9.15 C
3244 11-09-2003 02:50:04 12.5 C 79 % 8.96 C
3245 11-09-2003 03:02:04 12.4 C 79 % 8.86 C
3246 11-09-2003 03:14:04 12.4 C 78 % 8.68 C
3247 11-09-2003 03:26:04 12.4 C 78 % 8.68 C
3248 11-09-2003 03:38:04 12.3 C 78 % 8.58 C
3249 11-09-2003 03:50:04 12.2 C 78 % 8.48 C
3250 11-09-2003 04:02:04 12.1 C 77 % 8.2 C
Sensor: Nr:Datum:Temp:Feuchte:Taupunkt:
Aussen-T/F 3251 11-09-2003 04:14:04 12.1 C 78 % 8.38 C
3252 11-09-2003 04:26:04 12.3 C 77 % 8.39 C
3253 11-09-2003 04:38:04 12.2 C 77 % 8.29 C
3254 11-09-2003 04:50:04 12.2 C 77 % 8.29 C
3255 11-09-2003 05:02:04 12.3 C 77 % 8.39 C
3256 11-09-2003 05:14:04 12.2 C 77 % 8.29 C
3257 11-09-2003 05:26:04 12.1 C 77 % 8.2 C
3258 11-09-2003 05:38:04 12.1 C 77 % 8.2 C
3259 11-09-2003 05:50:04 12 C 77 % 8.1 C
3260 11-09-2003 06:02:04 12.1 C 77 % 8.2 C
3261 11-09-2003 06:14:04 12.5 C 75 % 8.19 C
3262 11-09-2003 06:26:04 12.3 C 76 % 8.2 C
3263 11-09-2003 06:38:04 12.2 C 77 % 8.29 C
3264 11-09-2003 06:50:04 12.4 C 76 % 8.29 C
3265 11-09-2003 07:02:04 12.4 C 76 % 8.29 C
3266 11-09-2003 07:14:04 12.3 C 78 % 8.58 C
3267 11-09-2003 07:26:04 12.3 C 78 % 8.58 C
3268 11-09-2003 07:38:04 12.5 C 77 % 8.58 C
3269 11-09-2003 07:50:04 12.6 C 77 % 8.68 C
3270 11-09-2003 08:02:04 12.6 C 78 % 8.87 C
3271 11-09-2003 08:14:04 12.8 C 78 % 9.06 C
3272 11-09-2003 08:26:04 13 C 76 % 8.87 C
3273 11-09-2003 08:38:01 13.1 C 76 % 8.97 C
3274 11-09-2003 08:50:01 13.5 C 74 % 8.96 C
3275 11-09-2003 09:02:01 13.7 C 74 % 9.15 C
Sensor: Nr:Datum:Temp:Feuchte:Taupunkt:
Aussen-T/F 3276 11-09-2003 09:14:01 14 C 71 % 8.83 C
3277 11-09-2003 09:26:01 14.7 C 70 % 9.29 C
3278 11-09-2003 09:38:02 14.6 C 69 % 8.98 C
3279 11-09-2003 09:50:02 14.4 C 69 % 8.79 C
3280 11-09-2003 10:02:01 14.8 C 69 % 9.17 C
3281 11-09-2003 10:14:01 14.8 C 68 % 8.96 C
3282 11-09-2003 10:26:01 14.8 C 67 % 8.74 C
3283 11-09-2003 10:38:01 15.3 C 64 % 8.54 C
3284 11-09-2003 10:50:01 15.4 C 64 % 8.63 C
3285 11-09-2003 11:02:01 15.6 C 63 % 8.59 C
3286 11-09-2003 11:14:01 16 C 60 % 8.25 C
3287 11-09-2003 11:26:01 16.3 C 57 % 7.77 C
3288 11-09-2003 11:38:02 16.3 C 54 % 6.98 C
3289 11-09-2003 11:50:02 16.9 C 54 % 7.54 C
3290 11-09-2003 12:02:01 16.5 C 53 % 6.9 C
3291 11-09-2003 12:14:01 17.1 C 50 % 6.6 C
3292 11-09-2003 12:26:01 17.1 C 50 % 6.6 C
3293 11-09-2003 12:38:01 17.1 C 50 % 6.6 C
3294 11-09-2003 12:50:01 17.2 C 49 % 6.4 C
3295 11-09-2003 13:02:01 16.9 C 50 % 6.42 C
3296 11-09-2003 13:14:01 17.2 C 47 % 5.8 C
3297 11-09-2003 13:26:01 17.2 C 46 % 5.49 C
3298 11-09-2003 13:38:01 17.1 C 47 % 5.71 C
3299 11-09-2003 13:50:01 17.5 C 47 % 6.07 C
3300 11-09-2003 14:02:02 17.4 C 47 % 5.98 C
Sensor: Nr:Datum:Temp:Feuchte:Taupunkt:
Aussen-T/F 3301 11-09-2003 14:14:02 17.6 C 48 % 6.47 C
3302 11-09-2003 14:26:02 17.9 C 46 % 6.13 C
3303 11-09-2003 14:38:01 17.4 C 50 % 6.88 C
3304 11-09-2003 14:50:01 17.6 C 50 % 7.06 C
3305 11-09-2003 15:02:02 17.9 C 49 % 7.05 C
3306 11-09-2003 15:14:02 17.4 C 51 % 7.17 C
3307 11-09-2003 15:26:02 17.1 C 53 % 7.45 C
3308 11-09-2003 15:38:02 17.4 C 51 % 7.17 C
3309 11-09-2003 15:50:02 17.5 C 51 % 7.26 C
3310 11-09-2003 16:02:02 17.2 C 51 % 6.98 C
3311 11-09-2003 16:14:02 16.9 C 55 % 7.81 C
3312 11-09-2003 16:26:02 16.8 C 53 % 7.18 C
3313 11-09-2003 16:38:01 16.7 C 54 % 7.36 C
3314 11-09-2003 16:50:01 16.7 C 56 % 7.89 C
3315 11-09-2003 17:02:02 16.4 C 61 % 8.87 C
3316 11-09-2003 17:14:02 15.3 C 70 % 9.87 C
3317 11-09-2003 17:26:02 15.6 C 70 % 10.15 C
3318 11-09-2003 17:38:01 15.8 C 68 % 9.91 C
3319 11-09-2003 17:50:01 16.1 C 65 % 9.53 C
3320 11-09-2003 18:02:01 16.4 C 64 % 9.58 C
3321 11-09-2003 18:14:01 16.5 C 62 % 9.2 C
3322 11-09-2003 18:26:01 16.4 C 62 % 9.11 C
3323 11-09-2003 18:38:02 17 C 58 % 8.69 C
3324 11-09-2003 18:50:02 16.8 C 60 % 9 C
3325 11-09-2003 19:02:01 16.8 C 61 % 9.24 C
Sensor: Nr:Datum:Temp:Feuchte:Taupunkt:
Aussen-T/F 3326 11-09-2003 19:14:01 16.6 C 61 % 9.06 C
3327 11-09-2003 19:26:01 16.4 C 62 % 9.11 C
3328 11-09-2003 19:38:01 16.4 C 62 % 9.11 C
3329 11-09-2003 19:50:01 16.2 C 62 % 8.92 C
3330 11-09-2003 20:02:01 16.1 C 62 % 8.82 C
3331 11-09-2003 20:14:01 16.2 C 61 % 8.68 C
3332 11-09-2003 20:26:01 16 C 60 % 8.25 C
3333 11-09-2003 20:38:01 15.9 C 61 % 8.4 C
3334 11-09-2003 20:50:01 16.3 C 58 % 8.03 C
3335 11-09-2003 21:02:02 16.2 C 57 % 7.68 C
3336 11-09-2003 21:14:02 16.1 C 57 % 7.59 C
3337 11-09-2003 21:26:02 16.2 C 56 % 7.42 C
3338 11-09-2003 21:38:00 16.1 C 57 % 7.59 C
3339 11-09-2003 21:50:00 16 C 57 % 7.49 C
3340 11-09-2003 22:03:01 15.9 C 59 % 7.91 C
3341 11-09-2003 22:15:01 15.9 C 59 % 7.91 C
3342 11-09-2003 22:27:01 15.9 C 58 % 7.66 C
3343 11-09-2003 22:39:01 15.8 C 58 % 7.56 C
3344 11-09-2003 22:51:01 15.7 C 59 % 7.72 C
3345 11-09-2003 23:03:01 15.7 C 59 % 7.72 C
3346 11-09-2003 23:15:01 15.5 C 60 % 7.78 C
3347 11-09-2003 23:27:01 15.4 C 60 % 7.68 C
3348 11-09-2003 23:39:01 15.4 C 61 % 7.93 C
3349 11-09-2003 23:51:01 15.4 C 61 % 7.93 C
3350 12-09-2003 00:03:01 15.2 C 62 % 7.98 C
Sensor: Nr:Datum:Temp:Feuchte:Taupunkt:
Aussen-T/F 3351 12-09-2003 00:15:01 15.2 C 63 % 8.21 C
3352 12-09-2003 00:27:01 15.1 C 63 % 8.12 C
3353 12-09-2003 00:39:01 15.1 C 63 % 8.12 C
3354 12-09-2003 00:51:01 15 C 63 % 8.02 C
3355 12-09-2003 01:03:01 15 C 63 % 8.02 C
3356 12-09-2003 01:15:01 15 C 64 % 8.25 C
3357 12-09-2003 01:27:01 14.8 C 66 % 8.52 C
3358 12-09-2003 01:39:01 14.8 C 66 % 8.52 C
3359 12-09-2003 01:51:01 14.7 C 66 % 8.42 C
3360 12-09-2003 02:03:01 14.6 C 67 % 8.55 C
3361 12-09-2003 02:15:01 14.6 C 68 % 8.77 C
3362 12-09-2003 02:27:01 14.5 C 68 % 8.67 C
3363 12-09-2003 02:39:01 14.4 C 67 % 8.36 C
3364 12-09-2003 02:51:01 14.2 C 67 % 8.17 C
3365 12-09-2003 03:03:01 13.9 C 69 % 8.31 C
3366 12-09-2003 03:15:01 14 C 69 % 8.41 C
3367 12-09-2003 03:27:01 14 C 69 % 8.41 C
3368 12-09-2003 03:39:01 14 C 69 % 8.41 C
3369 12-09-2003 03:51:01 14 C 69 % 8.41 C
3370 12-09-2003 04:03:01 14.1 C 70 % 8.72 C
3371 12-09-2003 04:15:01 14 C 70 % 8.62 C
3372 12-09-2003 04:27:01 13.8 C 71 % 8.64 C
3373 12-09-2003 04:39:01 13.8 C 72 % 8.85 C
3374 12-09-2003 04:51:01 13.7 C 72 % 8.75 C
3375 12-09-2003 05:03:01 13.7 C 72 % 8.75 C
Sensor: Nr:Datum:Temp:Feuchte:Taupunkt:
Aussen-T/F 3376 12-09-2003 05:15:01 13.6 C 73 % 8.86 C
3377 12-09-2003 05:27:01 13.5 C 73 % 8.76 C
3378 12-09-2003 05:39:01 13.5 C 73 % 8.76 C
3379 12-09-2003 05:51:01 13.6 C 73 % 8.86 C
3380 12-09-2003 06:03:01 13.4 C 74 % 8.87 C
3381 12-09-2003 06:15:01 13.4 C 74 % 8.87 C
3382 12-09-2003 06:27:01 13.4 C 75 % 9.06 C
3383 12-09-2003 06:39:01 13.3 C 76 % 9.16 C
3384 12-09-2003 06:51:01 13.1 C 78 % 9.36 C
3385 12-09-2003 07:03:01 13 C 77 % 9.07 C
3386 12-09-2003 07:15:01 12.9 C 78 % 9.16 C
3387 12-09-2003 07:27:01 13 C 77 % 9.07 C
3388 12-09-2003 07:39:01 12.9 C 78 % 9.16 C
3389 12-09-2003 07:51:01 12.8 C 78 % 9.06 C
3390 12-09-2003 08:03:01 12.9 C 78 % 9.16 C
3391 12-09-2003 08:15:01 12.9 C 79 % 9.35 C
3392 12-09-2003 08:27:01 12.9 C 79 % 9.35 C
3393 12-09-2003 08:39:02 12.9 C 79 % 9.35 C
3394 12-09-2003 08:51:02 13 C 78 % 9.26 C
3395 12-09-2003 09:03:02 13 C 77 % 9.07 C
3396 12-09-2003 09:15:02 13 C 77 % 9.07 C
3397 12-09-2003 09:27:02 12.8 C 80 % 9.44 C
3398 12-09-2003 09:39:02 12.9 C 80 % 9.54 C
3399 12-09-2003 09:51:02 13.1 C 78 % 9.36 C
3400 12-09-2003 10:03:02 13.1 C 78 % 9.36 C
Sensor: Nr:Datum:Temp:Feuchte:Taupunkt:
Aussen-T/F 3401 12-09-2003 10:15:02 13 C 79 % 9.45 C
3402 12-09-2003 10:27:02 12.9 C 82 % 9.9 C
3403 12-09-2003 10:39:02 13 C 81 % 9.82 C
3404 12-09-2003 10:51:02 13.4 C 78 % 9.65 C
3405 12-09-2003 11:03:01 13.8 C 76 % 9.65 C
3406 12-09-2003 11:15:01 14.2 C 73 % 9.43 C
3407 12-09-2003 11:27:01 14.7 C 72 % 9.71 C
3408 12-09-2003 11:39:01 15 C 69 % 9.36 C
3409 12-09-2003 11:51:01 15.7 C 67 % 9.6 C
3410 12-09-2003 12:03:02 16.2 C 64 % 9.39 C
3411 12-09-2003 12:15:02 16.7 C 63 % 9.63 C
3412 12-09-2003 12:27:02 17.3 C 62 % 9.96 C
3413 12-09-2003 12:39:01 17.9 C 60 % 10.03 C
3414 12-09-2003 12:51:01 18.7 C 59 % 10.53 C
3415 12-09-2003 13:03:01 19.7 C 54 % 10.14 C
3416 12-09-2003 13:15:01 20.3 C 50 % 9.54 C
3417 12-09-2003 13:27:01 20 C 51 % 9.56 C
3418 12-09-2003 13:39:01 19.2 C 51 % 8.83 C
3419 12-09-2003 13:51:01 20.4 C 52 % 10.22 C
3420 12-09-2003 14:03:01 20.8 C 48 % 9.4 C
3421 12-09-2003 14:15:01 20.7 C 50 % 9.91 C
3422 12-09-2003 14:27:01 20.4 C 50 % 9.64 C
3423 12-09-2003 14:39:02 20.7 C 50 % 9.91 C
3424 12-09-2003 14:51:02 20.9 C 50 % 10.1 C
3425 12-09-2003 15:03:01 22 C 44 % 9.2 C
Sensor: Nr:Datum:Temp:Feuchte:Taupunkt:
Aussen-T/F 3426 12-09-2003 15:15:01 22.7 C 43 % 9.49 C
3427 12-09-2003 15:27:01 23.4 C 42 % 9.77 C
3428 12-09-2003 15:39:01 23.6 C 40 % 9.22 C
3429 12-09-2003 15:51:01 22.7 C 42 % 9.14 C
3430 12-09-2003 16:03:02 23.5 C 39 % 8.76 C
3431 12-09-2003 16:15:02 23.1 C 39 % 8.4 C
3432 12-09-2003 16:27:02 23.7 C 38 % 8.55 C
3433 12-09-2003 16:39:02 23.7 C 38 % 8.55 C
3434 12-09-2003 16:51:02 24.6 C 36 % 8.55 C
3435 12-09-2003 17:03:02 25.5 C 32 % 7.6 C
3436 12-09-2003 17:15:02 25 C 33 % 7.62 C
3437 12-09-2003 17:27:02 25.5 C 34 % 8.5 C
3438 12-09-2003 17:39:01 25.2 C 32 % 7.34 C
3439 12-09-2003 17:51:01 23.7 C 38 % 8.55 C
3440 12-09-2003 18:03:01 23.2 C 39 % 8.49 C
3441 12-09-2003 18:15:01 23.1 C 40 % 8.77 C
3442 12-09-2003 18:27:01 22.4 C 44 % 9.56 C
3443 12-09-2003 18:39:01 21.7 C 49 % 10.53 C
3444 12-09-2003 18:51:01 21 C 49 % 9.89 C
3445 12-09-2003 19:03:01 19.9 C 54 % 10.32 C
3446 12-09-2003 19:15:01 18.8 C 57 % 10.11 C
3447 12-09-2003 19:27:01 18.3 C 57 % 9.64 C
3448 12-09-2003 19:39:02 18 C 58 % 9.62 C
3449 12-09-2003 19:51:02 17.7 C 61 % 10.09 C
3450 12-09-2003 20:03:01 17.5 C 61 % 9.9 C
Sensor: Nr:Datum:Temp:Feuchte:Taupunkt:
Aussen-T/F 3451 12-09-2003 20:15:01 17.1 C 62 % 9.77 C
3452 12-09-2003 20:27:01 17.1 C 64 % 10.24 C
3453 12-09-2003 20:39:02 17.1 C 63 % 10.01 C
3454 12-09-2003 20:51:02 17.5 C 62 % 10.15 C
3455 12-09-2003 21:03:01 17.6 C 63 % 10.48 C
3456 12-09-2003 21:15:01 17.6 C 63 % 10.48 C
3457 12-09-2003 21:27:01 17.6 C 61 % 10 C
3458 12-09-2003 21:39:01 17.6 C 62 % 10.24 C
3459 12-09-2003 21:51:01 17.6 C 62 % 10.24 C
3460 12-09-2003 22:03:02 17.4 C 63 % 10.29 C
3461 12-09-2003 22:15:02 17.5 C 62 % 10.15 C
3462 12-09-2003 22:27:02 17.5 C 63 % 10.38 C
3463 12-09-2003 22:40:03 17.2 C 64 % 10.34 C
3464 12-09-2003 22:52:03 17.3 C 63 % 10.2 C
3465 12-09-2003 23:04:03 17.2 C 63 % 10.1 C
3466 12-09-2003 23:16:03 17.3 C 64 % 10.43 C
3467 12-09-2003 23:28:03 17.2 C 64 % 10.34 C
3468 12-09-2003 23:40:03 17 C 65 % 10.38 C
3469 12-09-2003 23:52:03 17 C 65 % 10.38 C
3470 13-09-2003 00:04:03 17 C 65 % 10.38 C
3471 13-09-2003 00:16:03 17 C 66 % 10.61 C
3472 13-09-2003 00:28:03 16.8 C 67 % 10.64 C
3473 13-09-2003 00:40:03 16.7 C 68 % 10.77 C
3474 13-09-2003 00:52:03 16.5 C 69 % 10.8 C
3475 13-09-2003 01:04:03 16.5 C 70 % 11.01 C
Sensor: Nr:Datum:Temp:Feuchte:Taupunkt:
Aussen-T/F 3476 13-09-2003 01:16:03 16.4 C 71 % 11.13 C
3477 13-09-2003 01:28:03 16.4 C 71 % 11.13 C
3478 13-09-2003 01:40:03 16.1 C 72 % 11.06 C
3479 13-09-2003 01:52:03 16 C 73 % 11.17 C
3480 13-09-2003 02:04:03 15.7 C 75 % 11.28 C
3481 13-09-2003 02:16:03 15.4 C 76 % 11.19 C
3482 13-09-2003 02:28:03 15.5 C 77 % 11.49 C
3483 13-09-2003 02:40:03 15.6 C 77 % 11.59 C
3484 13-09-2003 02:52:03 15.8 C 77 % 11.78 C
3485 13-09-2003 03:04:03 15.8 C 77 % 11.78 C
3486 13-09-2003 03:16:03 15.8 C 77 % 11.78 C
3487 13-09-2003 03:28:03 15.8 C 77 % 11.78 C
3488 13-09-2003 03:40:03 15.8 C 77 % 11.78 C
3489 13-09-2003 03:52:03 15.8 C 77 % 11.78 C
3490 13-09-2003 04:04:03 15.7 C 78 % 11.88 C
3491 13-09-2003 04:16:03 15.6 C 78 % 11.78 C
3492 13-09-2003 04:28:03 15.6 C 79 % 11.97 C
3493 13-09-2003 04:40:03 15.7 C 78 % 11.88 C
3494 13-09-2003 04:52:03 15.7 C 79 % 12.07 C
3495 13-09-2003 05:04:03 15.6 C 79 % 11.97 C
3496 13-09-2003 05:16:03 15.5 C 79 % 11.88 C
3497 13-09-2003 05:28:03 15.2 C 80 % 11.78 C
3498 13-09-2003 05:40:03 15.1 C 80 % 11.68 C
3499 13-09-2003 05:52:03 15 C 80 % 11.58 C
3500 13-09-2003 06:04:03 14.9 C 82 % 11.86 C
Sensor: Nr:Datum:Temp:Feuchte:Taupunkt:
Aussen-T/F 3501 13-09-2003 06:16:03 14.9 C 82 % 11.86 C
3502 13-09-2003 06:28:03 14.8 C 82 % 11.76 C
3503 13-09-2003 06:40:03 14.7 C 82 % 11.66 C
3504 13-09-2003 06:52:03 14.8 C 81 % 11.57 C
3505 13-09-2003 07:04:03 14.9 C 82 % 11.86 C
3506 13-09-2003 07:16:03 14.9 C 81 % 11.67 C
3507 13-09-2003 07:28:03 14.6 C 81 % 11.38 C
3508 13-09-2003 07:40:03 14.3 C 82 % 11.27 C
3509 13-09-2003 07:52:03 14.3 C 83 % 11.45 C
3510 13-09-2003 08:04:03 14.7 C 82 % 11.66 C
3511 13-09-2003 08:16:03 15.2 C 79 % 11.59 C
3512 13-09-2003 08:28:03 15.6 C 77 % 11.59 C
3513 13-09-2003 08:40:01 15.6 C 75 % 11.19 C
3514 13-09-2003 08:52:01 15.5 C 74 % 10.89 C
3515 13-09-2003 09:04:01 15.3 C 74 % 10.7 C
3516 13-09-2003 09:16:01 15.5 C 73 % 10.69 C
3517 13-09-2003 09:28:01 15.5 C 72 % 10.48 C
3518 13-09-2003 09:40:01 15.7 C 72 % 10.67 C
3519 13-09-2003 09:52:01 15.9 C 69 % 10.23 C
3520 13-09-2003 10:04:01 16.6 C 68 % 10.67 C
3521 13-09-2003 10:16:01 16.7 C 65 % 10.09 C
3522 13-09-2003 10:28:01 17.3 C 63 % 10.2 C
3523 13-09-2003 10:40:01 17.3 C 61 % 9.71 C
3524 13-09-2003 10:52:01 17.9 C 60 % 10.03 C
3525 13-09-2003 11:04:04 18.5 C 57 % 9.83 C
Sensor: Nr:Datum:Temp:Feuchte:Taupunkt:
Aussen-T/F 3526 13-09-2003 11:16:04 18.6 C 57 % 9.92 C
3527 13-09-2003 11:28:04 19.2 C 56 % 10.22 C
3528 13-09-2003 11:40:03 19.5 C 52 % 9.39 C
3529 13-09-2003 11:52:03 20 C 51 % 9.56 C
3530 13-09-2003 12:04:01 20.1 C 50 % 9.36 C
3531 13-09-2003 12:16:01 20.8 C 47 % 9.08 C
3532 13-09-2003 12:28:01 21 C 45 % 8.62 C
3533 13-09-2003 12:40:01 20.4 C 45 % 8.08 C
3534 13-09-2003 12:52:01 21 C 43 % 7.95 C
3535 13-09-2003 13:04:00 20.5 C 37 % 5.32 C
3536 13-09-2003 13:16:00 20.8 C 40 % 6.72 C
3537 13-09-2003 13:28:00 20 C 38 % 5.26 C
3538 13-09-2003 13:40:01 20.8 C 41 % 7.08 C
3539 13-09-2003 13:52:01 21.9 C 37 % 6.56 C
3540 13-09-2003 14:04:03 21.3 C 36 % 5.64 C
3541 13-09-2003 14:16:03 21.4 C 36 % 5.73 C
3542 13-09-2003 14:28:03 22.5 C 33 % 5.44 C
3543 13-09-2003 14:40:01 22.7 C 32 % 5.17 C
3544 13-09-2003 14:52:01 22.4 C 33 % 5.35 C
3545 13-09-2003 15:04:00 22.8 C 33 % 5.7 C
3546 13-09-2003 15:16:00 22.9 C 32 % 5.35 C
3547 13-09-2003 15:28:00 22.3 C 32 % 4.82 C
3548 13-09-2003 15:40:00 23.5 C 31 % 5.41 C
3549 13-09-2003 15:52:00 23.2 C 28 % 3.7 C
3550 13-09-2003 16:04:01 23.8 C 29 % 4.71 C
Sensor: Nr:Datum:Temp:Feuchte:Taupunkt:
Aussen-T/F 3551 13-09-2003 16:16:01 23.9 C 28 % 4.3 C
3552 13-09-2003 16:28:01 24.2 C 26 % 3.5 C
3553 13-09-2003 16:40:00 25.2 C 25 % 3.79 C
3554 13-09-2003 16:52:00 25.2 C 26 % 4.35 C
3555 13-09-2003 17:04:01 24.1 C 27 % 3.95 C
3556 13-09-2003 17:16:01 23.7 C 30 % 5.11 C
3557 13-09-2003 17:28:01 22.9 C 30 % 4.42 C
3558 13-09-2003 17:40:00 23.7 C 30 % 5.11 C
3559 13-09-2003 17:52:00 23 C 27 % 3.01 C
3560 13-09-2003 18:04:00 22.1 C 30 % 3.73 C
3561 13-09-2003 18:16:00 22.2 C 30 % 3.82 C
3562 13-09-2003 18:28:00 22.5 C 30 % 4.08 C
3563 13-09-2003 18:40:04 22.5 C 30 % 4.08 C
3564 13-09-2003 18:52:04 22.5 C 30 % 4.08 C
3565 13-09-2003 19:04:02 22.6 C 31 % 4.63 C
3566 13-09-2003 19:16:02 22.2 C 32 % 4.74 C
3567 13-09-2003 19:28:02 20.6 C 36 % 5.02 C
3568 13-09-2003 19:40:03 19.7 C 39 % 5.37 C
3569 13-09-2003 19:52:03 19.1 C 43 % 6.24 C
3570 13-09-2003 20:04:03 18.5 C 45 % 6.36 C
3571 13-09-2003 20:16:03 17.7 C 48 % 6.56 C
3572 13-09-2003 20:28:03 17.2 C 50 % 6.7 C
3573 13-09-2003 20:40:01 16.7 C 52 % 6.81 C
3574 13-09-2003 20:52:01 16.2 C 53 % 6.62 C
3575 13-09-2003 21:04:04 15.8 C 54 % 6.52 C
Sensor: Nr:Datum:Temp:Feuchte:Taupunkt:
Aussen-T/F 3576 13-09-2003 21:16:04 15.5 C 56 % 6.77 C
3577 13-09-2003 21:28:04 15.1 C 57 % 6.65 C
3578 13-09-2003 21:40:04 14.9 C 59 % 6.97 C
3579 13-09-2003 21:52:04 14.6 C 59 % 6.69 C
3580 13-09-2003 22:05:03 14.3 C 60 % 6.65 C
3581 13-09-2003 22:17:03 14.2 C 60 % 6.56 C
3582 13-09-2003 22:29:03 13.8 C 62 % 6.65 C
3583 13-09-2003 22:41:03 13.6 C 64 % 6.93 C
3584 13-09-2003 22:53:03 13.5 C 63 % 6.6 C
3585 13-09-2003 23:05:03 13.2 C 64 % 6.55 C
3586 13-09-2003 23:17:03 13 C 66 % 6.8 C
3587 13-09-2003 23:29:03 12.9 C 66 % 6.71 C
3588 13-09-2003 23:41:03 12.8 C 67 % 6.83 C
3589 13-09-2003 23:53:03 12.6 C 67 % 6.64 C
3590 14-09-2003 00:05:03 12.6 C 69 % 7.07 C
3591 14-09-2003 00:17:03 12.3 C 70 % 6.99 C
3592 14-09-2003 00:29:03 12 C 69 % 6.5 C
3593 14-09-2003 00:41:03 11.8 C 72 % 6.92 C
3594 14-09-2003 00:53:03 11.7 C 72 % 6.83 C
3595 14-09-2003 01:05:03 11.5 C 72 % 6.63 C
3596 14-09-2003 01:17:03 11.2 C 73 % 6.55 C
3597 14-09-2003 01:29:03 11 C 74 % 6.55 C
3598 14-09-2003 01:41:03 10.8 C 74 % 6.36 C
3599 14-09-2003 01:53:03 10.7 C 75 % 6.46 C
3600 14-09-2003 02:05:03 10.7 C 76 % 6.65 C
Sensor: Nr:Datum:Temp:Feuchte:Taupunkt:
Aussen-T/F 3601 14-09-2003 02:17:03 10.6 C 77 % 6.74 C
3602 14-09-2003 02:29:03 10.5 C 77 % 6.64 C
3603 14-09-2003 02:41:03 10.5 C 78 % 6.83 C
3604 14-09-2003 02:53:03 10.4 C 78 % 6.74 C
3605 14-09-2003 03:05:03 10.2 C 77 % 6.35 C
3606 14-09-2003 03:17:03 10 C 78 % 6.35 C
3607 14-09-2003 03:29:03 9.8 C 80 % 6.52 C
3608 14-09-2003 03:41:03 9.6 C 80 % 6.32 C
3609 14-09-2003 03:53:03 9.5 C 81 % 6.41 C
3610 14-09-2003 04:05:03 9.4 C 81 % 6.31 C
3611 14-09-2003 04:17:03 9.2 C 82 % 6.29 C
3612 14-09-2003 04:29:03 9 C 83 % 6.27 C
3613 14-09-2003 04:41:03 8.9 C 85 % 6.52 C
3614 14-09-2003 04:53:03 8.7 C 84 % 6.15 C
3615 14-09-2003 05:05:03 8.7 C 85 % 6.32 C
3616 14-09-2003 05:17:03 8.7 C 86 % 6.49 C
3617 14-09-2003 05:29:03 8.5 C 86 % 6.3 C
3618 14-09-2003 05:41:03 8.4 C 86 % 6.2 C
3619 14-09-2003 05:53:03 8.4 C 87 % 6.37 C
3620 14-09-2003 06:05:03 8.3 C 88 % 6.43 C
3621 14-09-2003 06:17:03 8.1 C 88 % 6.24 C
3622 14-09-2003 06:29:03 8.1 C 88 % 6.24 C
3623 14-09-2003 06:41:03 8 C 88 % 6.14 C
3624 14-09-2003 06:53:03 8 C 87 % 5.97 C
3625 14-09-2003 07:05:03 7.9 C 88 % 6.04 C
Sensor: Nr:Datum:Temp:Feuchte:Taupunkt:
Aussen-T/F 3626 14-09-2003 07:17:03 7.9 C 89 % 6.2 C
3627 14-09-2003 07:29:03 7.8 C 89 % 6.1 C
3628 14-09-2003 07:41:03 7.9 C 89 % 6.2 C
3629 14-09-2003 07:53:03 7.9 C 90 % 6.36 C
3630 14-09-2003 08:05:03 8 C 89 % 6.3 C
3631 14-09-2003 08:17:03 8.2 C 89 % 6.5 C
3632 14-09-2003 08:29:03 8.2 C 89 % 6.5 C
3633 14-09-2003 08:41:03 8.4 C 89 % 6.7 C
3634 14-09-2003 08:53:03 8.5 C 89 % 6.79 C
3635 14-09-2003 09:05:03 8.9 C 90 % 7.35 C
3636 14-09-2003 09:17:03 9.2 C 89 % 7.48 C
3637 14-09-2003 09:29:03 9.5 C 89 % 7.78 C
3638 14-09-2003 09:41:01 9.9 C 89 % 8.17 C
3639 14-09-2003 09:53:01 10.5 C 86 % 8.26 C
3640 14-09-2003 10:05:01 11.1 C 81 % 7.97 C
3641 14-09-2003 10:17:01 11.7 C 79 % 8.18 C
3642 14-09-2003 10:29:01 12.2 C 78 % 8.48 C
3643 14-09-2003 10:41:00 12.9 C 77 % 8.97 C
3644 14-09-2003 10:53:00 13.7 C 75 % 9.35 C
3645 14-09-2003 11:05:13 14.2 C 73 % 9.43 C
3646 14-09-2003 11:17:13 14.9 C 69 % 9.27 C
3647 14-09-2003 11:29:13 15.5 C 66 % 9.18 C
3648 14-09-2003 11:41:02 16.3 C 59 % 8.28 C
3649 14-09-2003 11:53:02 16.8 C 58 % 8.5 C
3650 14-09-2003 12:05:01 17.3 C 57 % 8.71 C
Sensor: Nr:Datum:Temp:Feuchte:Taupunkt:
Aussen-T/F 3651 14-09-2003 12:17:01 18.3 C 54 % 8.84 C
3652 14-09-2003 12:29:01 18.6 C 54 % 9.12 C
3653 14-09-2003 12:41:01 19 C 51 % 8.64 C
3654 14-09-2003 12:53:01 19.3 C 51 % 8.92 C
3655 14-09-2003 13:05:59 20 C 50 % 9.27 C
3656 14-09-2003 13:17:59 20 C 46 % 8.04 C
3657 14-09-2003 13:29:59 20.6 C 46 % 8.58 C
3658 14-09-2003 13:41:00 21.2 C 45 % 8.8 C
3659 14-09-2003 13:53:00 21.8 C 43 % 8.67 C
3660 14-09-2003 14:05:58 22.3 C 40 % 8.06 C
3661 14-09-2003 14:17:58 22.3 C 40 % 8.06 C
3662 14-09-2003 14:29:58 23.3 C 40 % 8.95 C
3663 14-09-2003 14:41:01 24.2 C 37 % 8.6 C
3664 14-09-2003 14:53:01 24.7 C 36 % 8.64 C
3665 14-09-2003 15:05:59 24.2 C 34 % 7.36 C
3666 14-09-2003 15:17:59 25.2 C 33 % 7.79 C
3667 14-09-2003 15:29:59 25.7 C 32 % 7.78 C
3668 14-09-2003 15:41:00 25.5 C 32 % 7.6 C
3669 14-09-2003 15:53:00 24.8 C 33 % 7.45 C
3670 14-09-2003 16:05:58 26 C 31 % 7.57 C
3671 14-09-2003 16:17:58 26.8 C 31 % 8.27 C
3672 14-09-2003 16:29:58 26.3 C 32 % 8.3 C
3673 14-09-2003 16:41:07 25.4 C 33 % 7.97 C
3674 14-09-2003 16:53:07 26.2 C 32 % 8.21 C
3675 14-09-2003 17:05:01 26.2 C 28 % 6.26 C
Sensor: Nr:Datum:Temp:Feuchte:Taupunkt:
Aussen-T/F 3676 14-09-2003 17:17:01 26.3 C 30 % 7.35 C
3677 14-09-2003 17:29:01 26.4 C 30 % 7.44 C
3678 14-09-2003 17:41:01 26.1 C 30 % 7.18 C
3679 14-09-2003 17:53:01 26 C 30 % 7.09 C
3680 14-09-2003 18:05:01 26.4 C 32 % 8.39 C
3681 14-09-2003 18:17:01 26.2 C 33 % 8.67 C
3682 14-09-2003 18:29:01 25.7 C 35 % 9.1 C
3683 14-09-2003 18:41:00 25.1 C 36 % 8.99 C
3684 14-09-2003 18:53:00 24.6 C 37 % 8.95 C
3685 14-09-2003 19:05:00 23.8 C 39 % 9.02 C
3686 14-09-2003 19:17:00 23 C 40 % 8.68 C
3687 14-09-2003 19:29:00 21.9 C 44 % 9.1 C
3688 14-09-2003 19:41:02 20.8 C 46 % 8.77 C
3689 14-09-2003 19:53:02 20 C 47 % 8.35 C
3690 14-09-2003 20:05:00 19.5 C 50 % 8.81 C
3691 14-09-2003 20:17:00 19.3 C 51 % 8.92 C
3692 14-09-2003 20:29:00 18.7 C 54 % 9.21 C
3693 14-09-2003 20:41:01 18.2 C 55 % 9.02 C
3694 14-09-2003 20:53:01 17.7 C 57 % 9.08 C
3695 14-09-2003 21:05:01 17.5 C 57 % 8.9 C
3696 14-09-2003 21:17:01 17.2 C 59 % 9.13 C
3697 14-09-2003 21:29:01 16.8 C 60 % 9 C
3698 14-09-2003 21:41:01 16.5 C 60 % 8.72 C
3699 14-09-2003 21:53:01 16.2 C 61 % 8.68 C
3700 14-09-2003 22:05:00 16 C 63 % 8.97 C
Sensor: Nr:Datum:Temp:Feuchte:Taupunkt:
Aussen-T/F 3701 14-09-2003 22:17:00 15.8 C 65 % 9.24 C
3702 14-09-2003 22:29:00 15.6 C 65 % 9.05 C
3703 14-09-2003 22:42:00 15.2 C 67 % 9.12 C
3704 14-09-2003 22:54:00 15.1 C 67 % 9.02 C
3705 14-09-2003 23:06:00 14.9 C 68 % 9.05 C
3706 14-09-2003 23:18:00 14.7 C 69 % 9.08 C
3707 14-09-2003 23:30:00 14.5 C 70 % 9.1 C
3708 14-09-2003 23:42:00 14.4 C 72 % 9.42 C
3709 14-09-2003 23:54:00 14.2 C 72 % 9.23 C
3710 15-09-2003 00:06:00 13.8 C 75 % 9.45 C
3711 15-09-2003 00:18:00 13.7 C 75 % 9.35 C
3712 15-09-2003 00:30:00 13.7 C 75 % 9.35 C
3713 15-09-2003 00:42:00 13.6 C 75 % 9.26 C
3714 15-09-2003 00:54:00 13.4 C 76 % 9.26 C
3715 15-09-2003 01:06:00 13.4 C 76 % 9.26 C
3716 15-09-2003 01:18:00 13.4 C 76 % 9.26 C
3717 15-09-2003 01:30:00 13.1 C 76 % 8.97 C
3718 15-09-2003 01:42:00 13.1 C 77 % 9.16 C
3719 15-09-2003 01:54:00 12.9 C 79 % 9.35 C
3720 15-09-2003 02:06:00 12.6 C 79 % 9.06 C
3721 15-09-2003 02:18:00 12.6 C 81 % 9.43 C
3722 15-09-2003 02:30:00 12.4 C 80 % 9.05 C
3723 15-09-2003 02:42:00 12.2 C 82 % 9.22 C
3724 15-09-2003 02:54:00 12.1 C 81 % 8.94 C
3725 15-09-2003 03:06:00 12 C 82 % 9.03 C
Sensor: Nr:Datum:Temp:Feuchte:Taupunkt:
Aussen-T/F 3726 15-09-2003 03:18:00 11.8 C 83 % 9.01 C
3727 15-09-2003 03:30:00 11.8 C 85 % 9.36 C
3728 15-09-2003 03:42:00 11.5 C 84 % 8.89 C
3729 15-09-2003 03:54:00 11.5 C 84 % 8.89 C
3730 15-09-2003 04:06:00 11.3 C 84 % 8.7 C
3731 15-09-2003 04:18:00 11.2 C 85 % 8.77 C
3732 15-09-2003 04:30:00 11 C 85 % 8.58 C
3733 15-09-2003 04:42:00 10.9 C 85 % 8.48 C
3734 15-09-2003 04:54:00 10.7 C 86 % 8.46 C
3735 15-09-2003 05:06:00 10.7 C 86 % 8.46 C
3736 15-09-2003 05:18:00 10.6 C 87 % 8.53 C
3737 15-09-2003 05:30:00 10.6 C 87 % 8.53 C
3738 15-09-2003 05:42:00 10.4 C 87 % 8.33 C
3739 15-09-2003 05:54:00 10.4 C 88 % 8.5 C
3740 15-09-2003 06:06:00 10.3 C 88 % 8.4 C
3741 15-09-2003 06:18:00 10.2 C 88 % 8.3 C
3742 15-09-2003 06:30:00 10 C 88 % 8.11 C
3743 15-09-2003 06:42:00 9.9 C 89 % 8.17 C
3744 15-09-2003 06:54:00 9.7 C 89 % 7.98 C
3745 15-09-2003 07:06:00 9.8 C 89 % 8.08 C
3746 15-09-2003 07:18:00 9.7 C 89 % 7.98 C
3747 15-09-2003 07:30:00 9.7 C 90 % 8.14 C
3748 15-09-2003 07:42:00 9.7 C 89 % 7.98 C
3749 15-09-2003 07:54:00 9.7 C 89 % 7.98 C
3750 15-09-2003 08:06:00 9.8 C 89 % 8.08 C
Sensor: Nr:Datum:Temp:Feuchte:Taupunkt:
Aussen-T/F 3751 15-09-2003 08:18:00 10.2 C 89 % 8.47 C
3752 15-09-2003 08:30:00 10.5 C 89 % 8.77 C
3753 15-09-2003 08:42:00 10.9 C 89 % 9.16 C
3754 15-09-2003 08:54:00 11 C 86 % 8.75 C
3755 15-09-2003 09:06:59 11.4 C 85 % 8.97 C
3756 15-09-2003 09:17:59 11.2 C 85 % 8.77 C
3757 15-09-2003 09:29:59 11.2 C 86 % 8.95 C
3758 15-09-2003 09:42:03 11.4 C 87 % 9.32 C
3759 15-09-2003 09:54:03 11.7 C 87 % 9.61 C
3760 15-09-2003 10:06:03 12.1 C 87 % 10 C
3761 15-09-2003 10:18:03 12.8 C 85 % 10.34 C
3762 15-09-2003 10:30:03 13.5 C 82 % 10.49 C
3763 15-09-2003 10:42:04 14 C 81 % 10.79 C
3764 15-09-2003 10:54:01 14.7 C 79 % 11.1 C
3765 15-09-2003 10:54:04 14.7 C 79 % 11.1 C
3766 15-09-2003 11:06:01 15.4 C 74 % 10.79 C
3767 15-09-2003 11:18:01 15.9 C 73 % 11.07 C
3768 15-09-2003 11:30:01 16.5 C 71 % 11.23 C
3769 15-09-2003 11:42:00 17.2 C 69 % 11.47 C
3770 15-09-2003 11:54:00 17.6 C 66 % 11.18 C
3771 15-09-2003 12:06:59 18.2 C 64 % 11.28 C
3772 15-09-2003 12:18:59 18.8 C 65 % 12.09 C
3773 15-09-2003 12:30:59 19.3 C 60 % 11.35 C
3774 15-09-2003 12:42:02 19.7 C 55 % 10.41 C
3775 15-09-2003 12:54:02 20.1 C 57 % 11.32 C
Sensor: Nr:Datum:Temp:Feuchte:Taupunkt:
Aussen-T/F 3776 15-09-2003 13:06:02 20.3 C 47 % 8.63 C
3777 15-09-2003 13:18:02 20.7 C 47 % 8.99 C
3778 15-09-2003 13:30:02 21.4 C 47 % 9.63 C
3779 15-09-2003 13:42:01 22.2 C 42 % 8.69 C
3780 15-09-2003 13:54:01 22.3 C 41 % 8.42 C
3781 15-09-2003 14:06:01 23 C 43 % 9.76 C
3782 15-09-2003 14:18:01 23.9 C 38 % 8.73 C
3783 15-09-2003 14:30:01 24.3 C 36 % 8.28 C
3784 15-09-2003 14:42:01 25 C 35 % 8.48 C
3785 15-09-2003 14:54:01 25.3 C 35 % 8.75 C
3786 15-09-2003 15:06:01 25.5 C 34 % 8.5 C
3787 15-09-2003 15:18:01 25.9 C 35 % 9.27 C
3788 15-09-2003 15:30:01 26.5 C 33 % 8.93 C
3789 15-09-2003 15:42:00 26.7 C 31 % 8.18 C
3790 15-09-2003 15:54:00 26.3 C 32 % 8.3 C
3791 15-09-2003 16:06:59 26.8 C 31 % 8.27 C
3792 15-09-2003 16:18:59 27.6 C 32 % 9.43 C
3793 15-09-2003 16:30:59 27.8 C 28 % 7.63 C
3794 15-09-2003 16:42:00 28.1 C 30 % 8.9 C
3795 15-09-2003 16:54:00 28.1 C 27 % 7.35 C
3796 15-09-2003 17:06:00 28.5 C 27 % 7.69 C
3797 15-09-2003 17:18:00 28.4 C 31 % 9.65 C
3798 15-09-2003 17:30:00 28.8 C 30 % 9.51 C
3799 15-09-2003 17:42:01 28.4 C 31 % 9.65 C
3800 15-09-2003 17:54:01 28.2 C 32 % 9.95 C
Sensor: Nr:Datum:Temp:Feuchte:Taupunkt:
Aussen-T/F 3801 15-09-2003 18:06:17 27.8 C 35 % 10.94 C
3802 15-09-2003 18:18:17 27 C 34 % 9.81 C
3803 15-09-2003 18:30:17 27 C 33 % 9.36 C
3804 15-09-2003 18:42:48 26 C 36 % 9.78 C
3805 15-09-2003 18:54:48 24.2 C 40 % 9.75 C
3806 15-09-2003 19:06:30 23.7 C 43 % 10.39 C
3807 15-09-2003 19:18:30 22.3 C 46 % 10.13 C
3808 15-09-2003 19:30:30 21.3 C 47 % 9.54 C
3809 15-09-2003 19:42:00 20.3 C 52 % 10.13 C
3810 15-09-2003 19:54:00 19.9 C 52 % 9.76 C
3811 15-09-2003 20:06:59 19.1 C 54 % 9.58 C
3812 15-09-2003 20:18:59 18.7 C 58 % 10.28 C
3813 15-09-2003 20:30:59 18.5 C 58 % 10.09 C
3814 15-09-2003 20:42:01 18.3 C 59 % 10.16 C
3815 15-09-2003 20:54:01 18.2 C 60 % 10.31 C
3816 15-09-2003 21:06:01 17.9 C 61 % 10.28 C
3817 15-09-2003 21:18:01 17.6 C 60 % 9.75 C
3818 15-09-2003 21:30:01 17.4 C 61 % 9.81 C
3819 15-09-2003 21:42:57 17.2 C 63 % 10.1 C
3820 15-09-2003 21:54:57 17 C 63 % 9.91 C
3821 15-09-2003 22:07:03 16.8 C 64 % 9.96 C
3822 15-09-2003 22:19:03 16.6 C 64 % 9.77 C
3823 15-09-2003 22:31:03 16.3 C 65 % 9.71 C
3824 15-09-2003 22:43:03 16 C 66 % 9.66 C
3825 15-09-2003 22:55:03 15.8 C 68 % 9.91 C
Sensor: Nr:Datum:Temp:Feuchte:Taupunkt:
Aussen-T/F 3826 15-09-2003 23:07:03 15.6 C 69 % 9.94 C
3827 15-09-2003 23:19:03 15.2 C 70 % 9.77 C
3828 15-09-2003 23:31:03 15 C 72 % 10 C
3829 15-09-2003 23:43:03 14.8 C 74 % 10.22 C
3830 15-09-2003 23:55:03 14.7 C 73 % 9.92 C
3831 16-09-2003 00:07:03 14.5 C 74 % 9.93 C
3832 16-09-2003 00:19:03 14.2 C 75 % 9.84 C
3833 16-09-2003 00:31:03 14.1 C 76 % 9.94 C
3834 16-09-2003 00:43:03 14 C 76 % 9.84 C
3835 16-09-2003 00:55:03 13.9 C 78 % 10.13 C
3836 16-09-2003 01:07:03 13.7 C 78 % 9.94 C
3837 16-09-2003 01:19:03 13.6 C 78 % 9.84 C
3838 16-09-2003 01:31:03 13.5 C 78 % 9.74 C
3839 16-09-2003 01:43:03 13.3 C 79 % 9.74 C
3840 16-09-2003 01:55:03 13.2 C 79 % 9.64 C
3841 16-09-2003 02:07:03 13.1 C 80 % 9.73 C
3842 16-09-2003 02:19:03 12.9 C 81 % 9.72 C
3843 16-09-2003 02:31:03 12.8 C 82 % 9.81 C
3844 16-09-2003 02:43:03 12.6 C 83 % 9.79 C
3845 16-09-2003 02:55:03 12.5 C 83 % 9.69 C
3846 16-09-2003 03:07:03 12.3 C 83 % 9.5 C
3847 16-09-2003 03:19:03 12.3 C 83 % 9.5 C
3848 16-09-2003 03:31:03 12.3 C 83 % 9.5 C
3849 16-09-2003 03:43:03 12 C 83 % 9.21 C
3850 16-09-2003 03:55:03 11.8 C 84 % 9.19 C
Sensor: Nr:Datum:Temp:Feuchte:Taupunkt:
Aussen-T/F 3851 16-09-2003 04:07:03 11.7 C 85 % 9.27 C
3852 16-09-2003 04:19:03 11.6 C 85 % 9.17 C
3853 16-09-2003 04:31:03 11.6 C 85 % 9.17 C
3854 16-09-2003 04:43:03 11.6 C 85 % 9.17 C
3855 16-09-2003 04:55:03 11.4 C 85 % 8.97 C
3856 16-09-2003 05:07:03 11.2 C 85 % 8.77 C
3857 16-09-2003 05:19:03 11.1 C 86 % 8.85 C
3858 16-09-2003 05:19:50 11.1 C 86 % 8.85 C
3859 16-09-2003 05:31:50 10.8 C 87 % 8.73 C
3860 16-09-2003 05:43:50 10.7 C 87 % 8.63 C
3861 16-09-2003 05:55:50 10.7 C 87 % 8.63 C
3862 16-09-2003 06:07:50 10.7 C 87 % 8.63 C
3863 16-09-2003 06:19:50 10.7 C 87 % 8.63 C
3864 16-09-2003 06:31:50 10.5 C 87 % 8.43 C
3865 16-09-2003 06:43:50 10.2 C 87 % 8.14 C
3866 16-09-2003 06:55:50 10.2 C 88 % 8.3 C
3867 16-09-2003 07:07:50 10.1 C 88 % 8.21 C
3868 16-09-2003 07:19:50 10 C 88 % 8.11 C
3869 16-09-2003 07:31:57 10 C 88 % 8.11 C
3870 16-09-2003 07:43:57 10 C 88 % 8.11 C
3871 16-09-2003 07:55:57 10.1 C 88 % 8.21 C
3872 16-09-2003 08:07:43 10 C 88 % 8.11 C
3873 16-09-2003 08:19:43 10 C 88 % 8.11 C
3874 16-09-2003 08:31:01 10.1 C 88 % 8.21 C
3875 16-09-2003 08:43:01 10.3 C 88 % 8.4 C
Sensor: Nr:Datum:Temp:Feuchte:Taupunkt:
Aussen-T/F 3876 16-09-2003 08:55:01 10.6 C 87 % 8.53 C
3877 16-09-2003 09:07:01 11 C 86 % 8.75 C
3878 16-09-2003 09:19:01 11.2 C 85 % 8.77 C
3879 16-09-2003 09:31:01 11.7 C 84 % 9.09 C
3880 16-09-2003 09:43:01 11.9 C 84 % 9.29 C
3881 16-09-2003 09:55:01 12.4 C 82 % 9.42 C
3882 16-09-2003 10:07:01 12.8 C 80 % 9.44 C
3883 16-09-2003 10:19:01 13.2 C 77 % 9.26 C
3884 16-09-2003 10:31:01 13.7 C 77 % 9.75 C
3885 16-09-2003 10:43:01 14.1 C 72 %